<?xml version="1.0" encoding="utf-8"?>
<gpx xmlns:xsi="http://www.w3.org/2001/XMLSchema-instance" xmlns:xsd="http://www.w3.org/2001/XMLSchema" version="1.1" creator="Shapelink.com" xmlns="http://www.topografix.com/GPX/1/1" xmlns:gpxtpx="http://www.garmin.com/xmlschemas/TrackPointExtension/v1">
  <metadata>
    <name>Løping 4.51 km, 2014-06-13</name>
    <desc></desc>
    <author><name>Mikael Blom</name></author> 
    <time>2014-06-13T20:57:04Z</time>
  </metadata>
  <trk>
    <name>Løping 4.51 km, 2014-06-13</name>
    <trkseg>
      <trkpt lat="59.9816721" lon="17.7366851">
        <ele>113.092</ele>
        <time>2014-06-13T20:57:04Z</time>
      </trkpt>
      <trkpt lat="59.981691" lon="17.7366173">
        <ele>115.496</ele>
        <time>2014-06-13T20:57:05Z</time>
      </trkpt>
      <trkpt lat="59.9830499" lon="17.7364009">
        <ele>118.379</ele>
        <time>2014-06-13T20:58:01Z</time>
      </trkpt>
      <trkpt lat="59.9830753" lon="17.7364074">
        <ele>118.379</ele>
        <time>2014-06-13T20:58:02Z</time>
      </trkpt>
      <trkpt lat="59.9831041" lon="17.7364212">
        <ele>118.379</ele>
        <time>2014-06-13T20:58:03Z</time>
      </trkpt>
      <trkpt lat="59.9831339" lon="17.7364353">
        <ele>118.379</ele>
        <time>2014-06-13T20:58:04Z</time>
      </trkpt>
      <trkpt lat="59.9831514" lon="17.7364015">
        <ele>117.899</ele>
        <time>2014-06-13T20:58:05Z</time>
      </trkpt>
      <trkpt lat="59.9831747" lon="17.7363885">
        <ele>117.899</ele>
        <time>2014-06-13T20:58:06Z</time>
      </trkpt>
      <trkpt lat="59.9832034" lon="17.7363647">
        <ele>117.899</ele>
        <time>2014-06-13T20:58:07Z</time>
      </trkpt>
      <trkpt lat="59.9832293" lon="17.7363705">
        <ele>118.379</ele>
        <time>2014-06-13T20:58:08Z</time>
      </trkpt>
      <trkpt lat="59.9832708" lon="17.7363974">
        <ele>117.899</ele>
        <time>2014-06-13T20:58:09Z</time>
      </trkpt>
      <trkpt lat="59.9832931" lon="17.7363861">
        <ele>117.899</ele>
        <time>2014-06-13T20:58:10Z</time>
      </trkpt>
      <trkpt lat="59.9833242" lon="17.736383">
        <ele>117.899</ele>
        <time>2014-06-13T20:58:11Z</time>
      </trkpt>
      <trkpt lat="59.9833536" lon="17.736382">
        <ele>117.899</ele>
        <time>2014-06-13T20:58:12Z</time>
      </trkpt>
      <trkpt lat="59.983392" lon="17.7363955">
        <ele>117.899</ele>
        <time>2014-06-13T20:58:13Z</time>
      </trkpt>
      <trkpt lat="59.9834198" lon="17.7363823">
        <ele>117.899</ele>
        <time>2014-06-13T20:58:14Z</time>
      </trkpt>
      <trkpt lat="59.9834416" lon="17.7363587">
        <ele>118.379</ele>
        <time>2014-06-13T20:58:15Z</time>
      </trkpt>
      <trkpt lat="59.9834716" lon="17.7363882">
        <ele>117.899</ele>
        <time>2014-06-13T20:58:16Z</time>
      </trkpt>
      <trkpt lat="59.9834961" lon="17.7364166">
        <ele>117.899</ele>
        <time>2014-06-13T20:58:17Z</time>
      </trkpt>
      <trkpt lat="59.9835272" lon="17.7364638">
        <ele>117.899</ele>
        <time>2014-06-13T20:58:18Z</time>
      </trkpt>
      <trkpt lat="59.9835587" lon="17.7364939">
        <ele>117.899</ele>
        <time>2014-06-13T20:58:19Z</time>
      </trkpt>
      <trkpt lat="59.9835883" lon="17.7365057">
        <ele>117.899</ele>
        <time>2014-06-13T20:58:20Z</time>
      </trkpt>
      <trkpt lat="59.9836183" lon="17.7365705">
        <ele>117.899</ele>
        <time>2014-06-13T20:58:21Z</time>
      </trkpt>
      <trkpt lat="59.98365" lon="17.7366068">
        <ele>117.899</ele>
        <time>2014-06-13T20:58:22Z</time>
      </trkpt>
      <trkpt lat="59.9836723" lon="17.7366166">
        <ele>117.899</ele>
        <time>2014-06-13T20:58:23Z</time>
      </trkpt>
      <trkpt lat="59.9837036" lon="17.7366348">
        <ele>118.379</ele>
        <time>2014-06-13T20:58:24Z</time>
      </trkpt>
      <trkpt lat="59.9837414" lon="17.7366587">
        <ele>118.379</ele>
        <time>2014-06-13T20:58:25Z</time>
      </trkpt>
      <trkpt lat="59.9837841" lon="17.7367145">
        <ele>118.379</ele>
        <time>2014-06-13T20:58:26Z</time>
      </trkpt>
      <trkpt lat="59.9838162" lon="17.7367237">
        <ele>118.379</ele>
        <time>2014-06-13T20:58:27Z</time>
      </trkpt>
      <trkpt lat="59.9838391" lon="17.7367041">
        <ele>118.379</ele>
        <time>2014-06-13T20:58:28Z</time>
      </trkpt>
      <trkpt lat="59.9838699" lon="17.7366959">
        <ele>118.379</ele>
        <time>2014-06-13T20:58:29Z</time>
      </trkpt>
      <trkpt lat="59.9838922" lon="17.7366871">
        <ele>118.379</ele>
        <time>2014-06-13T20:58:30Z</time>
      </trkpt>
      <trkpt lat="59.9839296" lon="17.7366839">
        <ele>117.899</ele>
        <time>2014-06-13T20:58:31Z</time>
      </trkpt>
      <trkpt lat="59.9839622" lon="17.7366487">
        <ele>117.899</ele>
        <time>2014-06-13T20:58:32Z</time>
      </trkpt>
      <trkpt lat="59.983983" lon="17.7366299">
        <ele>117.899</ele>
        <time>2014-06-13T20:58:33Z</time>
      </trkpt>
      <trkpt lat="59.984008" lon="17.7366213">
        <ele>117.899</ele>
        <time>2014-06-13T20:58:34Z</time>
      </trkpt>
      <trkpt lat="59.984039" lon="17.7366198">
        <ele>117.899</ele>
        <time>2014-06-13T20:58:35Z</time>
      </trkpt>
      <trkpt lat="59.9840664" lon="17.7366188">
        <ele>117.899</ele>
        <time>2014-06-13T20:58:36Z</time>
      </trkpt>
      <trkpt lat="59.9840877" lon="17.7366011">
        <ele>117.418</ele>
        <time>2014-06-13T20:58:37Z</time>
      </trkpt>
      <trkpt lat="59.9841167" lon="17.7366144">
        <ele>117.418</ele>
        <time>2014-06-13T20:58:38Z</time>
      </trkpt>
      <trkpt lat="59.9841507" lon="17.7366151">
        <ele>117.418</ele>
        <time>2014-06-13T20:58:39Z</time>
      </trkpt>
      <trkpt lat="59.9841694" lon="17.7365864">
        <ele>117.418</ele>
        <time>2014-06-13T20:58:40Z</time>
      </trkpt>
      <trkpt lat="59.9841866" lon="17.7365726">
        <ele>117.418</ele>
        <time>2014-06-13T20:58:41Z</time>
      </trkpt>
      <trkpt lat="59.9842057" lon="17.7365577">
        <ele>117.418</ele>
        <time>2014-06-13T20:58:42Z</time>
      </trkpt>
      <trkpt lat="59.9842281" lon="17.7365572">
        <ele>117.418</ele>
        <time>2014-06-13T20:58:43Z</time>
      </trkpt>
      <trkpt lat="59.9842612" lon="17.7365628">
        <ele>117.418</ele>
        <time>2014-06-13T20:58:44Z</time>
      </trkpt>
      <trkpt lat="59.9842895" lon="17.7365753">
        <ele>117.418</ele>
        <time>2014-06-13T20:58:45Z</time>
      </trkpt>
      <trkpt lat="59.9843229" lon="17.7366136">
        <ele>116.938</ele>
        <time>2014-06-13T20:58:46Z</time>
      </trkpt>
      <trkpt lat="59.9843773" lon="17.7366508">
        <ele>116.938</ele>
        <time>2014-06-13T20:58:47Z</time>
      </trkpt>
      <trkpt lat="59.9844377" lon="17.7366943">
        <ele>116.938</ele>
        <time>2014-06-13T20:58:48Z</time>
      </trkpt>
      <trkpt lat="59.9844783" lon="17.73672">
        <ele>116.457</ele>
        <time>2014-06-13T20:58:49Z</time>
      </trkpt>
      <trkpt lat="59.9844988" lon="17.7367083">
        <ele>116.938</ele>
        <time>2014-06-13T20:58:50Z</time>
      </trkpt>
      <trkpt lat="59.9845076" lon="17.7367268">
        <ele>116.457</ele>
        <time>2014-06-13T20:58:51Z</time>
      </trkpt>
      <trkpt lat="59.9845185" lon="17.736743">
        <ele>116.457</ele>
        <time>2014-06-13T20:58:52Z</time>
      </trkpt>
      <trkpt lat="59.9845415" lon="17.73677">
        <ele>116.457</ele>
        <time>2014-06-13T20:58:53Z</time>
      </trkpt>
      <trkpt lat="59.9845668" lon="17.7368073">
        <ele>116.457</ele>
        <time>2014-06-13T20:58:54Z</time>
      </trkpt>
      <trkpt lat="59.9845856" lon="17.7368179">
        <ele>115.976</ele>
        <time>2014-06-13T20:58:55Z</time>
      </trkpt>
      <trkpt lat="59.9846091" lon="17.7368039">
        <ele>115.976</ele>
        <time>2014-06-13T20:58:56Z</time>
      </trkpt>
      <trkpt lat="59.9846322" lon="17.7368072">
        <ele>115.976</ele>
        <time>2014-06-13T20:58:57Z</time>
      </trkpt>
      <trkpt lat="59.9846523" lon="17.7367809">
        <ele>115.976</ele>
        <time>2014-06-13T20:58:58Z</time>
      </trkpt>
      <trkpt lat="59.9846776" lon="17.736772">
        <ele>115.976</ele>
        <time>2014-06-13T20:58:59Z</time>
      </trkpt>
      <trkpt lat="59.9847049" lon="17.7367721">
        <ele>115.976</ele>
        <time>2014-06-13T20:59:00Z</time>
      </trkpt>
      <trkpt lat="59.9847265" lon="17.7367627">
        <ele>115.976</ele>
        <time>2014-06-13T20:59:01Z</time>
      </trkpt>
      <trkpt lat="59.9847481" lon="17.7367584">
        <ele>115.976</ele>
        <time>2014-06-13T20:59:02Z</time>
      </trkpt>
      <trkpt lat="59.9847694" lon="17.736755">
        <ele>115.976</ele>
        <time>2014-06-13T20:59:03Z</time>
      </trkpt>
      <trkpt lat="59.9848068" lon="17.7367508">
        <ele>115.976</ele>
        <time>2014-06-13T20:59:04Z</time>
      </trkpt>
      <trkpt lat="59.9848466" lon="17.7367865">
        <ele>115.976</ele>
        <time>2014-06-13T20:59:05Z</time>
      </trkpt>
      <trkpt lat="59.9848792" lon="17.7368114">
        <ele>115.976</ele>
        <time>2014-06-13T20:59:06Z</time>
      </trkpt>
      <trkpt lat="59.9849013" lon="17.7368228">
        <ele>115.496</ele>
        <time>2014-06-13T20:59:07Z</time>
      </trkpt>
      <trkpt lat="59.9849243" lon="17.7368254">
        <ele>115.496</ele>
        <time>2014-06-13T20:59:08Z</time>
      </trkpt>
      <trkpt lat="59.984946" lon="17.7368291">
        <ele>115.496</ele>
        <time>2014-06-13T20:59:09Z</time>
      </trkpt>
      <trkpt lat="59.9849748" lon="17.7368512">
        <ele>115.496</ele>
        <time>2014-06-13T20:59:10Z</time>
      </trkpt>
      <trkpt lat="59.9849985" lon="17.7368537">
        <ele>115.496</ele>
        <time>2014-06-13T20:59:11Z</time>
      </trkpt>
      <trkpt lat="59.9850192" lon="17.7368472">
        <ele>115.496</ele>
        <time>2014-06-13T20:59:12Z</time>
      </trkpt>
      <trkpt lat="59.985035" lon="17.7368338">
        <ele>115.496</ele>
        <time>2014-06-13T20:59:13Z</time>
      </trkpt>
      <trkpt lat="59.9850563" lon="17.7368233">
        <ele>115.496</ele>
        <time>2014-06-13T20:59:14Z</time>
      </trkpt>
      <trkpt lat="59.9850732" lon="17.7368091">
        <ele>115.496</ele>
        <time>2014-06-13T20:59:15Z</time>
      </trkpt>
      <trkpt lat="59.9850995" lon="17.7368149">
        <ele>115.496</ele>
        <time>2014-06-13T20:59:16Z</time>
      </trkpt>
      <trkpt lat="59.985128" lon="17.7368216">
        <ele>115.015</ele>
        <time>2014-06-13T20:59:17Z</time>
      </trkpt>
      <trkpt lat="59.985152" lon="17.7368063">
        <ele>115.015</ele>
        <time>2014-06-13T20:59:18Z</time>
      </trkpt>
      <trkpt lat="59.9851697" lon="17.7367846">
        <ele>115.496</ele>
        <time>2014-06-13T20:59:19Z</time>
      </trkpt>
      <trkpt lat="59.9851909" lon="17.7367705">
        <ele>115.496</ele>
        <time>2014-06-13T20:59:20Z</time>
      </trkpt>
      <trkpt lat="59.9852205" lon="17.7367565">
        <ele>115.496</ele>
        <time>2014-06-13T20:59:21Z</time>
      </trkpt>
      <trkpt lat="59.9852444" lon="17.7367103">
        <ele>115.496</ele>
        <time>2014-06-13T20:59:22Z</time>
      </trkpt>
      <trkpt lat="59.9852686" lon="17.7366865">
        <ele>115.496</ele>
        <time>2014-06-13T20:59:23Z</time>
      </trkpt>
      <trkpt lat="59.9852831" lon="17.7366445">
        <ele>115.496</ele>
        <time>2014-06-13T20:59:24Z</time>
      </trkpt>
      <trkpt lat="59.9852922" lon="17.7365866">
        <ele>115.496</ele>
        <time>2014-06-13T20:59:25Z</time>
      </trkpt>
      <trkpt lat="59.9852966" lon="17.7365239">
        <ele>115.496</ele>
        <time>2014-06-13T20:59:26Z</time>
      </trkpt>
      <trkpt lat="59.9852989" lon="17.7364705">
        <ele>115.496</ele>
        <time>2014-06-13T20:59:27Z</time>
      </trkpt>
      <trkpt lat="59.9852905" lon="17.7363745">
        <ele>115.976</ele>
        <time>2014-06-13T20:59:28Z</time>
      </trkpt>
      <trkpt lat="59.9852905" lon="17.7362939">
        <ele>115.976</ele>
        <time>2014-06-13T20:59:29Z</time>
      </trkpt>
      <trkpt lat="59.9852867" lon="17.7362006">
        <ele>115.976</ele>
        <time>2014-06-13T20:59:30Z</time>
      </trkpt>
      <trkpt lat="59.9852941" lon="17.7361476">
        <ele>115.976</ele>
        <time>2014-06-13T20:59:31Z</time>
      </trkpt>
      <trkpt lat="59.985304" lon="17.7360669">
        <ele>115.976</ele>
        <time>2014-06-13T20:59:32Z</time>
      </trkpt>
      <trkpt lat="59.9853255" lon="17.7360119">
        <ele>115.976</ele>
        <time>2014-06-13T20:59:33Z</time>
      </trkpt>
      <trkpt lat="59.9853335" lon="17.7359437">
        <ele>115.976</ele>
        <time>2014-06-13T20:59:34Z</time>
      </trkpt>
      <trkpt lat="59.9853444" lon="17.735879">
        <ele>115.976</ele>
        <time>2014-06-13T20:59:35Z</time>
      </trkpt>
      <trkpt lat="59.9853563" lon="17.7358296">
        <ele>115.976</ele>
        <time>2014-06-13T20:59:36Z</time>
      </trkpt>
      <trkpt lat="59.9853682" lon="17.7357903">
        <ele>115.976</ele>
        <time>2014-06-13T20:59:37Z</time>
      </trkpt>
      <trkpt lat="59.9853818" lon="17.735751">
        <ele>115.976</ele>
        <time>2014-06-13T20:59:38Z</time>
      </trkpt>
      <trkpt lat="59.9853962" lon="17.7357106">
        <ele>115.976</ele>
        <time>2014-06-13T20:59:39Z</time>
      </trkpt>
      <trkpt lat="59.9854133" lon="17.7356739">
        <ele>115.496</ele>
        <time>2014-06-13T20:59:40Z</time>
      </trkpt>
      <trkpt lat="59.9854317" lon="17.7356359">
        <ele>115.976</ele>
        <time>2014-06-13T20:59:41Z</time>
      </trkpt>
      <trkpt lat="59.9854441" lon="17.7355646">
        <ele>115.496</ele>
        <time>2014-06-13T20:59:42Z</time>
      </trkpt>
      <trkpt lat="59.9854562" lon="17.7354904">
        <ele>115.496</ele>
        <time>2014-06-13T20:59:43Z</time>
      </trkpt>
      <trkpt lat="59.9854698" lon="17.735437">
        <ele>115.496</ele>
        <time>2014-06-13T20:59:44Z</time>
      </trkpt>
      <trkpt lat="59.9854859" lon="17.7353889">
        <ele>115.496</ele>
        <time>2014-06-13T20:59:45Z</time>
      </trkpt>
      <trkpt lat="59.9855039" lon="17.735324">
        <ele>115.496</ele>
        <time>2014-06-13T20:59:46Z</time>
      </trkpt>
      <trkpt lat="59.9855195" lon="17.7352662">
        <ele>115.496</ele>
        <time>2014-06-13T20:59:47Z</time>
      </trkpt>
      <trkpt lat="59.9855363" lon="17.7352285">
        <ele>115.496</ele>
        <time>2014-06-13T20:59:48Z</time>
      </trkpt>
      <trkpt lat="59.9855568" lon="17.7351735">
        <ele>115.496</ele>
        <time>2014-06-13T20:59:49Z</time>
      </trkpt>
      <trkpt lat="59.9855687" lon="17.7351271">
        <ele>115.496</ele>
        <time>2014-06-13T20:59:50Z</time>
      </trkpt>
      <trkpt lat="59.9855826" lon="17.7351121">
        <ele>115.496</ele>
        <time>2014-06-13T20:59:51Z</time>
      </trkpt>
      <trkpt lat="59.9856002" lon="17.7350896">
        <ele>115.496</ele>
        <time>2014-06-13T20:59:52Z</time>
      </trkpt>
      <trkpt lat="59.9856282" lon="17.7350885">
        <ele>115.015</ele>
        <time>2014-06-13T20:59:53Z</time>
      </trkpt>
      <trkpt lat="59.9856578" lon="17.7350767">
        <ele>115.015</ele>
        <time>2014-06-13T20:59:54Z</time>
      </trkpt>
      <trkpt lat="59.9856879" lon="17.7350538">
        <ele>115.015</ele>
        <time>2014-06-13T20:59:55Z</time>
      </trkpt>
      <trkpt lat="59.9857128" lon="17.7350323">
        <ele>115.015</ele>
        <time>2014-06-13T20:59:56Z</time>
      </trkpt>
      <trkpt lat="59.9857468" lon="17.7350334">
        <ele>115.015</ele>
        <time>2014-06-13T20:59:57Z</time>
      </trkpt>
      <trkpt lat="59.9857781" lon="17.7350248">
        <ele>115.015</ele>
        <time>2014-06-13T20:59:58Z</time>
      </trkpt>
      <trkpt lat="59.9858168" lon="17.7350215">
        <ele>115.496</ele>
        <time>2014-06-13T20:59:59Z</time>
      </trkpt>
      <trkpt lat="59.985849" lon="17.7349919">
        <ele>115.496</ele>
        <time>2014-06-13T21:00:00Z</time>
      </trkpt>
      <trkpt lat="59.9858809" lon="17.7349786">
        <ele>115.496</ele>
        <time>2014-06-13T21:00:01Z</time>
      </trkpt>
      <trkpt lat="59.985909" lon="17.7349548">
        <ele>115.496</ele>
        <time>2014-06-13T21:00:02Z</time>
      </trkpt>
      <trkpt lat="59.9859384" lon="17.7349461">
        <ele>115.496</ele>
        <time>2014-06-13T21:00:03Z</time>
      </trkpt>
      <trkpt lat="59.9859643" lon="17.7349191">
        <ele>115.496</ele>
        <time>2014-06-13T21:00:04Z</time>
      </trkpt>
      <trkpt lat="59.9859883" lon="17.7348992">
        <ele>115.496</ele>
        <time>2014-06-13T21:00:05Z</time>
      </trkpt>
      <trkpt lat="59.9860157" lon="17.7348756">
        <ele>115.496</ele>
        <time>2014-06-13T21:00:06Z</time>
      </trkpt>
      <trkpt lat="59.9860443" lon="17.7348477">
        <ele>115.496</ele>
        <time>2014-06-13T21:00:07Z</time>
      </trkpt>
      <trkpt lat="59.9860691" lon="17.7348129">
        <ele>115.496</ele>
        <time>2014-06-13T21:00:08Z</time>
      </trkpt>
      <trkpt lat="59.9860925" lon="17.7347711">
        <ele>115.496</ele>
        <time>2014-06-13T21:00:09Z</time>
      </trkpt>
      <trkpt lat="59.9861162" lon="17.734742">
        <ele>115.496</ele>
        <time>2014-06-13T21:00:10Z</time>
      </trkpt>
      <trkpt lat="59.9861365" lon="17.7347149">
        <ele>115.496</ele>
        <time>2014-06-13T21:00:11Z</time>
      </trkpt>
      <trkpt lat="59.9861587" lon="17.734683">
        <ele>115.496</ele>
        <time>2014-06-13T21:00:12Z</time>
      </trkpt>
      <trkpt lat="59.9861783" lon="17.7346305">
        <ele>115.496</ele>
        <time>2014-06-13T21:00:13Z</time>
      </trkpt>
      <trkpt lat="59.9862061" lon="17.7346072">
        <ele>115.496</ele>
        <time>2014-06-13T21:00:14Z</time>
      </trkpt>
      <trkpt lat="59.9862369" lon="17.7345993">
        <ele>115.976</ele>
        <time>2014-06-13T21:00:15Z</time>
      </trkpt>
      <trkpt lat="59.9862648" lon="17.7345793">
        <ele>115.976</ele>
        <time>2014-06-13T21:00:16Z</time>
      </trkpt>
      <trkpt lat="59.9863027" lon="17.7345663">
        <ele>115.976</ele>
        <time>2014-06-13T21:00:17Z</time>
      </trkpt>
      <trkpt lat="59.9863295" lon="17.7345361">
        <ele>115.976</ele>
        <time>2014-06-13T21:00:18Z</time>
      </trkpt>
      <trkpt lat="59.9863467" lon="17.7344944">
        <ele>115.976</ele>
        <time>2014-06-13T21:00:19Z</time>
      </trkpt>
      <trkpt lat="59.986358" lon="17.7344309">
        <ele>115.976</ele>
        <time>2014-06-13T21:00:20Z</time>
      </trkpt>
      <trkpt lat="59.9864735" lon="17.7350143">
        <ele>91.4625</ele>
        <time>2014-06-13T21:00:21Z</time>
      </trkpt>
      <trkpt lat="59.9865253" lon="17.7352561">
        <ele>79.446</ele>
        <time>2014-06-13T21:00:22Z</time>
      </trkpt>
      <trkpt lat="59.9865523" lon="17.735334">
        <ele>73.1976</ele>
        <time>2014-06-13T21:00:23Z</time>
      </trkpt>
      <trkpt lat="59.9865791" lon="17.7353751">
        <ele>68.3909</ele>
        <time>2014-06-13T21:00:24Z</time>
      </trkpt>
      <trkpt lat="59.9866" lon="17.7353719">
        <ele>65.5071</ele>
        <time>2014-06-13T21:00:25Z</time>
      </trkpt>
      <trkpt lat="59.9866117" lon="17.7353486">
        <ele>63.1036</ele>
        <time>2014-06-13T21:00:26Z</time>
      </trkpt>
      <trkpt lat="59.986626" lon="17.7353124">
        <ele>62.6229</ele>
        <time>2014-06-13T21:00:27Z</time>
      </trkpt>
      <trkpt lat="59.9866434" lon="17.7352828">
        <ele>62.6229</ele>
        <time>2014-06-13T21:00:28Z</time>
      </trkpt>
      <trkpt lat="59.9866516" lon="17.7352391">
        <ele>61.181</ele>
        <time>2014-06-13T21:00:29Z</time>
      </trkpt>
      <trkpt lat="59.9866532" lon="17.7351846">
        <ele>60.2197</ele>
        <time>2014-06-13T21:00:30Z</time>
      </trkpt>
      <trkpt lat="59.9866586" lon="17.7351341">
        <ele>58.7777</ele>
        <time>2014-06-13T21:00:31Z</time>
      </trkpt>
      <trkpt lat="59.9866659" lon="17.7350912">
        <ele>58.2971</ele>
        <time>2014-06-13T21:00:32Z</time>
      </trkpt>
      <trkpt lat="59.9866742" lon="17.7350417">
        <ele>56.8551</ele>
        <time>2014-06-13T21:00:33Z</time>
      </trkpt>
      <trkpt lat="59.986678" lon="17.7349922">
        <ele>55.8938</ele>
        <time>2014-06-13T21:00:34Z</time>
      </trkpt>
      <trkpt lat="59.9866758" lon="17.7349419">
        <ele>54.4518</ele>
        <time>2014-06-13T21:00:35Z</time>
      </trkpt>
      <trkpt lat="59.9866666" lon="17.7349037">
        <ele>52.0486</ele>
        <time>2014-06-13T21:00:36Z</time>
      </trkpt>
      <trkpt lat="59.986672" lon="17.7348296">
        <ele>52.0486</ele>
        <time>2014-06-13T21:00:37Z</time>
      </trkpt>
      <trkpt lat="59.9866742" lon="17.7347829">
        <ele>50.126</ele>
        <time>2014-06-13T21:00:38Z</time>
      </trkpt>
      <trkpt lat="59.9866849" lon="17.7346917">
        <ele>50.6066</ele>
        <time>2014-06-13T21:00:39Z</time>
      </trkpt>
      <trkpt lat="59.9866938" lon="17.7346312">
        <ele>49.6453</ele>
        <time>2014-06-13T21:00:40Z</time>
      </trkpt>
      <trkpt lat="59.9867042" lon="17.7345467">
        <ele>50.126</ele>
        <time>2014-06-13T21:00:41Z</time>
      </trkpt>
      <trkpt lat="59.9867128" lon="17.7344807">
        <ele>49.6453</ele>
        <time>2014-06-13T21:00:42Z</time>
      </trkpt>
      <trkpt lat="59.9867218" lon="17.734427">
        <ele>48.2034</ele>
        <time>2014-06-13T21:00:43Z</time>
      </trkpt>
      <trkpt lat="59.9867312" lon="17.7343919">
        <ele>46.7612</ele>
        <time>2014-06-13T21:00:44Z</time>
      </trkpt>
      <trkpt lat="59.9867426" lon="17.7343525">
        <ele>45.7999</ele>
        <time>2014-06-13T21:00:45Z</time>
      </trkpt>
      <trkpt lat="59.9867575" lon="17.734313">
        <ele>46.2806</ele>
        <time>2014-06-13T21:00:46Z</time>
      </trkpt>
      <trkpt lat="59.9867699" lon="17.7342771">
        <ele>46.2806</ele>
        <time>2014-06-13T21:00:47Z</time>
      </trkpt>
      <trkpt lat="59.9867866" lon="17.7342471">
        <ele>46.2806</ele>
        <time>2014-06-13T21:00:48Z</time>
      </trkpt>
      <trkpt lat="59.9868067" lon="17.7342078">
        <ele>46.2806</ele>
        <time>2014-06-13T21:00:49Z</time>
      </trkpt>
      <trkpt lat="59.986828" lon="17.7341596">
        <ele>45.7999</ele>
        <time>2014-06-13T21:00:50Z</time>
      </trkpt>
      <trkpt lat="59.9868457" lon="17.7341046">
        <ele>45.7999</ele>
        <time>2014-06-13T21:00:51Z</time>
      </trkpt>
      <trkpt lat="59.9868575" lon="17.7340343">
        <ele>46.7612</ele>
        <time>2014-06-13T21:00:52Z</time>
      </trkpt>
      <trkpt lat="59.9868678" lon="17.7339858">
        <ele>45.7999</ele>
        <time>2014-06-13T21:00:53Z</time>
      </trkpt>
      <trkpt lat="59.9868849" lon="17.7339497">
        <ele>45.3192</ele>
        <time>2014-06-13T21:00:54Z</time>
      </trkpt>
      <trkpt lat="59.9869024" lon="17.7339016">
        <ele>44.8386</ele>
        <time>2014-06-13T21:00:55Z</time>
      </trkpt>
      <trkpt lat="59.9869133" lon="17.7338619">
        <ele>43.8773</ele>
        <time>2014-06-13T21:00:56Z</time>
      </trkpt>
      <trkpt lat="59.9869265" lon="17.7338135">
        <ele>44.358</ele>
        <time>2014-06-13T21:00:57Z</time>
      </trkpt>
      <trkpt lat="59.9869423" lon="17.7337651">
        <ele>44.358</ele>
        <time>2014-06-13T21:00:58Z</time>
      </trkpt>
      <trkpt lat="59.986958" lon="17.733729">
        <ele>44.358</ele>
        <time>2014-06-13T21:00:59Z</time>
      </trkpt>
      <trkpt lat="59.9869712" lon="17.7336873">
        <ele>45.3192</ele>
        <time>2014-06-13T21:01:00Z</time>
      </trkpt>
      <trkpt lat="59.9869797" lon="17.7336576">
        <ele>44.358</ele>
        <time>2014-06-13T21:01:01Z</time>
      </trkpt>
      <trkpt lat="59.9869948" lon="17.7336162">
        <ele>44.358</ele>
        <time>2014-06-13T21:01:02Z</time>
      </trkpt>
      <trkpt lat="59.9870072" lon="17.7335588">
        <ele>43.3966</ele>
        <time>2014-06-13T21:01:03Z</time>
      </trkpt>
      <trkpt lat="59.9870249" lon="17.7334981">
        <ele>43.3966</ele>
        <time>2014-06-13T21:01:04Z</time>
      </trkpt>
      <trkpt lat="59.9870495" lon="17.7334615">
        <ele>44.358</ele>
        <time>2014-06-13T21:01:05Z</time>
      </trkpt>
      <trkpt lat="59.9870812" lon="17.7334349">
        <ele>44.358</ele>
        <time>2014-06-13T21:01:06Z</time>
      </trkpt>
      <trkpt lat="59.9871117" lon="17.7333998">
        <ele>44.358</ele>
        <time>2014-06-13T21:01:07Z</time>
      </trkpt>
      <trkpt lat="59.987147" lon="17.7333569">
        <ele>44.358</ele>
        <time>2014-06-13T21:01:08Z</time>
      </trkpt>
      <trkpt lat="59.9871454" lon="17.7332795">
        <ele>44.8386</ele>
        <time>2014-06-13T21:01:09Z</time>
      </trkpt>
      <trkpt lat="59.9871517" lon="17.7332255">
        <ele>44.8386</ele>
        <time>2014-06-13T21:01:10Z</time>
      </trkpt>
      <trkpt lat="59.9871601" lon="17.7331733">
        <ele>44.8386</ele>
        <time>2014-06-13T21:01:11Z</time>
      </trkpt>
      <trkpt lat="59.9871687" lon="17.7331315">
        <ele>44.8386</ele>
        <time>2014-06-13T21:01:12Z</time>
      </trkpt>
      <trkpt lat="59.9871745" lon="17.7330741">
        <ele>44.358</ele>
        <time>2014-06-13T21:01:13Z</time>
      </trkpt>
      <trkpt lat="59.9871781" lon="17.7330077">
        <ele>43.3966</ele>
        <time>2014-06-13T21:01:14Z</time>
      </trkpt>
      <trkpt lat="59.9871894" lon="17.7329445">
        <ele>43.8773</ele>
        <time>2014-06-13T21:01:15Z</time>
      </trkpt>
      <trkpt lat="59.9872014" lon="17.73289">
        <ele>44.358</ele>
        <time>2014-06-13T21:01:16Z</time>
      </trkpt>
      <trkpt lat="59.9872086" lon="17.7328417">
        <ele>43.8773</ele>
        <time>2014-06-13T21:01:17Z</time>
      </trkpt>
      <trkpt lat="59.9872237" lon="17.7327945">
        <ele>43.8773</ele>
        <time>2014-06-13T21:01:18Z</time>
      </trkpt>
      <trkpt lat="59.9872313" lon="17.7327441">
        <ele>42.916</ele>
        <time>2014-06-13T21:01:19Z</time>
      </trkpt>
      <trkpt lat="59.9872352" lon="17.7326855">
        <ele>42.916</ele>
        <time>2014-06-13T21:01:20Z</time>
      </trkpt>
      <trkpt lat="59.9872386" lon="17.7326331">
        <ele>42.916</ele>
        <time>2014-06-13T21:01:21Z</time>
      </trkpt>
      <trkpt lat="59.9872419" lon="17.7325833">
        <ele>41.9547</ele>
        <time>2014-06-13T21:01:22Z</time>
      </trkpt>
      <trkpt lat="59.98725" lon="17.7325389">
        <ele>42.4354</ele>
        <time>2014-06-13T21:01:23Z</time>
      </trkpt>
      <trkpt lat="59.9872562" lon="17.7325071">
        <ele>41.9547</ele>
        <time>2014-06-13T21:01:24Z</time>
      </trkpt>
      <trkpt lat="59.987264" lon="17.7324612">
        <ele>41.9547</ele>
        <time>2014-06-13T21:01:25Z</time>
      </trkpt>
      <trkpt lat="59.987275" lon="17.7324285">
        <ele>41.474</ele>
        <time>2014-06-13T21:01:26Z</time>
      </trkpt>
      <trkpt lat="59.9872853" lon="17.7323877">
        <ele>40.5128</ele>
        <time>2014-06-13T21:01:27Z</time>
      </trkpt>
      <trkpt lat="59.9872982" lon="17.732331">
        <ele>40.0321</ele>
        <time>2014-06-13T21:01:28Z</time>
      </trkpt>
      <trkpt lat="59.9873216" lon="17.7323001">
        <ele>40.0321</ele>
        <time>2014-06-13T21:01:29Z</time>
      </trkpt>
      <trkpt lat="59.9873411" lon="17.7322639">
        <ele>39.5513</ele>
        <time>2014-06-13T21:01:30Z</time>
      </trkpt>
      <trkpt lat="59.9873614" lon="17.7322333">
        <ele>39.5513</ele>
        <time>2014-06-13T21:01:31Z</time>
      </trkpt>
      <trkpt lat="59.9873838" lon="17.7321901">
        <ele>39.0707</ele>
        <time>2014-06-13T21:01:32Z</time>
      </trkpt>
      <trkpt lat="59.9874128" lon="17.7321429">
        <ele>39.0707</ele>
        <time>2014-06-13T21:01:33Z</time>
      </trkpt>
      <trkpt lat="59.9874331" lon="17.7320885">
        <ele>39.5513</ele>
        <time>2014-06-13T21:01:34Z</time>
      </trkpt>
      <trkpt lat="59.9874532" lon="17.7320649">
        <ele>38.5901</ele>
        <time>2014-06-13T21:01:35Z</time>
      </trkpt>
      <trkpt lat="59.9874739" lon="17.7320354">
        <ele>38.1094</ele>
        <time>2014-06-13T21:01:36Z</time>
      </trkpt>
      <trkpt lat="59.9874967" lon="17.7320099">
        <ele>38.1094</ele>
        <time>2014-06-13T21:01:37Z</time>
      </trkpt>
      <trkpt lat="59.9875247" lon="17.7319852">
        <ele>37.6287</ele>
        <time>2014-06-13T21:01:38Z</time>
      </trkpt>
      <trkpt lat="59.9875499" lon="17.7319707">
        <ele>36.6675</ele>
        <time>2014-06-13T21:01:39Z</time>
      </trkpt>
      <trkpt lat="59.9875735" lon="17.7319447">
        <ele>36.1868</ele>
        <time>2014-06-13T21:01:40Z</time>
      </trkpt>
      <trkpt lat="59.9875999" lon="17.7319191">
        <ele>36.1868</ele>
        <time>2014-06-13T21:01:41Z</time>
      </trkpt>
      <trkpt lat="59.987618" lon="17.7318886">
        <ele>36.1868</ele>
        <time>2014-06-13T21:01:42Z</time>
      </trkpt>
      <trkpt lat="59.9876359" lon="17.7318474">
        <ele>35.7061</ele>
        <time>2014-06-13T21:01:43Z</time>
      </trkpt>
      <trkpt lat="59.98766" lon="17.7318136">
        <ele>35.2255</ele>
        <time>2014-06-13T21:01:44Z</time>
      </trkpt>
      <trkpt lat="59.9876794" lon="17.7317681">
        <ele>34.7449</ele>
        <time>2014-06-13T21:01:45Z</time>
      </trkpt>
      <trkpt lat="59.9876982" lon="17.7317131">
        <ele>34.7449</ele>
        <time>2014-06-13T21:01:46Z</time>
      </trkpt>
      <trkpt lat="59.9877245" lon="17.7316273">
        <ele>35.2255</ele>
        <time>2014-06-13T21:01:47Z</time>
      </trkpt>
      <trkpt lat="59.9877448" lon="17.7315555">
        <ele>35.2255</ele>
        <time>2014-06-13T21:01:48Z</time>
      </trkpt>
      <trkpt lat="59.9877707" lon="17.7315092">
        <ele>36.1868</ele>
        <time>2014-06-13T21:01:49Z</time>
      </trkpt>
      <trkpt lat="59.9877955" lon="17.7314908">
        <ele>36.1868</ele>
        <time>2014-06-13T21:01:50Z</time>
      </trkpt>
      <trkpt lat="59.987822" lon="17.7314676">
        <ele>36.1868</ele>
        <time>2014-06-13T21:01:51Z</time>
      </trkpt>
      <trkpt lat="59.9878499" lon="17.7314525">
        <ele>36.1868</ele>
        <time>2014-06-13T21:01:52Z</time>
      </trkpt>
      <trkpt lat="59.9878722" lon="17.7314443">
        <ele>36.1868</ele>
        <time>2014-06-13T21:01:53Z</time>
      </trkpt>
      <trkpt lat="59.9878924" lon="17.7314314">
        <ele>35.7061</ele>
        <time>2014-06-13T21:01:54Z</time>
      </trkpt>
      <trkpt lat="59.9879119" lon="17.7314096">
        <ele>35.7061</ele>
        <time>2014-06-13T21:01:55Z</time>
      </trkpt>
      <trkpt lat="59.9879323" lon="17.7313831">
        <ele>35.7061</ele>
        <time>2014-06-13T21:01:56Z</time>
      </trkpt>
      <trkpt lat="59.9879527" lon="17.7313444">
        <ele>35.7061</ele>
        <time>2014-06-13T21:01:57Z</time>
      </trkpt>
      <trkpt lat="59.9879722" lon="17.7313013">
        <ele>35.7061</ele>
        <time>2014-06-13T21:01:58Z</time>
      </trkpt>
      <trkpt lat="59.9879915" lon="17.7312532">
        <ele>35.2255</ele>
        <time>2014-06-13T21:01:59Z</time>
      </trkpt>
      <trkpt lat="59.9880178" lon="17.7312263">
        <ele>35.7061</ele>
        <time>2014-06-13T21:02:00Z</time>
      </trkpt>
      <trkpt lat="59.9880443" lon="17.7312131">
        <ele>36.1868</ele>
        <time>2014-06-13T21:02:01Z</time>
      </trkpt>
      <trkpt lat="59.9880677" lon="17.7311713">
        <ele>36.1868</ele>
        <time>2014-06-13T21:02:02Z</time>
      </trkpt>
      <trkpt lat="59.9880901" lon="17.7311077">
        <ele>36.6675</ele>
        <time>2014-06-13T21:02:03Z</time>
      </trkpt>
      <trkpt lat="59.9881114" lon="17.7310416">
        <ele>37.6287</ele>
        <time>2014-06-13T21:02:04Z</time>
      </trkpt>
      <trkpt lat="59.9881298" lon="17.7309847">
        <ele>37.6287</ele>
        <time>2014-06-13T21:02:05Z</time>
      </trkpt>
      <trkpt lat="59.9881523" lon="17.7309356">
        <ele>37.6287</ele>
        <time>2014-06-13T21:02:06Z</time>
      </trkpt>
      <trkpt lat="59.9881728" lon="17.7308867">
        <ele>37.1481</ele>
        <time>2014-06-13T21:02:07Z</time>
      </trkpt>
      <trkpt lat="59.9881922" lon="17.7308416">
        <ele>37.6287</ele>
        <time>2014-06-13T21:02:08Z</time>
      </trkpt>
      <trkpt lat="59.9882174" lon="17.7308174">
        <ele>38.1094</ele>
        <time>2014-06-13T21:02:09Z</time>
      </trkpt>
      <trkpt lat="59.9882355" lon="17.7307496">
        <ele>38.1094</ele>
        <time>2014-06-13T21:02:10Z</time>
      </trkpt>
      <trkpt lat="59.98825" lon="17.7306798">
        <ele>38.5901</ele>
        <time>2014-06-13T21:02:11Z</time>
      </trkpt>
      <trkpt lat="59.9882691" lon="17.7306258">
        <ele>39.0707</ele>
        <time>2014-06-13T21:02:12Z</time>
      </trkpt>
      <trkpt lat="59.9882887" lon="17.7305669">
        <ele>40.0321</ele>
        <time>2014-06-13T21:02:13Z</time>
      </trkpt>
      <trkpt lat="59.9883104" lon="17.730543">
        <ele>40.0321</ele>
        <time>2014-06-13T21:02:14Z</time>
      </trkpt>
      <trkpt lat="59.9883375" lon="17.7305367">
        <ele>40.9934</ele>
        <time>2014-06-13T21:02:15Z</time>
      </trkpt>
      <trkpt lat="59.9883585" lon="17.7304916">
        <ele>40.5128</ele>
        <time>2014-06-13T21:02:16Z</time>
      </trkpt>
      <trkpt lat="59.9883833" lon="17.7304488">
        <ele>40.5128</ele>
        <time>2014-06-13T21:02:17Z</time>
      </trkpt>
      <trkpt lat="59.9884083" lon="17.7303923">
        <ele>40.9934</ele>
        <time>2014-06-13T21:02:18Z</time>
      </trkpt>
      <trkpt lat="59.9884265" lon="17.7303476">
        <ele>40.5128</ele>
        <time>2014-06-13T21:02:19Z</time>
      </trkpt>
      <trkpt lat="59.9884384" lon="17.7303034">
        <ele>40.5128</ele>
        <time>2014-06-13T21:02:20Z</time>
      </trkpt>
      <trkpt lat="59.988461" lon="17.7302699">
        <ele>40.5128</ele>
        <time>2014-06-13T21:02:21Z</time>
      </trkpt>
      <trkpt lat="59.9884804" lon="17.7302133">
        <ele>40.0321</ele>
        <time>2014-06-13T21:02:22Z</time>
      </trkpt>
      <trkpt lat="59.9885032" lon="17.7301747">
        <ele>40.0321</ele>
        <time>2014-06-13T21:02:23Z</time>
      </trkpt>
      <trkpt lat="59.9885284" lon="17.7301344">
        <ele>40.5128</ele>
        <time>2014-06-13T21:02:24Z</time>
      </trkpt>
      <trkpt lat="59.9885479" lon="17.7300981">
        <ele>40.5128</ele>
        <time>2014-06-13T21:02:25Z</time>
      </trkpt>
      <trkpt lat="59.9885674" lon="17.7300523">
        <ele>40.0321</ele>
        <time>2014-06-13T21:02:26Z</time>
      </trkpt>
      <trkpt lat="59.9885909" lon="17.7300187">
        <ele>40.5128</ele>
        <time>2014-06-13T21:02:27Z</time>
      </trkpt>
      <trkpt lat="59.9886166" lon="17.7299916">
        <ele>40.9934</ele>
        <time>2014-06-13T21:02:28Z</time>
      </trkpt>
      <trkpt lat="59.9886415" lon="17.7299704">
        <ele>40.9934</ele>
        <time>2014-06-13T21:02:29Z</time>
      </trkpt>
      <trkpt lat="59.9886662" lon="17.7299519">
        <ele>41.474</ele>
        <time>2014-06-13T21:02:30Z</time>
      </trkpt>
      <trkpt lat="59.9886901" lon="17.7299342">
        <ele>41.474</ele>
        <time>2014-06-13T21:02:31Z</time>
      </trkpt>
      <trkpt lat="59.9887144" lon="17.7299111">
        <ele>41.9547</ele>
        <time>2014-06-13T21:02:32Z</time>
      </trkpt>
      <trkpt lat="59.9887373" lon="17.7298721">
        <ele>42.4354</ele>
        <time>2014-06-13T21:02:33Z</time>
      </trkpt>
      <trkpt lat="59.9887591" lon="17.7298539">
        <ele>42.916</ele>
        <time>2014-06-13T21:02:34Z</time>
      </trkpt>
      <trkpt lat="59.988776" lon="17.729825">
        <ele>43.3966</ele>
        <time>2014-06-13T21:02:35Z</time>
      </trkpt>
      <trkpt lat="59.9887964" lon="17.7297933">
        <ele>43.8773</ele>
        <time>2014-06-13T21:02:36Z</time>
      </trkpt>
      <trkpt lat="59.988821" lon="17.7297512">
        <ele>45.3192</ele>
        <time>2014-06-13T21:02:37Z</time>
      </trkpt>
      <trkpt lat="59.9888436" lon="17.7297343">
        <ele>45.3192</ele>
        <time>2014-06-13T21:02:38Z</time>
      </trkpt>
      <trkpt lat="59.9888701" lon="17.7297241">
        <ele>43.8773</ele>
        <time>2014-06-13T21:02:39Z</time>
      </trkpt>
      <trkpt lat="59.9888959" lon="17.7297018">
        <ele>43.8773</ele>
        <time>2014-06-13T21:02:40Z</time>
      </trkpt>
      <trkpt lat="59.9889184" lon="17.7296717">
        <ele>44.358</ele>
        <time>2014-06-13T21:02:41Z</time>
      </trkpt>
      <trkpt lat="59.9889451" lon="17.729638">
        <ele>45.3192</ele>
        <time>2014-06-13T21:02:42Z</time>
      </trkpt>
      <trkpt lat="59.9889756" lon="17.7296214">
        <ele>45.7999</ele>
        <time>2014-06-13T21:02:43Z</time>
      </trkpt>
      <trkpt lat="59.9889834" lon="17.7295696">
        <ele>43.8773</ele>
        <time>2014-06-13T21:02:44Z</time>
      </trkpt>
      <trkpt lat="59.9889983" lon="17.7295307">
        <ele>44.358</ele>
        <time>2014-06-13T21:02:45Z</time>
      </trkpt>
      <trkpt lat="59.9890233" lon="17.7294954">
        <ele>44.8386</ele>
        <time>2014-06-13T21:02:46Z</time>
      </trkpt>
      <trkpt lat="59.9890511" lon="17.7294706">
        <ele>45.3192</ele>
        <time>2014-06-13T21:02:47Z</time>
      </trkpt>
      <trkpt lat="59.9890839" lon="17.7294658">
        <ele>45.7999</ele>
        <time>2014-06-13T21:02:48Z</time>
      </trkpt>
      <trkpt lat="59.9891182" lon="17.7294644">
        <ele>46.2806</ele>
        <time>2014-06-13T21:02:49Z</time>
      </trkpt>
      <trkpt lat="59.9891497" lon="17.729448">
        <ele>46.7612</ele>
        <time>2014-06-13T21:02:50Z</time>
      </trkpt>
      <trkpt lat="59.9891787" lon="17.7294268">
        <ele>47.7225</ele>
        <time>2014-06-13T21:02:51Z</time>
      </trkpt>
      <trkpt lat="59.9892033" lon="17.7294039">
        <ele>48.684</ele>
        <time>2014-06-13T21:02:52Z</time>
      </trkpt>
      <trkpt lat="59.9892275" lon="17.729379">
        <ele>49.1646</ele>
        <time>2014-06-13T21:02:53Z</time>
      </trkpt>
      <trkpt lat="59.9892528" lon="17.72937">
        <ele>49.1646</ele>
        <time>2014-06-13T21:02:54Z</time>
      </trkpt>
      <trkpt lat="59.9892718" lon="17.729355">
        <ele>48.684</ele>
        <time>2014-06-13T21:02:55Z</time>
      </trkpt>
      <trkpt lat="59.9892893" lon="17.7293156">
        <ele>48.684</ele>
        <time>2014-06-13T21:02:56Z</time>
      </trkpt>
      <trkpt lat="59.9893157" lon="17.7292951">
        <ele>48.684</ele>
        <time>2014-06-13T21:02:57Z</time>
      </trkpt>
      <trkpt lat="59.9893396" lon="17.7292675">
        <ele>49.1646</ele>
        <time>2014-06-13T21:02:58Z</time>
      </trkpt>
      <trkpt lat="59.9893604" lon="17.7292395">
        <ele>49.1646</ele>
        <time>2014-06-13T21:02:59Z</time>
      </trkpt>
      <trkpt lat="59.9893843" lon="17.7292105">
        <ele>48.684</ele>
        <time>2014-06-13T21:03:00Z</time>
      </trkpt>
      <trkpt lat="59.9894069" lon="17.7291857">
        <ele>48.684</ele>
        <time>2014-06-13T21:03:01Z</time>
      </trkpt>
      <trkpt lat="59.9894283" lon="17.7291646">
        <ele>48.2034</ele>
        <time>2014-06-13T21:03:02Z</time>
      </trkpt>
      <trkpt lat="59.9894484" lon="17.7291411">
        <ele>47.7225</ele>
        <time>2014-06-13T21:03:03Z</time>
      </trkpt>
      <trkpt lat="59.9894673" lon="17.7291044">
        <ele>47.7225</ele>
        <time>2014-06-13T21:03:04Z</time>
      </trkpt>
      <trkpt lat="59.9894905" lon="17.7290693">
        <ele>47.7225</ele>
        <time>2014-06-13T21:03:05Z</time>
      </trkpt>
      <trkpt lat="59.9895121" lon="17.7290183">
        <ele>48.2034</ele>
        <time>2014-06-13T21:03:06Z</time>
      </trkpt>
      <trkpt lat="59.9895319" lon="17.7289563">
        <ele>47.7225</ele>
        <time>2014-06-13T21:03:07Z</time>
      </trkpt>
      <trkpt lat="59.9895544" lon="17.7289055">
        <ele>47.7225</ele>
        <time>2014-06-13T21:03:08Z</time>
      </trkpt>
      <trkpt lat="59.9895696" lon="17.7288642">
        <ele>47.7225</ele>
        <time>2014-06-13T21:03:09Z</time>
      </trkpt>
      <trkpt lat="59.9895833" lon="17.7288232">
        <ele>47.7225</ele>
        <time>2014-06-13T21:03:10Z</time>
      </trkpt>
      <trkpt lat="59.9895874" lon="17.7287653">
        <ele>46.7612</ele>
        <time>2014-06-13T21:03:11Z</time>
      </trkpt>
      <trkpt lat="59.9895946" lon="17.7287052">
        <ele>46.2806</ele>
        <time>2014-06-13T21:03:12Z</time>
      </trkpt>
      <trkpt lat="59.9896053" lon="17.7286613">
        <ele>45.7999</ele>
        <time>2014-06-13T21:03:13Z</time>
      </trkpt>
      <trkpt lat="59.9896098" lon="17.7286057">
        <ele>44.8386</ele>
        <time>2014-06-13T21:03:14Z</time>
      </trkpt>
      <trkpt lat="59.9896163" lon="17.7285383">
        <ele>45.3192</ele>
        <time>2014-06-13T21:03:15Z</time>
      </trkpt>
      <trkpt lat="59.9896157" lon="17.7284637">
        <ele>45.3192</ele>
        <time>2014-06-13T21:03:16Z</time>
      </trkpt>
      <trkpt lat="59.9896146" lon="17.7283881">
        <ele>45.3192</ele>
        <time>2014-06-13T21:03:17Z</time>
      </trkpt>
      <trkpt lat="59.9896164" lon="17.7283213">
        <ele>44.8386</ele>
        <time>2014-06-13T21:03:18Z</time>
      </trkpt>
      <trkpt lat="59.9896159" lon="17.7282504">
        <ele>44.358</ele>
        <time>2014-06-13T21:03:19Z</time>
      </trkpt>
      <trkpt lat="59.9896179" lon="17.7281704">
        <ele>43.3966</ele>
        <time>2014-06-13T21:03:20Z</time>
      </trkpt>
      <trkpt lat="59.9896236" lon="17.7281037">
        <ele>43.8773</ele>
        <time>2014-06-13T21:03:21Z</time>
      </trkpt>
      <trkpt lat="59.9896257" lon="17.728056">
        <ele>43.3966</ele>
        <time>2014-06-13T21:03:22Z</time>
      </trkpt>
      <trkpt lat="59.9896268" lon="17.7279869">
        <ele>43.8773</ele>
        <time>2014-06-13T21:03:23Z</time>
      </trkpt>
      <trkpt lat="59.9896263" lon="17.7279278">
        <ele>44.358</ele>
        <time>2014-06-13T21:03:24Z</time>
      </trkpt>
      <trkpt lat="59.9896235" lon="17.7278774">
        <ele>43.3966</ele>
        <time>2014-06-13T21:03:25Z</time>
      </trkpt>
      <trkpt lat="59.9896165" lon="17.7278301">
        <ele>41.9547</ele>
        <time>2014-06-13T21:03:26Z</time>
      </trkpt>
      <trkpt lat="59.9896169" lon="17.7277831">
        <ele>40.9934</ele>
        <time>2014-06-13T21:03:27Z</time>
      </trkpt>
      <trkpt lat="59.9896216" lon="17.7277498">
        <ele>40.9934</ele>
        <time>2014-06-13T21:03:28Z</time>
      </trkpt>
      <trkpt lat="59.9896215" lon="17.7276947">
        <ele>40.0321</ele>
        <time>2014-06-13T21:03:29Z</time>
      </trkpt>
      <trkpt lat="59.9896269" lon="17.7276063">
        <ele>41.474</ele>
        <time>2014-06-13T21:03:30Z</time>
      </trkpt>
      <trkpt lat="59.9896335" lon="17.7275419">
        <ele>41.9547</ele>
        <time>2014-06-13T21:03:31Z</time>
      </trkpt>
      <trkpt lat="59.9896361" lon="17.7274928">
        <ele>41.9547</ele>
        <time>2014-06-13T21:03:32Z</time>
      </trkpt>
      <trkpt lat="59.9896382" lon="17.7274453">
        <ele>41.9547</ele>
        <time>2014-06-13T21:03:33Z</time>
      </trkpt>
      <trkpt lat="59.9896429" lon="17.7273903">
        <ele>41.9547</ele>
        <time>2014-06-13T21:03:34Z</time>
      </trkpt>
      <trkpt lat="59.989644" lon="17.7273499">
        <ele>40.5128</ele>
        <time>2014-06-13T21:03:35Z</time>
      </trkpt>
      <trkpt lat="59.9896542" lon="17.7272899">
        <ele>41.9547</ele>
        <time>2014-06-13T21:03:36Z</time>
      </trkpt>
      <trkpt lat="59.9896615" lon="17.7272371">
        <ele>42.4354</ele>
        <time>2014-06-13T21:03:37Z</time>
      </trkpt>
      <trkpt lat="59.9896604" lon="17.7271597">
        <ele>42.4354</ele>
        <time>2014-06-13T21:03:38Z</time>
      </trkpt>
      <trkpt lat="59.9896656" lon="17.7271102">
        <ele>42.916</ele>
        <time>2014-06-13T21:03:39Z</time>
      </trkpt>
      <trkpt lat="59.9896735" lon="17.727061">
        <ele>42.916</ele>
        <time>2014-06-13T21:03:40Z</time>
      </trkpt>
      <trkpt lat="59.9896759" lon="17.7270163">
        <ele>42.4354</ele>
        <time>2014-06-13T21:03:41Z</time>
      </trkpt>
      <trkpt lat="59.9896759" lon="17.7269624">
        <ele>41.474</ele>
        <time>2014-06-13T21:03:42Z</time>
      </trkpt>
      <trkpt lat="59.9896747" lon="17.7269074">
        <ele>40.9934</ele>
        <time>2014-06-13T21:03:43Z</time>
      </trkpt>
      <trkpt lat="59.9896749" lon="17.7268264">
        <ele>40.9934</ele>
        <time>2014-06-13T21:03:44Z</time>
      </trkpt>
      <trkpt lat="59.9896791" lon="17.7267618">
        <ele>40.9934</ele>
        <time>2014-06-13T21:03:45Z</time>
      </trkpt>
      <trkpt lat="59.9896828" lon="17.7267041">
        <ele>40.9934</ele>
        <time>2014-06-13T21:03:46Z</time>
      </trkpt>
      <trkpt lat="59.9896853" lon="17.7266502">
        <ele>40.9934</ele>
        <time>2014-06-13T21:03:47Z</time>
      </trkpt>
      <trkpt lat="59.9896828" lon="17.7266076">
        <ele>40.5128</ele>
        <time>2014-06-13T21:03:48Z</time>
      </trkpt>
      <trkpt lat="59.9896707" lon="17.7265753">
        <ele>40.0321</ele>
        <time>2014-06-13T21:03:49Z</time>
      </trkpt>
      <trkpt lat="59.9896543" lon="17.726561">
        <ele>39.0707</ele>
        <time>2014-06-13T21:03:50Z</time>
      </trkpt>
      <trkpt lat="59.9896359" lon="17.726561">
        <ele>38.5901</ele>
        <time>2014-06-13T21:03:51Z</time>
      </trkpt>
      <trkpt lat="59.9896138" lon="17.7265587">
        <ele>38.5901</ele>
        <time>2014-06-13T21:03:52Z</time>
      </trkpt>
      <trkpt lat="59.9895868" lon="17.7265658">
        <ele>38.1094</ele>
        <time>2014-06-13T21:03:53Z</time>
      </trkpt>
      <trkpt lat="59.9895589" lon="17.726564">
        <ele>37.6287</ele>
        <time>2014-06-13T21:03:54Z</time>
      </trkpt>
      <trkpt lat="59.9895293" lon="17.7265678">
        <ele>37.1481</ele>
        <time>2014-06-13T21:03:55Z</time>
      </trkpt>
      <trkpt lat="59.9894972" lon="17.7265756">
        <ele>36.1868</ele>
        <time>2014-06-13T21:03:56Z</time>
      </trkpt>
      <trkpt lat="59.9894574" lon="17.7265625">
        <ele>36.1868</ele>
        <time>2014-06-13T21:03:57Z</time>
      </trkpt>
      <trkpt lat="59.9894087" lon="17.7265445">
        <ele>36.6675</ele>
        <time>2014-06-13T21:03:58Z</time>
      </trkpt>
      <trkpt lat="59.9893667" lon="17.7265349">
        <ele>35.7061</ele>
        <time>2014-06-13T21:03:59Z</time>
      </trkpt>
      <trkpt lat="59.9893391" lon="17.7265574">
        <ele>34.7449</ele>
        <time>2014-06-13T21:04:00Z</time>
      </trkpt>
      <trkpt lat="59.9893121" lon="17.7265793">
        <ele>33.3029</ele>
        <time>2014-06-13T21:04:01Z</time>
      </trkpt>
      <trkpt lat="59.9892874" lon="17.7266114">
        <ele>32.8223</ele>
        <time>2014-06-13T21:04:02Z</time>
      </trkpt>
      <trkpt lat="59.9892666" lon="17.7266368">
        <ele>32.8223</ele>
        <time>2014-06-13T21:04:03Z</time>
      </trkpt>
      <trkpt lat="59.9892434" lon="17.7266563">
        <ele>32.8223</ele>
        <time>2014-06-13T21:04:04Z</time>
      </trkpt>
      <trkpt lat="59.9892096" lon="17.7266396">
        <ele>33.3029</ele>
        <time>2014-06-13T21:04:05Z</time>
      </trkpt>
      <trkpt lat="59.9891738" lon="17.7266113">
        <ele>32.8223</ele>
        <time>2014-06-13T21:04:06Z</time>
      </trkpt>
      <trkpt lat="59.9891372" lon="17.7265734">
        <ele>32.3416</ele>
        <time>2014-06-13T21:04:07Z</time>
      </trkpt>
      <trkpt lat="59.9891077" lon="17.7265652">
        <ele>31.8607</ele>
        <time>2014-06-13T21:04:08Z</time>
      </trkpt>
      <trkpt lat="59.9890856" lon="17.726579">
        <ele>31.8607</ele>
        <time>2014-06-13T21:04:09Z</time>
      </trkpt>
      <trkpt lat="59.9890627" lon="17.7265839">
        <ele>31.3801</ele>
        <time>2014-06-13T21:04:10Z</time>
      </trkpt>
      <trkpt lat="59.9890424" lon="17.7265895">
        <ele>30.4188</ele>
        <time>2014-06-13T21:04:11Z</time>
      </trkpt>
      <trkpt lat="59.9890123" lon="17.7265332">
        <ele>29.9381</ele>
        <time>2014-06-13T21:04:12Z</time>
      </trkpt>
      <trkpt lat="59.9889833" lon="17.726533">
        <ele>29.9381</ele>
        <time>2014-06-13T21:04:13Z</time>
      </trkpt>
      <trkpt lat="59.9889508" lon="17.7265328">
        <ele>29.9381</ele>
        <time>2014-06-13T21:04:14Z</time>
      </trkpt>
      <trkpt lat="59.9889198" lon="17.7265512">
        <ele>29.9381</ele>
        <time>2014-06-13T21:04:15Z</time>
      </trkpt>
      <trkpt lat="59.9888853" lon="17.7265315">
        <ele>30.4188</ele>
        <time>2014-06-13T21:04:16Z</time>
      </trkpt>
      <trkpt lat="59.9888601" lon="17.7265626">
        <ele>31.3801</ele>
        <time>2014-06-13T21:04:17Z</time>
      </trkpt>
      <trkpt lat="59.9888252" lon="17.7265411">
        <ele>30.8995</ele>
        <time>2014-06-13T21:04:18Z</time>
      </trkpt>
      <trkpt lat="59.9887922" lon="17.7265476">
        <ele>30.4188</ele>
        <time>2014-06-13T21:04:19Z</time>
      </trkpt>
      <trkpt lat="59.9887585" lon="17.726559">
        <ele>30.4188</ele>
        <time>2014-06-13T21:04:20Z</time>
      </trkpt>
      <trkpt lat="59.9887327" lon="17.7265696">
        <ele>30.4188</ele>
        <time>2014-06-13T21:04:21Z</time>
      </trkpt>
      <trkpt lat="59.9887061" lon="17.7265844">
        <ele>29.4575</ele>
        <time>2014-06-13T21:04:22Z</time>
      </trkpt>
      <trkpt lat="59.9886808" lon="17.7266279">
        <ele>30.4188</ele>
        <time>2014-06-13T21:04:23Z</time>
      </trkpt>
      <trkpt lat="59.9886489" lon="17.726617">
        <ele>30.4188</ele>
        <time>2014-06-13T21:04:24Z</time>
      </trkpt>
      <trkpt lat="59.9886165" lon="17.726585">
        <ele>30.8995</ele>
        <time>2014-06-13T21:04:25Z</time>
      </trkpt>
      <trkpt lat="59.9885918" lon="17.7266293">
        <ele>30.4188</ele>
        <time>2014-06-13T21:04:26Z</time>
      </trkpt>
      <trkpt lat="59.9885667" lon="17.7266579">
        <ele>30.4188</ele>
        <time>2014-06-13T21:04:27Z</time>
      </trkpt>
      <trkpt lat="59.9885389" lon="17.7266556">
        <ele>30.4188</ele>
        <time>2014-06-13T21:04:28Z</time>
      </trkpt>
      <trkpt lat="59.9885124" lon="17.7266744">
        <ele>30.4188</ele>
        <time>2014-06-13T21:04:29Z</time>
      </trkpt>
      <trkpt lat="59.9884833" lon="17.7266829">
        <ele>30.4188</ele>
        <time>2014-06-13T21:04:30Z</time>
      </trkpt>
      <trkpt lat="59.9884571" lon="17.7267038">
        <ele>30.4188</ele>
        <time>2014-06-13T21:04:31Z</time>
      </trkpt>
      <trkpt lat="59.9884261" lon="17.7267112">
        <ele>29.9381</ele>
        <time>2014-06-13T21:04:32Z</time>
      </trkpt>
      <trkpt lat="59.9883882" lon="17.7266448">
        <ele>31.3801</ele>
        <time>2014-06-13T21:04:33Z</time>
      </trkpt>
      <trkpt lat="59.9883587" lon="17.7266399">
        <ele>31.3801</ele>
        <time>2014-06-13T21:04:34Z</time>
      </trkpt>
      <trkpt lat="59.988326" lon="17.7266325">
        <ele>31.3801</ele>
        <time>2014-06-13T21:04:35Z</time>
      </trkpt>
      <trkpt lat="59.988294" lon="17.7266344">
        <ele>30.8995</ele>
        <time>2014-06-13T21:04:36Z</time>
      </trkpt>
      <trkpt lat="59.9882676" lon="17.7266346">
        <ele>31.3801</ele>
        <time>2014-06-13T21:04:37Z</time>
      </trkpt>
      <trkpt lat="59.9882411" lon="17.7266309">
        <ele>31.8607</ele>
        <time>2014-06-13T21:04:38Z</time>
      </trkpt>
      <trkpt lat="59.9882132" lon="17.7266289">
        <ele>31.8607</ele>
        <time>2014-06-13T21:04:39Z</time>
      </trkpt>
      <trkpt lat="59.9881811" lon="17.726628">
        <ele>31.3801</ele>
        <time>2014-06-13T21:04:40Z</time>
      </trkpt>
      <trkpt lat="59.988152" lon="17.7266292">
        <ele>31.8607</ele>
        <time>2014-06-13T21:04:41Z</time>
      </trkpt>
      <trkpt lat="59.9881246" lon="17.7266335">
        <ele>32.3416</ele>
        <time>2014-06-13T21:04:42Z</time>
      </trkpt>
      <trkpt lat="59.988096" lon="17.7266323">
        <ele>31.3801</ele>
        <time>2014-06-13T21:04:43Z</time>
      </trkpt>
      <trkpt lat="59.988069" lon="17.7266368">
        <ele>30.8995</ele>
        <time>2014-06-13T21:04:44Z</time>
      </trkpt>
      <trkpt lat="59.9880461" lon="17.7266432">
        <ele>31.3801</ele>
        <time>2014-06-13T21:04:45Z</time>
      </trkpt>
      <trkpt lat="59.9880183" lon="17.7266417">
        <ele>31.8607</ele>
        <time>2014-06-13T21:04:46Z</time>
      </trkpt>
      <trkpt lat="59.9879867" lon="17.7266456">
        <ele>32.3416</ele>
        <time>2014-06-13T21:04:47Z</time>
      </trkpt>
      <trkpt lat="59.9879509" lon="17.7266539">
        <ele>32.3416</ele>
        <time>2014-06-13T21:04:48Z</time>
      </trkpt>
      <trkpt lat="59.9879184" lon="17.7266553">
        <ele>32.3416</ele>
        <time>2014-06-13T21:04:49Z</time>
      </trkpt>
      <trkpt lat="59.9878903" lon="17.7266552">
        <ele>32.8223</ele>
        <time>2014-06-13T21:04:50Z</time>
      </trkpt>
      <trkpt lat="59.9878587" lon="17.7266512">
        <ele>33.3029</ele>
        <time>2014-06-13T21:04:51Z</time>
      </trkpt>
      <trkpt lat="59.9878226" lon="17.7266511">
        <ele>32.3416</ele>
        <time>2014-06-13T21:04:52Z</time>
      </trkpt>
      <trkpt lat="59.9877918" lon="17.726653">
        <ele>32.8223</ele>
        <time>2014-06-13T21:04:53Z</time>
      </trkpt>
      <trkpt lat="59.9877584" lon="17.7266491">
        <ele>31.8607</ele>
        <time>2014-06-13T21:04:54Z</time>
      </trkpt>
      <trkpt lat="59.9877337" lon="17.7266444">
        <ele>31.3801</ele>
        <time>2014-06-13T21:04:55Z</time>
      </trkpt>
      <trkpt lat="59.9877064" lon="17.7266382">
        <ele>30.8995</ele>
        <time>2014-06-13T21:04:56Z</time>
      </trkpt>
      <trkpt lat="59.9876749" lon="17.726636">
        <ele>29.9381</ele>
        <time>2014-06-13T21:04:57Z</time>
      </trkpt>
      <trkpt lat="59.9876412" lon="17.7266325">
        <ele>28.9769</ele>
        <time>2014-06-13T21:04:58Z</time>
      </trkpt>
      <trkpt lat="59.9876118" lon="17.7266299">
        <ele>28.9769</ele>
        <time>2014-06-13T21:04:59Z</time>
      </trkpt>
      <trkpt lat="59.9875822" lon="17.7266261">
        <ele>28.9769</ele>
        <time>2014-06-13T21:05:00Z</time>
      </trkpt>
      <trkpt lat="59.9875551" lon="17.7266247">
        <ele>28.4962</ele>
        <time>2014-06-13T21:05:01Z</time>
      </trkpt>
      <trkpt lat="59.9875309" lon="17.7266238">
        <ele>28.4962</ele>
        <time>2014-06-13T21:05:02Z</time>
      </trkpt>
      <trkpt lat="59.9875033" lon="17.7266202">
        <ele>27.0543</ele>
        <time>2014-06-13T21:05:03Z</time>
      </trkpt>
      <trkpt lat="59.9874764" lon="17.7266173">
        <ele>26.5736</ele>
        <time>2014-06-13T21:05:04Z</time>
      </trkpt>
      <trkpt lat="59.9874545" lon="17.726617">
        <ele>26.5736</ele>
        <time>2014-06-13T21:05:05Z</time>
      </trkpt>
      <trkpt lat="59.9874307" lon="17.7266171">
        <ele>26.5736</ele>
        <time>2014-06-13T21:05:06Z</time>
      </trkpt>
      <trkpt lat="59.9874051" lon="17.726619">
        <ele>27.0543</ele>
        <time>2014-06-13T21:05:07Z</time>
      </trkpt>
      <trkpt lat="59.9873749" lon="17.7266207">
        <ele>27.0543</ele>
        <time>2014-06-13T21:05:08Z</time>
      </trkpt>
      <trkpt lat="59.9873492" lon="17.7266243">
        <ele>27.0543</ele>
        <time>2014-06-13T21:05:09Z</time>
      </trkpt>
      <trkpt lat="59.9873285" lon="17.7266196">
        <ele>27.0543</ele>
        <time>2014-06-13T21:05:10Z</time>
      </trkpt>
      <trkpt lat="59.9873048" lon="17.726619">
        <ele>27.0543</ele>
        <time>2014-06-13T21:05:11Z</time>
      </trkpt>
      <trkpt lat="59.9872792" lon="17.7266175">
        <ele>27.0543</ele>
        <time>2014-06-13T21:05:12Z</time>
      </trkpt>
      <trkpt lat="59.9872497" lon="17.7266163">
        <ele>26.5736</ele>
        <time>2014-06-13T21:05:13Z</time>
      </trkpt>
      <trkpt lat="59.9872173" lon="17.726614">
        <ele>25.1317</ele>
        <time>2014-06-13T21:05:14Z</time>
      </trkpt>
      <trkpt lat="59.9871932" lon="17.7266144">
        <ele>25.1317</ele>
        <time>2014-06-13T21:05:15Z</time>
      </trkpt>
      <trkpt lat="59.9871691" lon="17.7266098">
        <ele>25.1317</ele>
        <time>2014-06-13T21:05:16Z</time>
      </trkpt>
      <trkpt lat="59.987149" lon="17.7266065">
        <ele>25.1317</ele>
        <time>2014-06-13T21:05:17Z</time>
      </trkpt>
      <trkpt lat="59.9871274" lon="17.7266116">
        <ele>25.6123</ele>
        <time>2014-06-13T21:05:18Z</time>
      </trkpt>
      <trkpt lat="59.9871004" lon="17.7266095">
        <ele>25.6123</ele>
        <time>2014-06-13T21:05:19Z</time>
      </trkpt>
      <trkpt lat="59.9870748" lon="17.7266111">
        <ele>25.6123</ele>
        <time>2014-06-13T21:05:20Z</time>
      </trkpt>
      <trkpt lat="59.9870458" lon="17.7266186">
        <ele>26.0929</ele>
        <time>2014-06-13T21:05:21Z</time>
      </trkpt>
      <trkpt lat="59.9870165" lon="17.7266223">
        <ele>26.0929</ele>
        <time>2014-06-13T21:05:22Z</time>
      </trkpt>
      <trkpt lat="59.9869889" lon="17.7266278">
        <ele>26.0929</ele>
        <time>2014-06-13T21:05:23Z</time>
      </trkpt>
      <trkpt lat="59.986959" lon="17.7266247">
        <ele>25.6123</ele>
        <time>2014-06-13T21:05:24Z</time>
      </trkpt>
      <trkpt lat="59.9869306" lon="17.7266216">
        <ele>25.6123</ele>
        <time>2014-06-13T21:05:25Z</time>
      </trkpt>
      <trkpt lat="59.9869023" lon="17.7266241">
        <ele>25.6123</ele>
        <time>2014-06-13T21:05:26Z</time>
      </trkpt>
      <trkpt lat="59.9868751" lon="17.7266246">
        <ele>26.0929</ele>
        <time>2014-06-13T21:05:27Z</time>
      </trkpt>
      <trkpt lat="59.9868492" lon="17.7266257">
        <ele>26.5736</ele>
        <time>2014-06-13T21:05:28Z</time>
      </trkpt>
      <trkpt lat="59.9868212" lon="17.7266259">
        <ele>26.5736</ele>
        <time>2014-06-13T21:05:29Z</time>
      </trkpt>
      <trkpt lat="59.9867913" lon="17.7266272">
        <ele>26.5736</ele>
        <time>2014-06-13T21:05:30Z</time>
      </trkpt>
      <trkpt lat="59.986762" lon="17.7266303">
        <ele>26.5736</ele>
        <time>2014-06-13T21:05:31Z</time>
      </trkpt>
      <trkpt lat="59.9867374" lon="17.7266266">
        <ele>26.5736</ele>
        <time>2014-06-13T21:05:32Z</time>
      </trkpt>
      <trkpt lat="59.9867144" lon="17.7266259">
        <ele>27.0543</ele>
        <time>2014-06-13T21:05:33Z</time>
      </trkpt>
      <trkpt lat="59.9866926" lon="17.7266269">
        <ele>27.5349</ele>
        <time>2014-06-13T21:05:34Z</time>
      </trkpt>
      <trkpt lat="59.9866694" lon="17.7266256">
        <ele>27.5349</ele>
        <time>2014-06-13T21:05:35Z</time>
      </trkpt>
      <trkpt lat="59.9866433" lon="17.7266216">
        <ele>27.5349</ele>
        <time>2014-06-13T21:05:36Z</time>
      </trkpt>
      <trkpt lat="59.9866159" lon="17.7266188">
        <ele>27.5349</ele>
        <time>2014-06-13T21:05:37Z</time>
      </trkpt>
      <trkpt lat="59.9865897" lon="17.7266184">
        <ele>28.0155</ele>
        <time>2014-06-13T21:05:38Z</time>
      </trkpt>
      <trkpt lat="59.9865643" lon="17.7266196">
        <ele>27.5349</ele>
        <time>2014-06-13T21:05:39Z</time>
      </trkpt>
      <trkpt lat="59.9865423" lon="17.7266196">
        <ele>28.0155</ele>
        <time>2014-06-13T21:05:40Z</time>
      </trkpt>
      <trkpt lat="59.986518" lon="17.726618">
        <ele>27.5349</ele>
        <time>2014-06-13T21:05:41Z</time>
      </trkpt>
      <trkpt lat="59.9864926" lon="17.7266147">
        <ele>27.5349</ele>
        <time>2014-06-13T21:05:42Z</time>
      </trkpt>
      <trkpt lat="59.9864674" lon="17.7266136">
        <ele>27.5349</ele>
        <time>2014-06-13T21:05:43Z</time>
      </trkpt>
      <trkpt lat="59.9864387" lon="17.7266138">
        <ele>27.0543</ele>
        <time>2014-06-13T21:05:44Z</time>
      </trkpt>
      <trkpt lat="59.9864094" lon="17.7266112">
        <ele>26.5736</ele>
        <time>2014-06-13T21:05:45Z</time>
      </trkpt>
      <trkpt lat="59.9863805" lon="17.7266102">
        <ele>26.0929</ele>
        <time>2014-06-13T21:05:46Z</time>
      </trkpt>
      <trkpt lat="59.9863524" lon="17.7266113">
        <ele>26.0929</ele>
        <time>2014-06-13T21:05:47Z</time>
      </trkpt>
      <trkpt lat="59.9863286" lon="17.7266113">
        <ele>25.6123</ele>
        <time>2014-06-13T21:05:48Z</time>
      </trkpt>
      <trkpt lat="59.9863089" lon="17.7266111">
        <ele>25.6123</ele>
        <time>2014-06-13T21:05:49Z</time>
      </trkpt>
      <trkpt lat="59.9862867" lon="17.7266106">
        <ele>25.6123</ele>
        <time>2014-06-13T21:05:50Z</time>
      </trkpt>
      <trkpt lat="59.9862638" lon="17.7266096">
        <ele>26.0929</ele>
        <time>2014-06-13T21:05:51Z</time>
      </trkpt>
      <trkpt lat="59.9862434" lon="17.7266061">
        <ele>26.5736</ele>
        <time>2014-06-13T21:05:52Z</time>
      </trkpt>
      <trkpt lat="59.986218" lon="17.7266041">
        <ele>26.0929</ele>
        <time>2014-06-13T21:05:53Z</time>
      </trkpt>
      <trkpt lat="59.9861916" lon="17.7266009">
        <ele>25.6123</ele>
        <time>2014-06-13T21:05:54Z</time>
      </trkpt>
      <trkpt lat="59.9861644" lon="17.7265984">
        <ele>25.6123</ele>
        <time>2014-06-13T21:05:55Z</time>
      </trkpt>
      <trkpt lat="59.9861362" lon="17.7265986">
        <ele>26.0929</ele>
        <time>2014-06-13T21:05:56Z</time>
      </trkpt>
      <trkpt lat="59.9861085" lon="17.7266019">
        <ele>26.0929</ele>
        <time>2014-06-13T21:05:57Z</time>
      </trkpt>
      <trkpt lat="59.9860809" lon="17.726606">
        <ele>26.5736</ele>
        <time>2014-06-13T21:05:58Z</time>
      </trkpt>
      <trkpt lat="59.9860523" lon="17.7266052">
        <ele>26.5736</ele>
        <time>2014-06-13T21:05:59Z</time>
      </trkpt>
      <trkpt lat="59.9860231" lon="17.7266025">
        <ele>25.6123</ele>
        <time>2014-06-13T21:06:00Z</time>
      </trkpt>
      <trkpt lat="59.9859935" lon="17.7266014">
        <ele>26.0929</ele>
        <time>2014-06-13T21:06:01Z</time>
      </trkpt>
      <trkpt lat="59.985963" lon="17.7266009">
        <ele>25.6123</ele>
        <time>2014-06-13T21:06:02Z</time>
      </trkpt>
      <trkpt lat="59.9859335" lon="17.7266051">
        <ele>26.0929</ele>
        <time>2014-06-13T21:06:03Z</time>
      </trkpt>
      <trkpt lat="59.9859069" lon="17.7266071">
        <ele>26.5736</ele>
        <time>2014-06-13T21:06:04Z</time>
      </trkpt>
      <trkpt lat="59.9858769" lon="17.7266098">
        <ele>26.5736</ele>
        <time>2014-06-13T21:06:05Z</time>
      </trkpt>
      <trkpt lat="59.9858492" lon="17.7266119">
        <ele>26.5736</ele>
        <time>2014-06-13T21:06:06Z</time>
      </trkpt>
      <trkpt lat="59.9858241" lon="17.7266154">
        <ele>27.0543</ele>
        <time>2014-06-13T21:06:07Z</time>
      </trkpt>
      <trkpt lat="59.9857992" lon="17.7266205">
        <ele>27.5349</ele>
        <time>2014-06-13T21:06:08Z</time>
      </trkpt>
      <trkpt lat="59.9857733" lon="17.726619">
        <ele>27.5349</ele>
        <time>2014-06-13T21:06:09Z</time>
      </trkpt>
      <trkpt lat="59.9857458" lon="17.7266185">
        <ele>27.0543</ele>
        <time>2014-06-13T21:06:10Z</time>
      </trkpt>
      <trkpt lat="59.9857188" lon="17.7266202">
        <ele>27.0543</ele>
        <time>2014-06-13T21:06:11Z</time>
      </trkpt>
      <trkpt lat="59.9856894" lon="17.7266205">
        <ele>27.0543</ele>
        <time>2014-06-13T21:06:12Z</time>
      </trkpt>
      <trkpt lat="59.9856604" lon="17.7266202">
        <ele>27.0543</ele>
        <time>2014-06-13T21:06:13Z</time>
      </trkpt>
      <trkpt lat="59.9856312" lon="17.726616">
        <ele>26.5736</ele>
        <time>2014-06-13T21:06:14Z</time>
      </trkpt>
      <trkpt lat="59.9855985" lon="17.7266139">
        <ele>26.0929</ele>
        <time>2014-06-13T21:06:15Z</time>
      </trkpt>
      <trkpt lat="59.9855714" lon="17.7266133">
        <ele>26.0929</ele>
        <time>2014-06-13T21:06:16Z</time>
      </trkpt>
      <trkpt lat="59.9855522" lon="17.7266127">
        <ele>26.5736</ele>
        <time>2014-06-13T21:06:17Z</time>
      </trkpt>
      <trkpt lat="59.9855314" lon="17.7266127">
        <ele>26.5736</ele>
        <time>2014-06-13T21:06:18Z</time>
      </trkpt>
      <trkpt lat="59.9855058" lon="17.7266153">
        <ele>26.5736</ele>
        <time>2014-06-13T21:06:19Z</time>
      </trkpt>
      <trkpt lat="59.9854765" lon="17.7266164">
        <ele>27.0543</ele>
        <time>2014-06-13T21:06:20Z</time>
      </trkpt>
      <trkpt lat="59.9854433" lon="17.7266143">
        <ele>26.5736</ele>
        <time>2014-06-13T21:06:21Z</time>
      </trkpt>
      <trkpt lat="59.9854152" lon="17.726615">
        <ele>27.0543</ele>
        <time>2014-06-13T21:06:22Z</time>
      </trkpt>
      <trkpt lat="59.9853847" lon="17.7266144">
        <ele>26.0929</ele>
        <time>2014-06-13T21:06:23Z</time>
      </trkpt>
      <trkpt lat="59.9853566" lon="17.7266158">
        <ele>25.6123</ele>
        <time>2014-06-13T21:06:24Z</time>
      </trkpt>
      <trkpt lat="59.9853283" lon="17.7266159">
        <ele>26.0929</ele>
        <time>2014-06-13T21:06:25Z</time>
      </trkpt>
      <trkpt lat="59.9853003" lon="17.7266173">
        <ele>26.5736</ele>
        <time>2014-06-13T21:06:26Z</time>
      </trkpt>
      <trkpt lat="59.9852699" lon="17.7266183">
        <ele>26.0929</ele>
        <time>2014-06-13T21:06:27Z</time>
      </trkpt>
      <trkpt lat="59.9852392" lon="17.7266201">
        <ele>26.0929</ele>
        <time>2014-06-13T21:06:28Z</time>
      </trkpt>
      <trkpt lat="59.9852086" lon="17.7266257">
        <ele>26.0929</ele>
        <time>2014-06-13T21:06:29Z</time>
      </trkpt>
      <trkpt lat="59.9851765" lon="17.7266288">
        <ele>25.6123</ele>
        <time>2014-06-13T21:06:30Z</time>
      </trkpt>
      <trkpt lat="59.9851451" lon="17.726632">
        <ele>25.6123</ele>
        <time>2014-06-13T21:06:31Z</time>
      </trkpt>
      <trkpt lat="59.9851164" lon="17.7266334">
        <ele>25.1317</ele>
        <time>2014-06-13T21:06:32Z</time>
      </trkpt>
      <trkpt lat="59.9850863" lon="17.7266359">
        <ele>25.6123</ele>
        <time>2014-06-13T21:06:33Z</time>
      </trkpt>
      <trkpt lat="59.9850552" lon="17.7266404">
        <ele>25.6123</ele>
        <time>2014-06-13T21:06:34Z</time>
      </trkpt>
      <trkpt lat="59.9850277" lon="17.7266419">
        <ele>25.1317</ele>
        <time>2014-06-13T21:06:35Z</time>
      </trkpt>
      <trkpt lat="59.9849978" lon="17.7266414">
        <ele>24.651</ele>
        <time>2014-06-13T21:06:36Z</time>
      </trkpt>
      <trkpt lat="59.9849735" lon="17.7266403">
        <ele>24.1703</ele>
        <time>2014-06-13T21:06:37Z</time>
      </trkpt>
      <trkpt lat="59.9849512" lon="17.7266386">
        <ele>24.1703</ele>
        <time>2014-06-13T21:06:38Z</time>
      </trkpt>
      <trkpt lat="59.9849274" lon="17.7266383">
        <ele>23.6896</ele>
        <time>2014-06-13T21:06:39Z</time>
      </trkpt>
      <trkpt lat="59.984901" lon="17.7266402">
        <ele>23.6896</ele>
        <time>2014-06-13T21:06:40Z</time>
      </trkpt>
      <trkpt lat="59.9848724" lon="17.7266402">
        <ele>23.6896</ele>
        <time>2014-06-13T21:06:41Z</time>
      </trkpt>
      <trkpt lat="59.9848454" lon="17.7266434">
        <ele>24.1703</ele>
        <time>2014-06-13T21:06:42Z</time>
      </trkpt>
      <trkpt lat="59.9848233" lon="17.7266423">
        <ele>24.651</ele>
        <time>2014-06-13T21:06:43Z</time>
      </trkpt>
      <trkpt lat="59.9847999" lon="17.7266422">
        <ele>24.651</ele>
        <time>2014-06-13T21:06:44Z</time>
      </trkpt>
      <trkpt lat="59.9847707" lon="17.7266429">
        <ele>24.651</ele>
        <time>2014-06-13T21:06:45Z</time>
      </trkpt>
      <trkpt lat="59.984746" lon="17.7266432">
        <ele>24.651</ele>
        <time>2014-06-13T21:06:46Z</time>
      </trkpt>
      <trkpt lat="59.9847198" lon="17.7266434">
        <ele>24.1703</ele>
        <time>2014-06-13T21:06:47Z</time>
      </trkpt>
      <trkpt lat="59.9846891" lon="17.7266423">
        <ele>24.1703</ele>
        <time>2014-06-13T21:06:48Z</time>
      </trkpt>
      <trkpt lat="59.984659" lon="17.7266402">
        <ele>24.1703</ele>
        <time>2014-06-13T21:06:49Z</time>
      </trkpt>
      <trkpt lat="59.9846338" lon="17.7266408">
        <ele>24.651</ele>
        <time>2014-06-13T21:06:50Z</time>
      </trkpt>
      <trkpt lat="59.9846052" lon="17.7266429">
        <ele>24.651</ele>
        <time>2014-06-13T21:06:51Z</time>
      </trkpt>
      <trkpt lat="59.9845761" lon="17.7266465">
        <ele>25.1317</ele>
        <time>2014-06-13T21:06:52Z</time>
      </trkpt>
      <trkpt lat="59.9845483" lon="17.7266452">
        <ele>24.651</ele>
        <time>2014-06-13T21:06:53Z</time>
      </trkpt>
      <trkpt lat="59.9845222" lon="17.726644">
        <ele>25.1317</ele>
        <time>2014-06-13T21:06:54Z</time>
      </trkpt>
      <trkpt lat="59.9844969" lon="17.7266434">
        <ele>24.651</ele>
        <time>2014-06-13T21:06:55Z</time>
      </trkpt>
      <trkpt lat="59.9844705" lon="17.7266435">
        <ele>25.1317</ele>
        <time>2014-06-13T21:06:56Z</time>
      </trkpt>
      <trkpt lat="59.9844451" lon="17.7266454">
        <ele>26.0929</ele>
        <time>2014-06-13T21:06:57Z</time>
      </trkpt>
      <trkpt lat="59.9844166" lon="17.7266437">
        <ele>26.0929</ele>
        <time>2014-06-13T21:06:58Z</time>
      </trkpt>
      <trkpt lat="59.9843897" lon="17.726646">
        <ele>26.5736</ele>
        <time>2014-06-13T21:06:59Z</time>
      </trkpt>
      <trkpt lat="59.9843615" lon="17.7266494">
        <ele>27.0543</ele>
        <time>2014-06-13T21:07:00Z</time>
      </trkpt>
      <trkpt lat="59.9843322" lon="17.7266463">
        <ele>26.5736</ele>
        <time>2014-06-13T21:07:01Z</time>
      </trkpt>
      <trkpt lat="59.9843058" lon="17.7266482">
        <ele>26.5736</ele>
        <time>2014-06-13T21:07:02Z</time>
      </trkpt>
      <trkpt lat="59.9842802" lon="17.726648">
        <ele>27.0543</ele>
        <time>2014-06-13T21:07:03Z</time>
      </trkpt>
      <trkpt lat="59.9842545" lon="17.7266475">
        <ele>27.5349</ele>
        <time>2014-06-13T21:07:04Z</time>
      </trkpt>
      <trkpt lat="59.9841996" lon="17.7266486">
        <ele>28.0155</ele>
        <time>2014-06-13T21:07:05Z</time>
      </trkpt>
      <trkpt lat="59.9841755" lon="17.7266491">
        <ele>28.0155</ele>
        <time>2014-06-13T21:07:06Z</time>
      </trkpt>
      <trkpt lat="59.9841509" lon="17.7266491">
        <ele>28.0155</ele>
        <time>2014-06-13T21:07:07Z</time>
      </trkpt>
      <trkpt lat="59.9841265" lon="17.7266499">
        <ele>28.4962</ele>
        <time>2014-06-13T21:07:08Z</time>
      </trkpt>
      <trkpt lat="59.9840975" lon="17.7266527">
        <ele>28.0155</ele>
        <time>2014-06-13T21:07:09Z</time>
      </trkpt>
      <trkpt lat="59.9840674" lon="17.7266582">
        <ele>28.4962</ele>
        <time>2014-06-13T21:07:10Z</time>
      </trkpt>
      <trkpt lat="59.9840403" lon="17.7266577">
        <ele>29.4575</ele>
        <time>2014-06-13T21:07:11Z</time>
      </trkpt>
      <trkpt lat="59.984014" lon="17.7266562">
        <ele>28.9769</ele>
        <time>2014-06-13T21:07:12Z</time>
      </trkpt>
      <trkpt lat="59.9839932" lon="17.7266569">
        <ele>28.9769</ele>
        <time>2014-06-13T21:07:13Z</time>
      </trkpt>
      <trkpt lat="59.9839727" lon="17.7266532">
        <ele>28.9769</ele>
        <time>2014-06-13T21:07:14Z</time>
      </trkpt>
      <trkpt lat="59.9839482" lon="17.7266486">
        <ele>28.9769</ele>
        <time>2014-06-13T21:07:15Z</time>
      </trkpt>
      <trkpt lat="59.9839227" lon="17.7266516">
        <ele>28.9769</ele>
        <time>2014-06-13T21:07:16Z</time>
      </trkpt>
      <trkpt lat="59.9838911" lon="17.7266501">
        <ele>28.9769</ele>
        <time>2014-06-13T21:07:17Z</time>
      </trkpt>
      <trkpt lat="59.9838599" lon="17.7266476">
        <ele>28.0155</ele>
        <time>2014-06-13T21:07:18Z</time>
      </trkpt>
      <trkpt lat="59.983834" lon="17.726648">
        <ele>28.0155</ele>
        <time>2014-06-13T21:07:19Z</time>
      </trkpt>
      <trkpt lat="59.9838078" lon="17.7266454">
        <ele>28.4962</ele>
        <time>2014-06-13T21:07:20Z</time>
      </trkpt>
      <trkpt lat="59.983781" lon="17.7266444">
        <ele>28.4962</ele>
        <time>2014-06-13T21:07:21Z</time>
      </trkpt>
      <trkpt lat="59.983755" lon="17.7266439">
        <ele>28.4962</ele>
        <time>2014-06-13T21:07:22Z</time>
      </trkpt>
      <trkpt lat="59.9837257" lon="17.7266414">
        <ele>28.4962</ele>
        <time>2014-06-13T21:07:23Z</time>
      </trkpt>
      <trkpt lat="59.9836935" lon="17.7266412">
        <ele>27.5349</ele>
        <time>2014-06-13T21:07:24Z</time>
      </trkpt>
      <trkpt lat="59.9836645" lon="17.7266382">
        <ele>27.0543</ele>
        <time>2014-06-13T21:07:25Z</time>
      </trkpt>
      <trkpt lat="59.9836376" lon="17.7266397">
        <ele>26.5736</ele>
        <time>2014-06-13T21:07:26Z</time>
      </trkpt>
      <trkpt lat="59.9836126" lon="17.7266418">
        <ele>26.0929</ele>
        <time>2014-06-13T21:07:27Z</time>
      </trkpt>
      <trkpt lat="59.9835863" lon="17.7266437">
        <ele>26.0929</ele>
        <time>2014-06-13T21:07:28Z</time>
      </trkpt>
      <trkpt lat="59.9835545" lon="17.7266489">
        <ele>26.0929</ele>
        <time>2014-06-13T21:07:29Z</time>
      </trkpt>
      <trkpt lat="59.9835215" lon="17.7266527">
        <ele>25.6123</ele>
        <time>2014-06-13T21:07:30Z</time>
      </trkpt>
      <trkpt lat="59.9834913" lon="17.7266512">
        <ele>25.1317</ele>
        <time>2014-06-13T21:07:31Z</time>
      </trkpt>
      <trkpt lat="59.9834661" lon="17.7266522">
        <ele>25.6123</ele>
        <time>2014-06-13T21:07:32Z</time>
      </trkpt>
      <trkpt lat="59.9834449" lon="17.7266509">
        <ele>25.1317</ele>
        <time>2014-06-13T21:07:33Z</time>
      </trkpt>
      <trkpt lat="59.983422" lon="17.7266496">
        <ele>24.651</ele>
        <time>2014-06-13T21:07:34Z</time>
      </trkpt>
      <trkpt lat="59.9833936" lon="17.7266521">
        <ele>24.1703</ele>
        <time>2014-06-13T21:07:35Z</time>
      </trkpt>
      <trkpt lat="59.9833625" lon="17.7266543">
        <ele>24.1703</ele>
        <time>2014-06-13T21:07:36Z</time>
      </trkpt>
      <trkpt lat="59.9833362" lon="17.7266544">
        <ele>23.6896</ele>
        <time>2014-06-13T21:07:37Z</time>
      </trkpt>
      <trkpt lat="59.9833195" lon="17.7266551">
        <ele>24.1703</ele>
        <time>2014-06-13T21:07:38Z</time>
      </trkpt>
      <trkpt lat="59.9832975" lon="17.7266522">
        <ele>24.1703</ele>
        <time>2014-06-13T21:07:39Z</time>
      </trkpt>
      <trkpt lat="59.9832693" lon="17.7266506">
        <ele>24.651</ele>
        <time>2014-06-13T21:07:40Z</time>
      </trkpt>
      <trkpt lat="59.9832422" lon="17.7266517">
        <ele>24.651</ele>
        <time>2014-06-13T21:07:41Z</time>
      </trkpt>
      <trkpt lat="59.9832162" lon="17.7266496">
        <ele>24.651</ele>
        <time>2014-06-13T21:07:42Z</time>
      </trkpt>
      <trkpt lat="59.9831884" lon="17.72665">
        <ele>24.651</ele>
        <time>2014-06-13T21:07:43Z</time>
      </trkpt>
      <trkpt lat="59.9831655" lon="17.7266496">
        <ele>25.1317</ele>
        <time>2014-06-13T21:07:44Z</time>
      </trkpt>
      <trkpt lat="59.9831418" lon="17.7266442">
        <ele>25.6123</ele>
        <time>2014-06-13T21:07:45Z</time>
      </trkpt>
      <trkpt lat="59.9831145" lon="17.7266416">
        <ele>25.6123</ele>
        <time>2014-06-13T21:07:46Z</time>
      </trkpt>
      <trkpt lat="59.9830822" lon="17.7266396">
        <ele>24.651</ele>
        <time>2014-06-13T21:07:47Z</time>
      </trkpt>
      <trkpt lat="59.983054" lon="17.7266428">
        <ele>24.1703</ele>
        <time>2014-06-13T21:07:48Z</time>
      </trkpt>
      <trkpt lat="59.9830288" lon="17.7266518">
        <ele>24.651</ele>
        <time>2014-06-13T21:07:49Z</time>
      </trkpt>
      <trkpt lat="59.9830002" lon="17.7266567">
        <ele>25.1317</ele>
        <time>2014-06-13T21:07:50Z</time>
      </trkpt>
      <trkpt lat="59.9829714" lon="17.7266574">
        <ele>25.1317</ele>
        <time>2014-06-13T21:07:51Z</time>
      </trkpt>
      <trkpt lat="59.9829409" lon="17.7266592">
        <ele>25.1317</ele>
        <time>2014-06-13T21:07:52Z</time>
      </trkpt>
      <trkpt lat="59.9829134" lon="17.7266593">
        <ele>25.6123</ele>
        <time>2014-06-13T21:07:53Z</time>
      </trkpt>
      <trkpt lat="59.9828843" lon="17.7266613">
        <ele>25.6123</ele>
        <time>2014-06-13T21:07:54Z</time>
      </trkpt>
      <trkpt lat="59.9828531" lon="17.7266593">
        <ele>25.6123</ele>
        <time>2014-06-13T21:07:55Z</time>
      </trkpt>
      <trkpt lat="59.982824" lon="17.7266568">
        <ele>25.6123</ele>
        <time>2014-06-13T21:07:56Z</time>
      </trkpt>
      <trkpt lat="59.9827959" lon="17.7266541">
        <ele>25.1317</ele>
        <time>2014-06-13T21:07:57Z</time>
      </trkpt>
      <trkpt lat="59.9827695" lon="17.7266548">
        <ele>25.1317</ele>
        <time>2014-06-13T21:07:58Z</time>
      </trkpt>
      <trkpt lat="59.9827436" lon="17.726661">
        <ele>24.651</ele>
        <time>2014-06-13T21:07:59Z</time>
      </trkpt>
      <trkpt lat="59.9827208" lon="17.7266745">
        <ele>26.0929</ele>
        <time>2014-06-13T21:08:00Z</time>
      </trkpt>
      <trkpt lat="59.9826964" lon="17.7266854">
        <ele>25.1317</ele>
        <time>2014-06-13T21:08:01Z</time>
      </trkpt>
      <trkpt lat="59.9826716" lon="17.7267033">
        <ele>25.6123</ele>
        <time>2014-06-13T21:08:02Z</time>
      </trkpt>
      <trkpt lat="59.9826481" lon="17.7267307">
        <ele>26.0929</ele>
        <time>2014-06-13T21:08:03Z</time>
      </trkpt>
      <trkpt lat="59.9826296" lon="17.7267604">
        <ele>27.0543</ele>
        <time>2014-06-13T21:08:04Z</time>
      </trkpt>
      <trkpt lat="59.9826087" lon="17.7267884">
        <ele>27.5349</ele>
        <time>2014-06-13T21:08:05Z</time>
      </trkpt>
      <trkpt lat="59.9825916" lon="17.7268133">
        <ele>28.0155</ele>
        <time>2014-06-13T21:08:06Z</time>
      </trkpt>
      <trkpt lat="59.9825735" lon="17.7268391">
        <ele>28.9769</ele>
        <time>2014-06-13T21:08:07Z</time>
      </trkpt>
      <trkpt lat="59.9825486" lon="17.7268678">
        <ele>29.9381</ele>
        <time>2014-06-13T21:08:08Z</time>
      </trkpt>
      <trkpt lat="59.9825265" lon="17.7268846">
        <ele>29.9381</ele>
        <time>2014-06-13T21:08:09Z</time>
      </trkpt>
      <trkpt lat="59.9825056" lon="17.7269002">
        <ele>29.4575</ele>
        <time>2014-06-13T21:08:10Z</time>
      </trkpt>
      <trkpt lat="59.9824801" lon="17.726921">
        <ele>29.9381</ele>
        <time>2014-06-13T21:08:11Z</time>
      </trkpt>
      <trkpt lat="59.9824534" lon="17.726945">
        <ele>30.4188</ele>
        <time>2014-06-13T21:08:12Z</time>
      </trkpt>
      <trkpt lat="59.9824288" lon="17.7269709">
        <ele>30.8995</ele>
        <time>2014-06-13T21:08:13Z</time>
      </trkpt>
      <trkpt lat="59.9824057" lon="17.7269975">
        <ele>31.3801</ele>
        <time>2014-06-13T21:08:14Z</time>
      </trkpt>
      <trkpt lat="59.9823837" lon="17.7270298">
        <ele>31.8607</ele>
        <time>2014-06-13T21:08:15Z</time>
      </trkpt>
      <trkpt lat="59.9823594" lon="17.7270643">
        <ele>31.8607</ele>
        <time>2014-06-13T21:08:16Z</time>
      </trkpt>
      <trkpt lat="59.9823337" lon="17.727103">
        <ele>31.3801</ele>
        <time>2014-06-13T21:08:17Z</time>
      </trkpt>
      <trkpt lat="59.9823161" lon="17.72715">
        <ele>31.8607</ele>
        <time>2014-06-13T21:08:18Z</time>
      </trkpt>
      <trkpt lat="59.9822985" lon="17.7271951">
        <ele>31.8607</ele>
        <time>2014-06-13T21:08:19Z</time>
      </trkpt>
      <trkpt lat="59.9822853" lon="17.7272368">
        <ele>31.3801</ele>
        <time>2014-06-13T21:08:20Z</time>
      </trkpt>
      <trkpt lat="59.9822731" lon="17.7272842">
        <ele>31.8607</ele>
        <time>2014-06-13T21:08:21Z</time>
      </trkpt>
      <trkpt lat="59.9822576" lon="17.7273328">
        <ele>31.3801</ele>
        <time>2014-06-13T21:08:22Z</time>
      </trkpt>
      <trkpt lat="59.9822428" lon="17.7273765">
        <ele>30.4188</ele>
        <time>2014-06-13T21:08:23Z</time>
      </trkpt>
      <trkpt lat="59.9822373" lon="17.7274198">
        <ele>30.8995</ele>
        <time>2014-06-13T21:08:24Z</time>
      </trkpt>
      <trkpt lat="59.9822248" lon="17.7274622">
        <ele>30.8995</ele>
        <time>2014-06-13T21:08:25Z</time>
      </trkpt>
      <trkpt lat="59.9822058" lon="17.7275055">
        <ele>29.9381</ele>
        <time>2014-06-13T21:08:26Z</time>
      </trkpt>
      <trkpt lat="59.9821949" lon="17.727556">
        <ele>31.3801</ele>
        <time>2014-06-13T21:08:27Z</time>
      </trkpt>
      <trkpt lat="59.9821752" lon="17.7276007">
        <ele>31.3801</ele>
        <time>2014-06-13T21:08:28Z</time>
      </trkpt>
      <trkpt lat="59.982155" lon="17.7276378">
        <ele>31.3801</ele>
        <time>2014-06-13T21:08:29Z</time>
      </trkpt>
      <trkpt lat="59.9821353" lon="17.7276711">
        <ele>31.3801</ele>
        <time>2014-06-13T21:08:30Z</time>
      </trkpt>
      <trkpt lat="59.9821144" lon="17.7277018">
        <ele>31.3801</ele>
        <time>2014-06-13T21:08:31Z</time>
      </trkpt>
      <trkpt lat="59.9820944" lon="17.7277303">
        <ele>31.3801</ele>
        <time>2014-06-13T21:08:32Z</time>
      </trkpt>
      <trkpt lat="59.982076" lon="17.7277606">
        <ele>31.3801</ele>
        <time>2014-06-13T21:08:33Z</time>
      </trkpt>
      <trkpt lat="59.9820529" lon="17.7277921">
        <ele>31.8607</ele>
        <time>2014-06-13T21:08:34Z</time>
      </trkpt>
      <trkpt lat="59.9820255" lon="17.7278217">
        <ele>31.3801</ele>
        <time>2014-06-13T21:08:35Z</time>
      </trkpt>
      <trkpt lat="59.9819979" lon="17.7278539">
        <ele>30.4188</ele>
        <time>2014-06-13T21:08:36Z</time>
      </trkpt>
      <trkpt lat="59.9819716" lon="17.7278865">
        <ele>29.9381</ele>
        <time>2014-06-13T21:08:37Z</time>
      </trkpt>
      <trkpt lat="59.9819476" lon="17.7279152">
        <ele>28.9769</ele>
        <time>2014-06-13T21:08:38Z</time>
      </trkpt>
      <trkpt lat="59.9819307" lon="17.727942">
        <ele>28.4962</ele>
        <time>2014-06-13T21:08:39Z</time>
      </trkpt>
      <trkpt lat="59.981912" lon="17.727967">
        <ele>28.0155</ele>
        <time>2014-06-13T21:08:40Z</time>
      </trkpt>
      <trkpt lat="59.981887" lon="17.7279969">
        <ele>27.0543</ele>
        <time>2014-06-13T21:08:41Z</time>
      </trkpt>
      <trkpt lat="59.9818688" lon="17.7280258">
        <ele>27.0543</ele>
        <time>2014-06-13T21:08:42Z</time>
      </trkpt>
      <trkpt lat="59.9818509" lon="17.7280537">
        <ele>27.5349</ele>
        <time>2014-06-13T21:08:43Z</time>
      </trkpt>
      <trkpt lat="59.981825" lon="17.7280804">
        <ele>27.0543</ele>
        <time>2014-06-13T21:08:44Z</time>
      </trkpt>
      <trkpt lat="59.9818033" lon="17.7281057">
        <ele>26.5736</ele>
        <time>2014-06-13T21:08:45Z</time>
      </trkpt>
      <trkpt lat="59.9817866" lon="17.7281295">
        <ele>26.5736</ele>
        <time>2014-06-13T21:08:46Z</time>
      </trkpt>
      <trkpt lat="59.9817691" lon="17.7281503">
        <ele>27.0543</ele>
        <time>2014-06-13T21:08:47Z</time>
      </trkpt>
      <trkpt lat="59.9817551" lon="17.7281692">
        <ele>27.5349</ele>
        <time>2014-06-13T21:08:48Z</time>
      </trkpt>
      <trkpt lat="59.9817422" lon="17.7281872">
        <ele>27.5349</ele>
        <time>2014-06-13T21:08:49Z</time>
      </trkpt>
      <trkpt lat="59.9817274" lon="17.7282008">
        <ele>28.4962</ele>
        <time>2014-06-13T21:08:50Z</time>
      </trkpt>
      <trkpt lat="59.9817054" lon="17.7282145">
        <ele>28.0155</ele>
        <time>2014-06-13T21:08:51Z</time>
      </trkpt>
      <trkpt lat="59.9816844" lon="17.7282268">
        <ele>28.0155</ele>
        <time>2014-06-13T21:08:52Z</time>
      </trkpt>
      <trkpt lat="59.9816639" lon="17.7282368">
        <ele>28.4962</ele>
        <time>2014-06-13T21:08:53Z</time>
      </trkpt>
      <trkpt lat="59.9816461" lon="17.7282495">
        <ele>28.9769</ele>
        <time>2014-06-13T21:08:54Z</time>
      </trkpt>
      <trkpt lat="59.9816256" lon="17.7282657">
        <ele>29.4575</ele>
        <time>2014-06-13T21:08:55Z</time>
      </trkpt>
      <trkpt lat="59.9816" lon="17.7282818">
        <ele>29.9381</ele>
        <time>2014-06-13T21:08:56Z</time>
      </trkpt>
      <trkpt lat="59.9815665" lon="17.7282979">
        <ele>29.4575</ele>
        <time>2014-06-13T21:08:57Z</time>
      </trkpt>
      <trkpt lat="59.981538" lon="17.7283174">
        <ele>29.4575</ele>
        <time>2014-06-13T21:08:58Z</time>
      </trkpt>
      <trkpt lat="59.9815133" lon="17.7283414">
        <ele>30.4188</ele>
        <time>2014-06-13T21:08:59Z</time>
      </trkpt>
      <trkpt lat="59.9814929" lon="17.7283715">
        <ele>30.8995</ele>
        <time>2014-06-13T21:09:00Z</time>
      </trkpt>
      <trkpt lat="59.9814686" lon="17.7284052">
        <ele>31.3801</ele>
        <time>2014-06-13T21:09:01Z</time>
      </trkpt>
      <trkpt lat="59.9814441" lon="17.7284386">
        <ele>31.3801</ele>
        <time>2014-06-13T21:09:02Z</time>
      </trkpt>
      <trkpt lat="59.9814249" lon="17.7284718">
        <ele>31.3801</ele>
        <time>2014-06-13T21:09:03Z</time>
      </trkpt>
      <trkpt lat="59.981406" lon="17.7285056">
        <ele>31.8607</ele>
        <time>2014-06-13T21:09:04Z</time>
      </trkpt>
      <trkpt lat="59.9813842" lon="17.7285347">
        <ele>30.8995</ele>
        <time>2014-06-13T21:09:05Z</time>
      </trkpt>
      <trkpt lat="59.9813676" lon="17.7285669">
        <ele>31.3801</ele>
        <time>2014-06-13T21:09:06Z</time>
      </trkpt>
      <trkpt lat="59.9813454" lon="17.7285963">
        <ele>30.4188</ele>
        <time>2014-06-13T21:09:07Z</time>
      </trkpt>
      <trkpt lat="59.9813239" lon="17.7286232">
        <ele>30.8995</ele>
        <time>2014-06-13T21:09:08Z</time>
      </trkpt>
      <trkpt lat="59.9813009" lon="17.7286547">
        <ele>30.8995</ele>
        <time>2014-06-13T21:09:09Z</time>
      </trkpt>
      <trkpt lat="59.9812775" lon="17.7286885">
        <ele>30.8995</ele>
        <time>2014-06-13T21:09:10Z</time>
      </trkpt>
      <trkpt lat="59.9812542" lon="17.7287168">
        <ele>29.9381</ele>
        <time>2014-06-13T21:09:11Z</time>
      </trkpt>
      <trkpt lat="59.9812322" lon="17.7287442">
        <ele>29.9381</ele>
        <time>2014-06-13T21:09:12Z</time>
      </trkpt>
      <trkpt lat="59.9812104" lon="17.7287668">
        <ele>29.9381</ele>
        <time>2014-06-13T21:09:13Z</time>
      </trkpt>
      <trkpt lat="59.9811887" lon="17.7287879">
        <ele>29.9381</ele>
        <time>2014-06-13T21:09:14Z</time>
      </trkpt>
      <trkpt lat="59.9811645" lon="17.7288119">
        <ele>29.9381</ele>
        <time>2014-06-13T21:09:15Z</time>
      </trkpt>
      <trkpt lat="59.9811412" lon="17.7288314">
        <ele>29.9381</ele>
        <time>2014-06-13T21:09:16Z</time>
      </trkpt>
      <trkpt lat="59.9811239" lon="17.7288504">
        <ele>29.9381</ele>
        <time>2014-06-13T21:09:17Z</time>
      </trkpt>
      <trkpt lat="59.9810998" lon="17.7288682">
        <ele>29.4575</ele>
        <time>2014-06-13T21:09:18Z</time>
      </trkpt>
      <trkpt lat="59.9810697" lon="17.7288827">
        <ele>29.4575</ele>
        <time>2014-06-13T21:09:19Z</time>
      </trkpt>
      <trkpt lat="59.9810411" lon="17.728892">
        <ele>28.9769</ele>
        <time>2014-06-13T21:09:20Z</time>
      </trkpt>
      <trkpt lat="59.9810117" lon="17.7288993">
        <ele>28.4962</ele>
        <time>2014-06-13T21:09:21Z</time>
      </trkpt>
      <trkpt lat="59.9809843" lon="17.72891">
        <ele>28.0155</ele>
        <time>2014-06-13T21:09:22Z</time>
      </trkpt>
      <trkpt lat="59.9809554" lon="17.7289206">
        <ele>28.0155</ele>
        <time>2014-06-13T21:09:23Z</time>
      </trkpt>
      <trkpt lat="59.9809235" lon="17.7289212">
        <ele>28.0155</ele>
        <time>2014-06-13T21:09:24Z</time>
      </trkpt>
      <trkpt lat="59.98089" lon="17.7289069">
        <ele>28.0155</ele>
        <time>2014-06-13T21:09:25Z</time>
      </trkpt>
      <trkpt lat="59.9808551" lon="17.7288837">
        <ele>26.5736</ele>
        <time>2014-06-13T21:09:26Z</time>
      </trkpt>
      <trkpt lat="59.9808228" lon="17.7288558">
        <ele>25.1317</ele>
        <time>2014-06-13T21:09:27Z</time>
      </trkpt>
      <trkpt lat="59.9807934" lon="17.7288263">
        <ele>25.1317</ele>
        <time>2014-06-13T21:09:28Z</time>
      </trkpt>
      <trkpt lat="59.9807671" lon="17.7287909">
        <ele>25.1317</ele>
        <time>2014-06-13T21:09:29Z</time>
      </trkpt>
      <trkpt lat="59.980745" lon="17.7287432">
        <ele>25.1317</ele>
        <time>2014-06-13T21:09:30Z</time>
      </trkpt>
      <trkpt lat="59.9807211" lon="17.7286937">
        <ele>24.651</ele>
        <time>2014-06-13T21:09:31Z</time>
      </trkpt>
      <trkpt lat="59.9807" lon="17.7286413">
        <ele>24.651</ele>
        <time>2014-06-13T21:09:32Z</time>
      </trkpt>
      <trkpt lat="59.9806792" lon="17.7285998">
        <ele>24.1703</ele>
        <time>2014-06-13T21:09:33Z</time>
      </trkpt>
      <trkpt lat="59.9806543" lon="17.7285554">
        <ele>23.209</ele>
        <time>2014-06-13T21:09:34Z</time>
      </trkpt>
      <trkpt lat="59.9806336" lon="17.7285137">
        <ele>23.209</ele>
        <time>2014-06-13T21:09:35Z</time>
      </trkpt>
      <trkpt lat="59.9806103" lon="17.728472">
        <ele>22.2476</ele>
        <time>2014-06-13T21:09:36Z</time>
      </trkpt>
      <trkpt lat="59.9805865" lon="17.728441">
        <ele>21.767</ele>
        <time>2014-06-13T21:09:37Z</time>
      </trkpt>
      <trkpt lat="59.980559" lon="17.7284063">
        <ele>21.767</ele>
        <time>2014-06-13T21:09:38Z</time>
      </trkpt>
      <trkpt lat="59.9805351" lon="17.7283616">
        <ele>20.8057</ele>
        <time>2014-06-13T21:09:39Z</time>
      </trkpt>
      <trkpt lat="59.9805165" lon="17.7283172">
        <ele>20.8057</ele>
        <time>2014-06-13T21:09:40Z</time>
      </trkpt>
      <trkpt lat="59.9804989" lon="17.7282776">
        <ele>20.325</ele>
        <time>2014-06-13T21:09:41Z</time>
      </trkpt>
      <trkpt lat="59.9804777" lon="17.7282425">
        <ele>20.325</ele>
        <time>2014-06-13T21:09:42Z</time>
      </trkpt>
      <trkpt lat="59.9804564" lon="17.7282062">
        <ele>19.8444</ele>
        <time>2014-06-13T21:09:43Z</time>
      </trkpt>
      <trkpt lat="59.980436" lon="17.7281604">
        <ele>19.8444</ele>
        <time>2014-06-13T21:09:44Z</time>
      </trkpt>
      <trkpt lat="59.9804146" lon="17.7281176">
        <ele>19.3638</ele>
        <time>2014-06-13T21:09:45Z</time>
      </trkpt>
      <trkpt lat="59.9803943" lon="17.7280822">
        <ele>19.3638</ele>
        <time>2014-06-13T21:09:46Z</time>
      </trkpt>
      <trkpt lat="59.9803694" lon="17.7280452">
        <ele>18.8831</ele>
        <time>2014-06-13T21:09:47Z</time>
      </trkpt>
      <trkpt lat="59.9803434" lon="17.7280103">
        <ele>18.8831</ele>
        <time>2014-06-13T21:09:48Z</time>
      </trkpt>
      <trkpt lat="59.9803153" lon="17.7279829">
        <ele>18.8831</ele>
        <time>2014-06-13T21:09:49Z</time>
      </trkpt>
      <trkpt lat="59.9802865" lon="17.7279523">
        <ele>18.8831</ele>
        <time>2014-06-13T21:09:50Z</time>
      </trkpt>
      <trkpt lat="59.9802592" lon="17.727926">
        <ele>18.8831</ele>
        <time>2014-06-13T21:09:51Z</time>
      </trkpt>
      <trkpt lat="59.9802336" lon="17.7278926">
        <ele>18.4023</ele>
        <time>2014-06-13T21:09:52Z</time>
      </trkpt>
      <trkpt lat="59.9802115" lon="17.727856">
        <ele>17.9218</ele>
        <time>2014-06-13T21:09:53Z</time>
      </trkpt>
      <trkpt lat="59.9801915" lon="17.7278149">
        <ele>17.9218</ele>
        <time>2014-06-13T21:09:54Z</time>
      </trkpt>
      <trkpt lat="59.9801731" lon="17.7277706">
        <ele>18.4023</ele>
        <time>2014-06-13T21:09:55Z</time>
      </trkpt>
      <trkpt lat="59.9801504" lon="17.727732">
        <ele>17.4412</ele>
        <time>2014-06-13T21:09:56Z</time>
      </trkpt>
      <trkpt lat="59.980128" lon="17.7276882">
        <ele>17.4412</ele>
        <time>2014-06-13T21:09:57Z</time>
      </trkpt>
      <trkpt lat="59.9801068" lon="17.7276393">
        <ele>17.4412</ele>
        <time>2014-06-13T21:09:58Z</time>
      </trkpt>
      <trkpt lat="59.9800829" lon="17.7276003">
        <ele>16.4797</ele>
        <time>2014-06-13T21:09:59Z</time>
      </trkpt>
      <trkpt lat="59.9800591" lon="17.7275644">
        <ele>16.9604</ele>
        <time>2014-06-13T21:10:00Z</time>
      </trkpt>
      <trkpt lat="59.9800338" lon="17.7275348">
        <ele>16.9604</ele>
        <time>2014-06-13T21:10:01Z</time>
      </trkpt>
      <trkpt lat="59.9800078" lon="17.7275002">
        <ele>17.4412</ele>
        <time>2014-06-13T21:10:02Z</time>
      </trkpt>
      <trkpt lat="59.9799823" lon="17.7274643">
        <ele>17.4412</ele>
        <time>2014-06-13T21:10:03Z</time>
      </trkpt>
      <trkpt lat="59.9799566" lon="17.7274357">
        <ele>17.4412</ele>
        <time>2014-06-13T21:10:04Z</time>
      </trkpt>
      <trkpt lat="59.9799333" lon="17.7274017">
        <ele>16.9604</ele>
        <time>2014-06-13T21:10:05Z</time>
      </trkpt>
      <trkpt lat="59.979913" lon="17.7273608">
        <ele>16.4797</ele>
        <time>2014-06-13T21:10:06Z</time>
      </trkpt>
      <trkpt lat="59.9798913" lon="17.7273299">
        <ele>15.999</ele>
        <time>2014-06-13T21:10:07Z</time>
      </trkpt>
      <trkpt lat="59.979866" lon="17.7272953">
        <ele>15.999</ele>
        <time>2014-06-13T21:10:08Z</time>
      </trkpt>
      <trkpt lat="59.9798429" lon="17.7272579">
        <ele>15.5184</ele>
        <time>2014-06-13T21:10:09Z</time>
      </trkpt>
      <trkpt lat="59.9798225" lon="17.7272177">
        <ele>15.5184</ele>
        <time>2014-06-13T21:10:10Z</time>
      </trkpt>
      <trkpt lat="59.9798018" lon="17.7271721">
        <ele>15.0377</ele>
        <time>2014-06-13T21:10:11Z</time>
      </trkpt>
      <trkpt lat="59.9797809" lon="17.7271283">
        <ele>15.0377</ele>
        <time>2014-06-13T21:10:12Z</time>
      </trkpt>
      <trkpt lat="59.9797588" lon="17.7270847">
        <ele>14.557</ele>
        <time>2014-06-13T21:10:13Z</time>
      </trkpt>
      <trkpt lat="59.979736" lon="17.7270468">
        <ele>14.0764</ele>
        <time>2014-06-13T21:10:14Z</time>
      </trkpt>
      <trkpt lat="59.9797144" lon="17.7270175">
        <ele>14.0764</ele>
        <time>2014-06-13T21:10:15Z</time>
      </trkpt>
      <trkpt lat="59.9796942" lon="17.7269811">
        <ele>13.5958</ele>
        <time>2014-06-13T21:10:16Z</time>
      </trkpt>
      <trkpt lat="59.9796735" lon="17.7269457">
        <ele>14.0764</ele>
        <time>2014-06-13T21:10:17Z</time>
      </trkpt>
      <trkpt lat="59.9796526" lon="17.7269139">
        <ele>14.0764</ele>
        <time>2014-06-13T21:10:18Z</time>
      </trkpt>
      <trkpt lat="59.9796316" lon="17.726873">
        <ele>14.0764</ele>
        <time>2014-06-13T21:10:19Z</time>
      </trkpt>
      <trkpt lat="59.9796108" lon="17.7268252">
        <ele>13.5958</ele>
        <time>2014-06-13T21:10:20Z</time>
      </trkpt>
      <trkpt lat="59.9795893" lon="17.7267763">
        <ele>12.6344</ele>
        <time>2014-06-13T21:10:21Z</time>
      </trkpt>
      <trkpt lat="59.9795638" lon="17.7267346">
        <ele>12.1538</ele>
        <time>2014-06-13T21:10:22Z</time>
      </trkpt>
      <trkpt lat="59.9795415" lon="17.7266947">
        <ele>12.1538</ele>
        <time>2014-06-13T21:10:23Z</time>
      </trkpt>
      <trkpt lat="59.9795207" lon="17.7266512">
        <ele>12.1538</ele>
        <time>2014-06-13T21:10:24Z</time>
      </trkpt>
      <trkpt lat="59.9794992" lon="17.726606">
        <ele>11.6732</ele>
        <time>2014-06-13T21:10:25Z</time>
      </trkpt>
      <trkpt lat="59.9794769" lon="17.7265636">
        <ele>10.7118</ele>
        <time>2014-06-13T21:10:26Z</time>
      </trkpt>
      <trkpt lat="59.9794547" lon="17.7265216">
        <ele>10.2312</ele>
        <time>2014-06-13T21:10:27Z</time>
      </trkpt>
      <trkpt lat="59.9794349" lon="17.7264848">
        <ele>10.2312</ele>
        <time>2014-06-13T21:10:28Z</time>
      </trkpt>
      <trkpt lat="59.9794152" lon="17.7264543">
        <ele>10.2312</ele>
        <time>2014-06-13T21:10:29Z</time>
      </trkpt>
      <trkpt lat="59.9793922" lon="17.7264284">
        <ele>10.2312</ele>
        <time>2014-06-13T21:10:30Z</time>
      </trkpt>
      <trkpt lat="59.979369" lon="17.7264102">
        <ele>10.2312</ele>
        <time>2014-06-13T21:10:31Z</time>
      </trkpt>
      <trkpt lat="59.9793453" lon="17.7263993">
        <ele>10.7118</ele>
        <time>2014-06-13T21:10:32Z</time>
      </trkpt>
      <trkpt lat="59.9793202" lon="17.7263895">
        <ele>10.2312</ele>
        <time>2014-06-13T21:10:33Z</time>
      </trkpt>
      <trkpt lat="59.9792954" lon="17.7263803">
        <ele>10.2312</ele>
        <time>2014-06-13T21:10:34Z</time>
      </trkpt>
      <trkpt lat="59.9792666" lon="17.7263726">
        <ele>9.75061</ele>
        <time>2014-06-13T21:10:35Z</time>
      </trkpt>
      <trkpt lat="59.979238" lon="17.7263643">
        <ele>10.2312</ele>
        <time>2014-06-13T21:10:36Z</time>
      </trkpt>
      <trkpt lat="59.9792136" lon="17.7263503">
        <ele>10.7118</ele>
        <time>2014-06-13T21:10:37Z</time>
      </trkpt>
      <trkpt lat="59.9791884" lon="17.726332">
        <ele>11.1925</ele>
        <time>2014-06-13T21:10:38Z</time>
      </trkpt>
      <trkpt lat="59.9791619" lon="17.726315">
        <ele>11.6732</ele>
        <time>2014-06-13T21:10:39Z</time>
      </trkpt>
      <trkpt lat="59.9791327" lon="17.7262963">
        <ele>12.1538</ele>
        <time>2014-06-13T21:10:40Z</time>
      </trkpt>
      <trkpt lat="59.9791032" lon="17.7262756">
        <ele>12.1538</ele>
        <time>2014-06-13T21:10:41Z</time>
      </trkpt>
      <trkpt lat="59.9790769" lon="17.726259">
        <ele>12.1538</ele>
        <time>2014-06-13T21:10:42Z</time>
      </trkpt>
      <trkpt lat="59.9790506" lon="17.7262351">
        <ele>12.1538</ele>
        <time>2014-06-13T21:10:43Z</time>
      </trkpt>
      <trkpt lat="59.9790247" lon="17.7262097">
        <ele>11.6732</ele>
        <time>2014-06-13T21:10:44Z</time>
      </trkpt>
      <trkpt lat="59.9789998" lon="17.7261812">
        <ele>11.6732</ele>
        <time>2014-06-13T21:10:45Z</time>
      </trkpt>
      <trkpt lat="59.9789724" lon="17.7261518">
        <ele>11.6732</ele>
        <time>2014-06-13T21:10:46Z</time>
      </trkpt>
      <trkpt lat="59.9789436" lon="17.7261259">
        <ele>11.1925</ele>
        <time>2014-06-13T21:10:47Z</time>
      </trkpt>
      <trkpt lat="59.9789194" lon="17.7260941">
        <ele>11.1925</ele>
        <time>2014-06-13T21:10:48Z</time>
      </trkpt>
      <trkpt lat="59.9788986" lon="17.7260597">
        <ele>11.1925</ele>
        <time>2014-06-13T21:10:49Z</time>
      </trkpt>
      <trkpt lat="59.9788769" lon="17.7260234">
        <ele>11.1925</ele>
        <time>2014-06-13T21:10:50Z</time>
      </trkpt>
      <trkpt lat="59.9788562" lon="17.7259822">
        <ele>11.1925</ele>
        <time>2014-06-13T21:10:51Z</time>
      </trkpt>
      <trkpt lat="59.9788403" lon="17.7259392">
        <ele>11.6732</ele>
        <time>2014-06-13T21:10:52Z</time>
      </trkpt>
      <trkpt lat="59.9788256" lon="17.7258974">
        <ele>11.6732</ele>
        <time>2014-06-13T21:10:53Z</time>
      </trkpt>
      <trkpt lat="59.9788036" lon="17.7258607">
        <ele>11.6732</ele>
        <time>2014-06-13T21:10:54Z</time>
      </trkpt>
      <trkpt lat="59.9787815" lon="17.7258291">
        <ele>12.1538</ele>
        <time>2014-06-13T21:10:55Z</time>
      </trkpt>
      <trkpt lat="59.9787589" lon="17.7258015">
        <ele>12.1538</ele>
        <time>2014-06-13T21:10:56Z</time>
      </trkpt>
      <trkpt lat="59.9787372" lon="17.7257755">
        <ele>11.6732</ele>
        <time>2014-06-13T21:10:57Z</time>
      </trkpt>
      <trkpt lat="59.9787144" lon="17.7257534">
        <ele>12.1538</ele>
        <time>2014-06-13T21:10:58Z</time>
      </trkpt>
      <trkpt lat="59.9786922" lon="17.7257315">
        <ele>12.6344</ele>
        <time>2014-06-13T21:10:59Z</time>
      </trkpt>
      <trkpt lat="59.9786732" lon="17.7257125">
        <ele>13.1151</ele>
        <time>2014-06-13T21:11:00Z</time>
      </trkpt>
      <trkpt lat="59.9786485" lon="17.7256947">
        <ele>13.1151</ele>
        <time>2014-06-13T21:11:01Z</time>
      </trkpt>
      <trkpt lat="59.9786225" lon="17.7256799">
        <ele>13.5958</ele>
        <time>2014-06-13T21:11:02Z</time>
      </trkpt>
      <trkpt lat="59.9786005" lon="17.7256668">
        <ele>13.5958</ele>
        <time>2014-06-13T21:11:03Z</time>
      </trkpt>
      <trkpt lat="59.97858" lon="17.7256535">
        <ele>13.5958</ele>
        <time>2014-06-13T21:11:04Z</time>
      </trkpt>
      <trkpt lat="59.9785574" lon="17.7256385">
        <ele>13.5958</ele>
        <time>2014-06-13T21:11:05Z</time>
      </trkpt>
      <trkpt lat="59.9785351" lon="17.7256271">
        <ele>13.5958</ele>
        <time>2014-06-13T21:11:06Z</time>
      </trkpt>
      <trkpt lat="59.9785148" lon="17.725616">
        <ele>14.557</ele>
        <time>2014-06-13T21:11:07Z</time>
      </trkpt>
      <trkpt lat="59.9784952" lon="17.725595">
        <ele>14.557</ele>
        <time>2014-06-13T21:11:08Z</time>
      </trkpt>
      <trkpt lat="59.9784733" lon="17.7255799">
        <ele>15.0377</ele>
        <time>2014-06-13T21:11:09Z</time>
      </trkpt>
      <trkpt lat="59.9784453" lon="17.7255668">
        <ele>15.0377</ele>
        <time>2014-06-13T21:11:10Z</time>
      </trkpt>
      <trkpt lat="59.9784174" lon="17.7255538">
        <ele>15.0377</ele>
        <time>2014-06-13T21:11:11Z</time>
      </trkpt>
      <trkpt lat="59.9783947" lon="17.7255407">
        <ele>15.0377</ele>
        <time>2014-06-13T21:11:12Z</time>
      </trkpt>
      <trkpt lat="59.978372" lon="17.7255228">
        <ele>15.0377</ele>
        <time>2014-06-13T21:11:13Z</time>
      </trkpt>
      <trkpt lat="59.9783477" lon="17.7255059">
        <ele>15.0377</ele>
        <time>2014-06-13T21:11:14Z</time>
      </trkpt>
      <trkpt lat="59.97832" lon="17.7254925">
        <ele>15.5184</ele>
        <time>2014-06-13T21:11:15Z</time>
      </trkpt>
      <trkpt lat="59.9782926" lon="17.7254761">
        <ele>15.5184</ele>
        <time>2014-06-13T21:11:16Z</time>
      </trkpt>
      <trkpt lat="59.9782671" lon="17.7254582">
        <ele>15.5184</ele>
        <time>2014-06-13T21:11:17Z</time>
      </trkpt>
      <trkpt lat="59.9782445" lon="17.7254436">
        <ele>15.5184</ele>
        <time>2014-06-13T21:11:18Z</time>
      </trkpt>
      <trkpt lat="59.9782228" lon="17.7254271">
        <ele>15.0377</ele>
        <time>2014-06-13T21:11:19Z</time>
      </trkpt>
      <trkpt lat="59.9782006" lon="17.7254096">
        <ele>15.5184</ele>
        <time>2014-06-13T21:11:20Z</time>
      </trkpt>
      <trkpt lat="59.978176" lon="17.7253924">
        <ele>15.5184</ele>
        <time>2014-06-13T21:11:21Z</time>
      </trkpt>
      <trkpt lat="59.9781539" lon="17.7253748">
        <ele>15.999</ele>
        <time>2014-06-13T21:11:22Z</time>
      </trkpt>
      <trkpt lat="59.9781336" lon="17.7253592">
        <ele>15.999</ele>
        <time>2014-06-13T21:11:23Z</time>
      </trkpt>
      <trkpt lat="59.9781133" lon="17.7253411">
        <ele>15.999</ele>
        <time>2014-06-13T21:11:24Z</time>
      </trkpt>
      <trkpt lat="59.9780928" lon="17.7253271">
        <ele>15.999</ele>
        <time>2014-06-13T21:11:25Z</time>
      </trkpt>
      <trkpt lat="59.9780726" lon="17.7253122">
        <ele>16.4797</ele>
        <time>2014-06-13T21:11:26Z</time>
      </trkpt>
      <trkpt lat="59.9780527" lon="17.7252963">
        <ele>16.9604</ele>
        <time>2014-06-13T21:11:27Z</time>
      </trkpt>
      <trkpt lat="59.9780327" lon="17.7252825">
        <ele>16.4797</ele>
        <time>2014-06-13T21:11:28Z</time>
      </trkpt>
      <trkpt lat="59.9780097" lon="17.7252691">
        <ele>16.9604</ele>
        <time>2014-06-13T21:11:29Z</time>
      </trkpt>
      <trkpt lat="59.9779815" lon="17.7252603">
        <ele>16.4797</ele>
        <time>2014-06-13T21:11:30Z</time>
      </trkpt>
      <trkpt lat="59.9779546" lon="17.7252525">
        <ele>16.4797</ele>
        <time>2014-06-13T21:11:31Z</time>
      </trkpt>
      <trkpt lat="59.977931" lon="17.7252411">
        <ele>16.9604</ele>
        <time>2014-06-13T21:11:32Z</time>
      </trkpt>
      <trkpt lat="59.9779103" lon="17.7252317">
        <ele>16.9604</ele>
        <time>2014-06-13T21:11:33Z</time>
      </trkpt>
      <trkpt lat="59.9778882" lon="17.7252225">
        <ele>16.9604</ele>
        <time>2014-06-13T21:11:34Z</time>
      </trkpt>
      <trkpt lat="59.9778643" lon="17.7252114">
        <ele>16.9604</ele>
        <time>2014-06-13T21:11:35Z</time>
      </trkpt>
      <trkpt lat="59.9778394" lon="17.7252023">
        <ele>16.9604</ele>
        <time>2014-06-13T21:11:36Z</time>
      </trkpt>
      <trkpt lat="59.9778171" lon="17.7251955">
        <ele>17.4412</ele>
        <time>2014-06-13T21:11:37Z</time>
      </trkpt>
      <trkpt lat="59.9777955" lon="17.725191">
        <ele>17.9218</ele>
        <time>2014-06-13T21:11:38Z</time>
      </trkpt>
      <trkpt lat="59.9777721" lon="17.7251852">
        <ele>18.8831</ele>
        <time>2014-06-13T21:11:39Z</time>
      </trkpt>
      <trkpt lat="59.9777455" lon="17.7251774">
        <ele>18.8831</ele>
        <time>2014-06-13T21:11:40Z</time>
      </trkpt>
      <trkpt lat="59.9777173" lon="17.7251712">
        <ele>18.4023</ele>
        <time>2014-06-13T21:11:41Z</time>
      </trkpt>
      <trkpt lat="59.9776918" lon="17.7251634">
        <ele>18.8831</ele>
        <time>2014-06-13T21:11:42Z</time>
      </trkpt>
      <trkpt lat="59.9776676" lon="17.7251561">
        <ele>18.8831</ele>
        <time>2014-06-13T21:11:43Z</time>
      </trkpt>
      <trkpt lat="59.9776474" lon="17.7251506">
        <ele>18.8831</ele>
        <time>2014-06-13T21:11:44Z</time>
      </trkpt>
      <trkpt lat="59.9776238" lon="17.7251436">
        <ele>18.8831</ele>
        <time>2014-06-13T21:11:45Z</time>
      </trkpt>
      <trkpt lat="59.977597" lon="17.7251339">
        <ele>18.8831</ele>
        <time>2014-06-13T21:11:46Z</time>
      </trkpt>
      <trkpt lat="59.9775737" lon="17.725127">
        <ele>18.4023</ele>
        <time>2014-06-13T21:11:47Z</time>
      </trkpt>
      <trkpt lat="59.9775509" lon="17.7251211">
        <ele>18.4023</ele>
        <time>2014-06-13T21:11:48Z</time>
      </trkpt>
      <trkpt lat="59.9775266" lon="17.7251121">
        <ele>17.9218</ele>
        <time>2014-06-13T21:11:49Z</time>
      </trkpt>
      <trkpt lat="59.9775043" lon="17.7251043">
        <ele>17.9218</ele>
        <time>2014-06-13T21:11:50Z</time>
      </trkpt>
      <trkpt lat="59.9774836" lon="17.7250957">
        <ele>18.4023</ele>
        <time>2014-06-13T21:11:51Z</time>
      </trkpt>
      <trkpt lat="59.9774613" lon="17.7250858">
        <ele>17.9218</ele>
        <time>2014-06-13T21:11:52Z</time>
      </trkpt>
      <trkpt lat="59.9774409" lon="17.725077">
        <ele>17.9218</ele>
        <time>2014-06-13T21:11:53Z</time>
      </trkpt>
      <trkpt lat="59.9774189" lon="17.7250696">
        <ele>17.9218</ele>
        <time>2014-06-13T21:11:54Z</time>
      </trkpt>
      <trkpt lat="59.9773917" lon="17.7250604">
        <ele>17.4412</ele>
        <time>2014-06-13T21:11:55Z</time>
      </trkpt>
      <trkpt lat="59.977364" lon="17.7250515">
        <ele>16.9604</ele>
        <time>2014-06-13T21:11:56Z</time>
      </trkpt>
      <trkpt lat="59.9773415" lon="17.7250422">
        <ele>16.9604</ele>
        <time>2014-06-13T21:11:57Z</time>
      </trkpt>
      <trkpt lat="59.9773202" lon="17.7250339">
        <ele>16.9604</ele>
        <time>2014-06-13T21:11:58Z</time>
      </trkpt>
      <trkpt lat="59.977296" lon="17.7250285">
        <ele>16.9604</ele>
        <time>2014-06-13T21:11:59Z</time>
      </trkpt>
      <trkpt lat="59.9772702" lon="17.7250271">
        <ele>17.4412</ele>
        <time>2014-06-13T21:12:00Z</time>
      </trkpt>
      <trkpt lat="59.9772474" lon="17.7250236">
        <ele>17.4412</ele>
        <time>2014-06-13T21:12:01Z</time>
      </trkpt>
      <trkpt lat="59.9772245" lon="17.7250234">
        <ele>17.4412</ele>
        <time>2014-06-13T21:12:02Z</time>
      </trkpt>
      <trkpt lat="59.9772053" lon="17.7250251">
        <ele>18.4023</ele>
        <time>2014-06-13T21:12:03Z</time>
      </trkpt>
      <trkpt lat="59.9771883" lon="17.7250226">
        <ele>18.4023</ele>
        <time>2014-06-13T21:12:04Z</time>
      </trkpt>
      <trkpt lat="59.9771697" lon="17.7250263">
        <ele>18.8831</ele>
        <time>2014-06-13T21:12:05Z</time>
      </trkpt>
      <trkpt lat="59.9771499" lon="17.7250348">
        <ele>19.8444</ele>
        <time>2014-06-13T21:12:06Z</time>
      </trkpt>
      <trkpt lat="59.9771265" lon="17.7250448">
        <ele>19.8444</ele>
        <time>2014-06-13T21:12:07Z</time>
      </trkpt>
      <trkpt lat="59.9771014" lon="17.7250593">
        <ele>19.8444</ele>
        <time>2014-06-13T21:12:08Z</time>
      </trkpt>
      <trkpt lat="59.977077" lon="17.7250775">
        <ele>20.325</ele>
        <time>2014-06-13T21:12:09Z</time>
      </trkpt>
      <trkpt lat="59.9770548" lon="17.7250978">
        <ele>20.325</ele>
        <time>2014-06-13T21:12:10Z</time>
      </trkpt>
      <trkpt lat="59.9770356" lon="17.7251177">
        <ele>20.325</ele>
        <time>2014-06-13T21:12:11Z</time>
      </trkpt>
      <trkpt lat="59.9770158" lon="17.7251345">
        <ele>20.325</ele>
        <time>2014-06-13T21:12:12Z</time>
      </trkpt>
      <trkpt lat="59.9769936" lon="17.725155">
        <ele>19.8444</ele>
        <time>2014-06-13T21:12:13Z</time>
      </trkpt>
      <trkpt lat="59.9769745" lon="17.7251798">
        <ele>20.8057</ele>
        <time>2014-06-13T21:12:14Z</time>
      </trkpt>
      <trkpt lat="59.9769576" lon="17.7252041">
        <ele>20.8057</ele>
        <time>2014-06-13T21:12:15Z</time>
      </trkpt>
      <trkpt lat="59.9769376" lon="17.7252226">
        <ele>21.2864</ele>
        <time>2014-06-13T21:12:16Z</time>
      </trkpt>
      <trkpt lat="59.9769138" lon="17.72524">
        <ele>20.8057</ele>
        <time>2014-06-13T21:12:17Z</time>
      </trkpt>
      <trkpt lat="59.9768915" lon="17.7252637">
        <ele>21.2864</ele>
        <time>2014-06-13T21:12:18Z</time>
      </trkpt>
      <trkpt lat="59.9768731" lon="17.7252934">
        <ele>21.767</ele>
        <time>2014-06-13T21:12:19Z</time>
      </trkpt>
      <trkpt lat="59.9768547" lon="17.7253199">
        <ele>22.2476</ele>
        <time>2014-06-13T21:12:20Z</time>
      </trkpt>
      <trkpt lat="59.9768351" lon="17.7253393">
        <ele>22.2476</ele>
        <time>2014-06-13T21:12:21Z</time>
      </trkpt>
      <trkpt lat="59.9768117" lon="17.7253596">
        <ele>22.2476</ele>
        <time>2014-06-13T21:12:22Z</time>
      </trkpt>
      <trkpt lat="59.9767892" lon="17.7253825">
        <ele>22.2476</ele>
        <time>2014-06-13T21:12:23Z</time>
      </trkpt>
      <trkpt lat="59.9767633" lon="17.7254077">
        <ele>21.767</ele>
        <time>2014-06-13T21:12:24Z</time>
      </trkpt>
      <trkpt lat="59.9767365" lon="17.7254288">
        <ele>21.2864</ele>
        <time>2014-06-13T21:12:25Z</time>
      </trkpt>
      <trkpt lat="59.9767167" lon="17.725452">
        <ele>21.2864</ele>
        <time>2014-06-13T21:12:26Z</time>
      </trkpt>
      <trkpt lat="59.9766967" lon="17.7254763">
        <ele>21.767</ele>
        <time>2014-06-13T21:12:27Z</time>
      </trkpt>
      <trkpt lat="59.9766784" lon="17.7255006">
        <ele>22.2476</ele>
        <time>2014-06-13T21:12:28Z</time>
      </trkpt>
      <trkpt lat="59.9766608" lon="17.7255229">
        <ele>23.209</ele>
        <time>2014-06-13T21:12:29Z</time>
      </trkpt>
      <trkpt lat="59.9766423" lon="17.7255421">
        <ele>23.209</ele>
        <time>2014-06-13T21:12:30Z</time>
      </trkpt>
      <trkpt lat="59.9766242" lon="17.7255627">
        <ele>23.6896</ele>
        <time>2014-06-13T21:12:31Z</time>
      </trkpt>
      <trkpt lat="59.9766007" lon="17.7255868">
        <ele>23.6896</ele>
        <time>2014-06-13T21:12:32Z</time>
      </trkpt>
      <trkpt lat="59.9765784" lon="17.7256124">
        <ele>24.1703</ele>
        <time>2014-06-13T21:12:33Z</time>
      </trkpt>
      <trkpt lat="59.9765587" lon="17.7256352">
        <ele>24.651</ele>
        <time>2014-06-13T21:12:34Z</time>
      </trkpt>
      <trkpt lat="59.9765356" lon="17.7256534">
        <ele>24.651</ele>
        <time>2014-06-13T21:12:35Z</time>
      </trkpt>
      <trkpt lat="59.9765111" lon="17.7256689">
        <ele>24.1703</ele>
        <time>2014-06-13T21:12:36Z</time>
      </trkpt>
      <trkpt lat="59.9764864" lon="17.7256844">
        <ele>24.1703</ele>
        <time>2014-06-13T21:12:37Z</time>
      </trkpt>
      <trkpt lat="59.9764632" lon="17.7257022">
        <ele>24.1703</ele>
        <time>2014-06-13T21:12:38Z</time>
      </trkpt>
      <trkpt lat="59.9764382" lon="17.7257224">
        <ele>24.1703</ele>
        <time>2014-06-13T21:12:39Z</time>
      </trkpt>
      <trkpt lat="59.9764126" lon="17.7257426">
        <ele>23.6896</ele>
        <time>2014-06-13T21:12:40Z</time>
      </trkpt>
      <trkpt lat="59.9763911" lon="17.7257629">
        <ele>23.6896</ele>
        <time>2014-06-13T21:12:41Z</time>
      </trkpt>
      <trkpt lat="59.9763697" lon="17.7257845">
        <ele>23.209</ele>
        <time>2014-06-13T21:12:42Z</time>
      </trkpt>
      <trkpt lat="59.97635" lon="17.7258042">
        <ele>23.6896</ele>
        <time>2014-06-13T21:12:43Z</time>
      </trkpt>
      <trkpt lat="59.9763326" lon="17.725826">
        <ele>24.1703</ele>
        <time>2014-06-13T21:12:44Z</time>
      </trkpt>
      <trkpt lat="59.9763112" lon="17.7258517">
        <ele>24.1703</ele>
        <time>2014-06-13T21:12:45Z</time>
      </trkpt>
      <trkpt lat="59.9762852" lon="17.7258735">
        <ele>23.6896</ele>
        <time>2014-06-13T21:12:46Z</time>
      </trkpt>
      <trkpt lat="59.9762585" lon="17.7258921">
        <ele>23.209</ele>
        <time>2014-06-13T21:12:47Z</time>
      </trkpt>
      <trkpt lat="59.9762341" lon="17.7259139">
        <ele>23.209</ele>
        <time>2014-06-13T21:12:48Z</time>
      </trkpt>
      <trkpt lat="59.9762103" lon="17.7259357">
        <ele>23.209</ele>
        <time>2014-06-13T21:12:49Z</time>
      </trkpt>
      <trkpt lat="59.9761839" lon="17.725955">
        <ele>22.7283</ele>
        <time>2014-06-13T21:12:50Z</time>
      </trkpt>
      <trkpt lat="59.9761552" lon="17.7259751">
        <ele>21.767</ele>
        <time>2014-06-13T21:12:51Z</time>
      </trkpt>
      <trkpt lat="59.9761303" lon="17.7259958">
        <ele>22.2476</ele>
        <time>2014-06-13T21:12:52Z</time>
      </trkpt>
      <trkpt lat="59.9761056" lon="17.7260143">
        <ele>22.2476</ele>
        <time>2014-06-13T21:12:53Z</time>
      </trkpt>
      <trkpt lat="59.9760804" lon="17.7260342">
        <ele>21.767</ele>
        <time>2014-06-13T21:12:54Z</time>
      </trkpt>
      <trkpt lat="59.9760555" lon="17.726058">
        <ele>21.767</ele>
        <time>2014-06-13T21:12:55Z</time>
      </trkpt>
      <trkpt lat="59.9760336" lon="17.7260801">
        <ele>22.2476</ele>
        <time>2014-06-13T21:12:56Z</time>
      </trkpt>
      <trkpt lat="59.9760154" lon="17.7260977">
        <ele>22.7283</ele>
        <time>2014-06-13T21:12:57Z</time>
      </trkpt>
      <trkpt lat="59.9759932" lon="17.7261144">
        <ele>22.7283</ele>
        <time>2014-06-13T21:12:58Z</time>
      </trkpt>
      <trkpt lat="59.9759714" lon="17.726136">
        <ele>22.7283</ele>
        <time>2014-06-13T21:12:59Z</time>
      </trkpt>
      <trkpt lat="59.9759548" lon="17.7261611">
        <ele>23.6896</ele>
        <time>2014-06-13T21:13:00Z</time>
      </trkpt>
      <trkpt lat="59.9759336" lon="17.7261849">
        <ele>24.1703</ele>
        <time>2014-06-13T21:13:01Z</time>
      </trkpt>
      <trkpt lat="59.97591" lon="17.7262052">
        <ele>23.6896</ele>
        <time>2014-06-13T21:13:02Z</time>
      </trkpt>
      <trkpt lat="59.9758851" lon="17.7262258">
        <ele>23.6896</ele>
        <time>2014-06-13T21:13:03Z</time>
      </trkpt>
      <trkpt lat="59.9758576" lon="17.7262466">
        <ele>23.209</ele>
        <time>2014-06-13T21:13:04Z</time>
      </trkpt>
      <trkpt lat="59.9758357" lon="17.7262642">
        <ele>23.6896</ele>
        <time>2014-06-13T21:13:05Z</time>
      </trkpt>
      <trkpt lat="59.9758104" lon="17.7262854">
        <ele>23.209</ele>
        <time>2014-06-13T21:13:06Z</time>
      </trkpt>
      <trkpt lat="59.9757881" lon="17.7263088">
        <ele>23.209</ele>
        <time>2014-06-13T21:13:07Z</time>
      </trkpt>
      <trkpt lat="59.9757683" lon="17.7263305">
        <ele>23.209</ele>
        <time>2014-06-13T21:13:08Z</time>
      </trkpt>
      <trkpt lat="59.9757463" lon="17.7263518">
        <ele>23.6896</ele>
        <time>2014-06-13T21:13:09Z</time>
      </trkpt>
      <trkpt lat="59.9757223" lon="17.7263715">
        <ele>23.209</ele>
        <time>2014-06-13T21:13:10Z</time>
      </trkpt>
      <trkpt lat="59.9756997" lon="17.7263943">
        <ele>22.7283</ele>
        <time>2014-06-13T21:13:11Z</time>
      </trkpt>
      <trkpt lat="59.9756804" lon="17.7264175">
        <ele>22.7283</ele>
        <time>2014-06-13T21:13:12Z</time>
      </trkpt>
      <trkpt lat="59.9756595" lon="17.7264391">
        <ele>22.7283</ele>
        <time>2014-06-13T21:13:13Z</time>
      </trkpt>
      <trkpt lat="59.9756395" lon="17.7264662">
        <ele>22.7283</ele>
        <time>2014-06-13T21:13:14Z</time>
      </trkpt>
      <trkpt lat="59.9756173" lon="17.7264932">
        <ele>23.209</ele>
        <time>2014-06-13T21:13:15Z</time>
      </trkpt>
      <trkpt lat="59.9755918" lon="17.7265118">
        <ele>22.7283</ele>
        <time>2014-06-13T21:13:16Z</time>
      </trkpt>
      <trkpt lat="59.975568" lon="17.726535">
        <ele>22.7283</ele>
        <time>2014-06-13T21:13:17Z</time>
      </trkpt>
      <trkpt lat="59.9755456" lon="17.7265605">
        <ele>22.7283</ele>
        <time>2014-06-13T21:13:18Z</time>
      </trkpt>
      <trkpt lat="59.9755313" lon="17.7265792">
        <ele>23.6896</ele>
        <time>2014-06-13T21:13:19Z</time>
      </trkpt>
      <trkpt lat="59.9755099" lon="17.7266">
        <ele>23.209</ele>
        <time>2014-06-13T21:13:20Z</time>
      </trkpt>
      <trkpt lat="59.9754865" lon="17.7266237">
        <ele>23.6896</ele>
        <time>2014-06-13T21:13:21Z</time>
      </trkpt>
      <trkpt lat="59.9754629" lon="17.726647">
        <ele>23.209</ele>
        <time>2014-06-13T21:13:22Z</time>
      </trkpt>
      <trkpt lat="59.975441" lon="17.7266677">
        <ele>23.6896</ele>
        <time>2014-06-13T21:13:23Z</time>
      </trkpt>
      <trkpt lat="59.9754209" lon="17.7266911">
        <ele>23.6896</ele>
        <time>2014-06-13T21:13:24Z</time>
      </trkpt>
      <trkpt lat="59.9753981" lon="17.726718">
        <ele>23.6896</ele>
        <time>2014-06-13T21:13:25Z</time>
      </trkpt>
      <trkpt lat="59.9753737" lon="17.7267398">
        <ele>23.6896</ele>
        <time>2014-06-13T21:13:26Z</time>
      </trkpt>
      <trkpt lat="59.975354" lon="17.7267714">
        <ele>24.1703</ele>
        <time>2014-06-13T21:13:27Z</time>
      </trkpt>
      <trkpt lat="59.9753318" lon="17.7268024">
        <ele>24.1703</ele>
        <time>2014-06-13T21:13:28Z</time>
      </trkpt>
      <trkpt lat="59.9753116" lon="17.7268284">
        <ele>24.651</ele>
        <time>2014-06-13T21:13:29Z</time>
      </trkpt>
      <trkpt lat="59.9752902" lon="17.7268552">
        <ele>25.1317</ele>
        <time>2014-06-13T21:13:30Z</time>
      </trkpt>
      <trkpt lat="59.9752685" lon="17.7268787">
        <ele>25.1317</ele>
        <time>2014-06-13T21:13:31Z</time>
      </trkpt>
      <trkpt lat="59.9752471" lon="17.7268994">
        <ele>25.1317</ele>
        <time>2014-06-13T21:13:32Z</time>
      </trkpt>
      <trkpt lat="59.9752267" lon="17.7269183">
        <ele>25.6123</ele>
        <time>2014-06-13T21:13:33Z</time>
      </trkpt>
      <trkpt lat="59.9752062" lon="17.7269401">
        <ele>25.6123</ele>
        <time>2014-06-13T21:13:34Z</time>
      </trkpt>
      <trkpt lat="59.9751855" lon="17.7269721">
        <ele>25.1317</ele>
        <time>2014-06-13T21:13:35Z</time>
      </trkpt>
      <trkpt lat="59.9751607" lon="17.7269972">
        <ele>25.1317</ele>
        <time>2014-06-13T21:13:36Z</time>
      </trkpt>
      <trkpt lat="59.97514" lon="17.7270117">
        <ele>25.6123</ele>
        <time>2014-06-13T21:13:37Z</time>
      </trkpt>
      <trkpt lat="59.9751244" lon="17.7270215">
        <ele>26.5736</ele>
        <time>2014-06-13T21:13:38Z</time>
      </trkpt>
      <trkpt lat="59.9751054" lon="17.7270367">
        <ele>27.0543</ele>
        <time>2014-06-13T21:13:39Z</time>
      </trkpt>
      <trkpt lat="59.9750898" lon="17.7270565">
        <ele>27.5349</ele>
        <time>2014-06-13T21:13:40Z</time>
      </trkpt>
      <trkpt lat="59.9750654" lon="17.7270754">
        <ele>27.0543</ele>
        <time>2014-06-13T21:13:41Z</time>
      </trkpt>
      <trkpt lat="59.9750458" lon="17.7270931">
        <ele>27.0543</ele>
        <time>2014-06-13T21:13:42Z</time>
      </trkpt>
      <trkpt lat="59.9750226" lon="17.7271161">
        <ele>26.5736</ele>
        <time>2014-06-13T21:13:43Z</time>
      </trkpt>
      <trkpt lat="59.9750028" lon="17.7271443">
        <ele>26.5736</ele>
        <time>2014-06-13T21:13:44Z</time>
      </trkpt>
      <trkpt lat="59.9749807" lon="17.7271776">
        <ele>25.6123</ele>
        <time>2014-06-13T21:13:45Z</time>
      </trkpt>
      <trkpt lat="59.9749583" lon="17.7272039">
        <ele>25.1317</ele>
        <time>2014-06-13T21:13:46Z</time>
      </trkpt>
      <trkpt lat="59.9749354" lon="17.7272297">
        <ele>26.5736</ele>
        <time>2014-06-13T21:13:47Z</time>
      </trkpt>
      <trkpt lat="59.9749092" lon="17.7272581">
        <ele>25.6123</ele>
        <time>2014-06-13T21:13:48Z</time>
      </trkpt>
      <trkpt lat="59.9748786" lon="17.727283">
        <ele>25.1317</ele>
        <time>2014-06-13T21:13:49Z</time>
      </trkpt>
      <trkpt lat="59.9748428" lon="17.7273183">
        <ele>24.1703</ele>
        <time>2014-06-13T21:13:50Z</time>
      </trkpt>
      <trkpt lat="59.9748044" lon="17.7273591">
        <ele>21.767</ele>
        <time>2014-06-13T21:13:51Z</time>
      </trkpt>
      <trkpt lat="59.9747588" lon="17.7273924">
        <ele>18.8831</ele>
        <time>2014-06-13T21:13:52Z</time>
      </trkpt>
      <trkpt lat="59.9747416" lon="17.7274173">
        <ele>19.8444</ele>
        <time>2014-06-13T21:13:53Z</time>
      </trkpt>
      <trkpt lat="59.974717" lon="17.727441">
        <ele>19.8444</ele>
        <time>2014-06-13T21:13:54Z</time>
      </trkpt>
      <trkpt lat="59.9746869" lon="17.7274779">
        <ele>18.4023</ele>
        <time>2014-06-13T21:13:55Z</time>
      </trkpt>
      <trkpt lat="59.9746625" lon="17.7275161">
        <ele>18.8831</ele>
        <time>2014-06-13T21:13:56Z</time>
      </trkpt>
      <trkpt lat="59.9746402" lon="17.7275502">
        <ele>19.3638</ele>
        <time>2014-06-13T21:13:57Z</time>
      </trkpt>
      <trkpt lat="59.974619" lon="17.7275777">
        <ele>19.8444</ele>
        <time>2014-06-13T21:13:58Z</time>
      </trkpt>
      <trkpt lat="59.9745936" lon="17.7276008">
        <ele>19.8444</ele>
        <time>2014-06-13T21:13:59Z</time>
      </trkpt>
      <trkpt lat="59.9745641" lon="17.7276207">
        <ele>19.3638</ele>
        <time>2014-06-13T21:14:00Z</time>
      </trkpt>
      <trkpt lat="59.9745359" lon="17.7276425">
        <ele>18.4023</ele>
        <time>2014-06-13T21:14:01Z</time>
      </trkpt>
      <trkpt lat="59.9745121" lon="17.7276665">
        <ele>18.8831</ele>
        <time>2014-06-13T21:14:02Z</time>
      </trkpt>
      <trkpt lat="59.9744858" lon="17.7276922">
        <ele>17.9218</ele>
        <time>2014-06-13T21:14:03Z</time>
      </trkpt>
      <trkpt lat="59.9744625" lon="17.7277224">
        <ele>18.4023</ele>
        <time>2014-06-13T21:14:04Z</time>
      </trkpt>
      <trkpt lat="59.974439" lon="17.7277675">
        <ele>18.4023</ele>
        <time>2014-06-13T21:14:05Z</time>
      </trkpt>
      <trkpt lat="59.9744238" lon="17.7278213">
        <ele>19.3638</ele>
        <time>2014-06-13T21:14:06Z</time>
      </trkpt>
      <trkpt lat="59.9744092" lon="17.727875">
        <ele>18.4023</ele>
        <time>2014-06-13T21:14:07Z</time>
      </trkpt>
      <trkpt lat="59.9744143" lon="17.7279273">
        <ele>19.3638</ele>
        <time>2014-06-13T21:14:08Z</time>
      </trkpt>
      <trkpt lat="59.9744197" lon="17.7279782">
        <ele>20.325</ele>
        <time>2014-06-13T21:14:09Z</time>
      </trkpt>
      <trkpt lat="59.9744178" lon="17.7280387">
        <ele>19.8444</ele>
        <time>2014-06-13T21:14:10Z</time>
      </trkpt>
      <trkpt lat="59.974421" lon="17.7281007">
        <ele>19.8444</ele>
        <time>2014-06-13T21:14:11Z</time>
      </trkpt>
      <trkpt lat="59.9744262" lon="17.7281693">
        <ele>19.8444</ele>
        <time>2014-06-13T21:14:12Z</time>
      </trkpt>
      <trkpt lat="59.9744227" lon="17.7282325">
        <ele>19.3638</ele>
        <time>2014-06-13T21:14:13Z</time>
      </trkpt>
      <trkpt lat="59.9744195" lon="17.7282964">
        <ele>18.8831</ele>
        <time>2014-06-13T21:14:14Z</time>
      </trkpt>
      <trkpt lat="59.9744205" lon="17.7283604">
        <ele>18.8831</ele>
        <time>2014-06-13T21:14:15Z</time>
      </trkpt>
      <trkpt lat="59.9744211" lon="17.7284203">
        <ele>18.4023</ele>
        <time>2014-06-13T21:14:16Z</time>
      </trkpt>
      <trkpt lat="59.9744188" lon="17.7284821">
        <ele>17.9218</ele>
        <time>2014-06-13T21:14:17Z</time>
      </trkpt>
      <trkpt lat="59.9744144" lon="17.7285408">
        <ele>17.4412</ele>
        <time>2014-06-13T21:14:18Z</time>
      </trkpt>
      <trkpt lat="59.974417" lon="17.7285989">
        <ele>17.9218</ele>
        <time>2014-06-13T21:14:19Z</time>
      </trkpt>
      <trkpt lat="59.9744184" lon="17.7286585">
        <ele>17.4412</ele>
        <time>2014-06-13T21:14:20Z</time>
      </trkpt>
      <trkpt lat="59.9744315" lon="17.7287195">
        <ele>17.4412</ele>
        <time>2014-06-13T21:14:21Z</time>
      </trkpt>
      <trkpt lat="59.9744444" lon="17.7287808">
        <ele>17.9218</ele>
        <time>2014-06-13T21:14:22Z</time>
      </trkpt>
      <trkpt lat="59.9744511" lon="17.7288402">
        <ele>18.8831</ele>
        <time>2014-06-13T21:14:23Z</time>
      </trkpt>
      <trkpt lat="59.9744532" lon="17.7289004">
        <ele>19.8444</ele>
        <time>2014-06-13T21:14:24Z</time>
      </trkpt>
      <trkpt lat="59.9744455" lon="17.7289552">
        <ele>19.3638</ele>
        <time>2014-06-13T21:14:25Z</time>
      </trkpt>
      <trkpt lat="59.9744391" lon="17.7290059">
        <ele>19.8444</ele>
        <time>2014-06-13T21:14:26Z</time>
      </trkpt>
      <trkpt lat="59.9744383" lon="17.7290651">
        <ele>19.8444</ele>
        <time>2014-06-13T21:14:27Z</time>
      </trkpt>
      <trkpt lat="59.9744413" lon="17.729125">
        <ele>20.325</ele>
        <time>2014-06-13T21:14:28Z</time>
      </trkpt>
      <trkpt lat="59.9744439" lon="17.7291863">
        <ele>20.325</ele>
        <time>2014-06-13T21:14:29Z</time>
      </trkpt>
      <trkpt lat="59.9744439" lon="17.7292472">
        <ele>21.2864</ele>
        <time>2014-06-13T21:14:30Z</time>
      </trkpt>
      <trkpt lat="59.9744454" lon="17.7293066">
        <ele>21.2864</ele>
        <time>2014-06-13T21:14:31Z</time>
      </trkpt>
      <trkpt lat="59.9744478" lon="17.729366">
        <ele>21.767</ele>
        <time>2014-06-13T21:14:32Z</time>
      </trkpt>
      <trkpt lat="59.9744497" lon="17.7294215">
        <ele>21.767</ele>
        <time>2014-06-13T21:14:33Z</time>
      </trkpt>
      <trkpt lat="59.9744518" lon="17.7294811">
        <ele>22.2476</ele>
        <time>2014-06-13T21:14:34Z</time>
      </trkpt>
      <trkpt lat="59.9744516" lon="17.729541">
        <ele>22.2476</ele>
        <time>2014-06-13T21:14:35Z</time>
      </trkpt>
      <trkpt lat="59.9744495" lon="17.729595">
        <ele>21.767</ele>
        <time>2014-06-13T21:14:36Z</time>
      </trkpt>
      <trkpt lat="59.9744429" lon="17.7296477">
        <ele>21.2864</ele>
        <time>2014-06-13T21:14:37Z</time>
      </trkpt>
      <trkpt lat="59.9744395" lon="17.7297025">
        <ele>21.767</ele>
        <time>2014-06-13T21:14:38Z</time>
      </trkpt>
      <trkpt lat="59.9744362" lon="17.7297598">
        <ele>21.2864</ele>
        <time>2014-06-13T21:14:39Z</time>
      </trkpt>
      <trkpt lat="59.9744345" lon="17.729814">
        <ele>20.8057</ele>
        <time>2014-06-13T21:14:40Z</time>
      </trkpt>
      <trkpt lat="59.9744295" lon="17.729869">
        <ele>20.8057</ele>
        <time>2014-06-13T21:14:41Z</time>
      </trkpt>
      <trkpt lat="59.9744211" lon="17.7299241">
        <ele>20.325</ele>
        <time>2014-06-13T21:14:42Z</time>
      </trkpt>
      <trkpt lat="59.9744165" lon="17.7299763">
        <ele>20.325</ele>
        <time>2014-06-13T21:14:43Z</time>
      </trkpt>
      <trkpt lat="59.9744107" lon="17.7300344">
        <ele>20.325</ele>
        <time>2014-06-13T21:14:44Z</time>
      </trkpt>
      <trkpt lat="59.9744054" lon="17.7300914">
        <ele>20.325</ele>
        <time>2014-06-13T21:14:45Z</time>
      </trkpt>
      <trkpt lat="59.9743993" lon="17.7301461">
        <ele>19.8444</ele>
        <time>2014-06-13T21:14:46Z</time>
      </trkpt>
      <trkpt lat="59.974391" lon="17.7301993">
        <ele>18.8831</ele>
        <time>2014-06-13T21:14:47Z</time>
      </trkpt>
      <trkpt lat="59.9743874" lon="17.7302498">
        <ele>19.3638</ele>
        <time>2014-06-13T21:14:48Z</time>
      </trkpt>
      <trkpt lat="59.9743824" lon="17.7303047">
        <ele>19.3638</ele>
        <time>2014-06-13T21:14:49Z</time>
      </trkpt>
      <trkpt lat="59.9743751" lon="17.7303584">
        <ele>18.8831</ele>
        <time>2014-06-13T21:14:50Z</time>
      </trkpt>
      <trkpt lat="59.9743693" lon="17.7304124">
        <ele>18.4023</ele>
        <time>2014-06-13T21:14:51Z</time>
      </trkpt>
      <trkpt lat="59.9743625" lon="17.7304672">
        <ele>17.9218</ele>
        <time>2014-06-13T21:14:52Z</time>
      </trkpt>
      <trkpt lat="59.974358" lon="17.7305158">
        <ele>17.9218</ele>
        <time>2014-06-13T21:14:53Z</time>
      </trkpt>
      <trkpt lat="59.9743543" lon="17.7305689">
        <ele>18.4023</ele>
        <time>2014-06-13T21:14:54Z</time>
      </trkpt>
      <trkpt lat="59.9743501" lon="17.7306239">
        <ele>18.4023</ele>
        <time>2014-06-13T21:14:55Z</time>
      </trkpt>
      <trkpt lat="59.9743455" lon="17.7306762">
        <ele>18.4023</ele>
        <time>2014-06-13T21:14:56Z</time>
      </trkpt>
      <trkpt lat="59.9743407" lon="17.7307311">
        <ele>18.8831</ele>
        <time>2014-06-13T21:14:57Z</time>
      </trkpt>
      <trkpt lat="59.9743294" lon="17.7307818">
        <ele>18.4023</ele>
        <time>2014-06-13T21:14:58Z</time>
      </trkpt>
      <trkpt lat="59.974323" lon="17.7308351">
        <ele>18.8831</ele>
        <time>2014-06-13T21:14:59Z</time>
      </trkpt>
      <trkpt lat="59.9743205" lon="17.7308916">
        <ele>19.3638</ele>
        <time>2014-06-13T21:15:00Z</time>
      </trkpt>
      <trkpt lat="59.9743139" lon="17.7309463">
        <ele>18.8831</ele>
        <time>2014-06-13T21:15:01Z</time>
      </trkpt>
      <trkpt lat="59.9743078" lon="17.7310012">
        <ele>18.8831</ele>
        <time>2014-06-13T21:15:02Z</time>
      </trkpt>
      <trkpt lat="59.9743039" lon="17.7310548">
        <ele>18.4023</ele>
        <time>2014-06-13T21:15:03Z</time>
      </trkpt>
      <trkpt lat="59.9743052" lon="17.7311107">
        <ele>18.8831</ele>
        <time>2014-06-13T21:15:04Z</time>
      </trkpt>
      <trkpt lat="59.9743052" lon="17.7311647">
        <ele>18.8831</ele>
        <time>2014-06-13T21:15:05Z</time>
      </trkpt>
      <trkpt lat="59.9743007" lon="17.7312157">
        <ele>18.8831</ele>
        <time>2014-06-13T21:15:06Z</time>
      </trkpt>
      <trkpt lat="59.9742969" lon="17.73127">
        <ele>19.3638</ele>
        <time>2014-06-13T21:15:07Z</time>
      </trkpt>
      <trkpt lat="59.9742921" lon="17.7313213">
        <ele>18.8831</ele>
        <time>2014-06-13T21:15:08Z</time>
      </trkpt>
      <trkpt lat="59.9742895" lon="17.7313742">
        <ele>18.8831</ele>
        <time>2014-06-13T21:15:09Z</time>
      </trkpt>
      <trkpt lat="59.974288" lon="17.7314278">
        <ele>18.8831</ele>
        <time>2014-06-13T21:15:10Z</time>
      </trkpt>
      <trkpt lat="59.9742868" lon="17.7314772">
        <ele>19.3638</ele>
        <time>2014-06-13T21:15:11Z</time>
      </trkpt>
      <trkpt lat="59.9742845" lon="17.7315313">
        <ele>18.8831</ele>
        <time>2014-06-13T21:15:12Z</time>
      </trkpt>
      <trkpt lat="59.9742811" lon="17.7315842">
        <ele>18.4023</ele>
        <time>2014-06-13T21:15:13Z</time>
      </trkpt>
      <trkpt lat="59.9742817" lon="17.7316358">
        <ele>18.4023</ele>
        <time>2014-06-13T21:15:14Z</time>
      </trkpt>
      <trkpt lat="59.9742797" lon="17.7316902">
        <ele>18.4023</ele>
        <time>2014-06-13T21:15:15Z</time>
      </trkpt>
      <trkpt lat="59.9742776" lon="17.7317396">
        <ele>18.8831</ele>
        <time>2014-06-13T21:15:16Z</time>
      </trkpt>
      <trkpt lat="59.9742793" lon="17.7317892">
        <ele>18.8831</ele>
        <time>2014-06-13T21:15:17Z</time>
      </trkpt>
      <trkpt lat="59.9742806" lon="17.7318422">
        <ele>18.4023</ele>
        <time>2014-06-13T21:15:18Z</time>
      </trkpt>
      <trkpt lat="59.9742854" lon="17.7318935">
        <ele>18.8831</ele>
        <time>2014-06-13T21:15:19Z</time>
      </trkpt>
      <trkpt lat="59.9742878" lon="17.7319468">
        <ele>18.8831</ele>
        <time>2014-06-13T21:15:20Z</time>
      </trkpt>
      <trkpt lat="59.9742828" lon="17.7319961">
        <ele>18.8831</ele>
        <time>2014-06-13T21:15:21Z</time>
      </trkpt>
      <trkpt lat="59.9742821" lon="17.7320441">
        <ele>18.8831</ele>
        <time>2014-06-13T21:15:22Z</time>
      </trkpt>
      <trkpt lat="59.9742829" lon="17.7320981">
        <ele>18.8831</ele>
        <time>2014-06-13T21:15:23Z</time>
      </trkpt>
      <trkpt lat="59.9742843" lon="17.7321514">
        <ele>18.8831</ele>
        <time>2014-06-13T21:15:24Z</time>
      </trkpt>
      <trkpt lat="59.9742865" lon="17.7322061">
        <ele>18.8831</ele>
        <time>2014-06-13T21:15:25Z</time>
      </trkpt>
      <trkpt lat="59.9742808" lon="17.7322591">
        <ele>18.4023</ele>
        <time>2014-06-13T21:15:26Z</time>
      </trkpt>
      <trkpt lat="59.9742758" lon="17.7323068">
        <ele>18.4023</ele>
        <time>2014-06-13T21:15:27Z</time>
      </trkpt>
      <trkpt lat="59.9742746" lon="17.7324057">
        <ele>18.4023</ele>
        <time>2014-06-13T21:15:29Z</time>
      </trkpt>
      <trkpt lat="59.9742761" lon="17.732453">
        <ele>18.8831</ele>
        <time>2014-06-13T21:15:30Z</time>
      </trkpt>
      <trkpt lat="59.9742792" lon="17.7325048">
        <ele>18.8831</ele>
        <time>2014-06-13T21:15:31Z</time>
      </trkpt>
      <trkpt lat="59.9742815" lon="17.7325575">
        <ele>18.8831</ele>
        <time>2014-06-13T21:15:32Z</time>
      </trkpt>
      <trkpt lat="59.9742845" lon="17.7326099">
        <ele>18.8831</ele>
        <time>2014-06-13T21:15:33Z</time>
      </trkpt>
      <trkpt lat="59.97428" lon="17.7326627">
        <ele>18.4023</ele>
        <time>2014-06-13T21:15:34Z</time>
      </trkpt>
      <trkpt lat="59.9742772" lon="17.7327139">
        <ele>18.4023</ele>
        <time>2014-06-13T21:15:35Z</time>
      </trkpt>
      <trkpt lat="59.9742781" lon="17.7327668">
        <ele>17.9218</ele>
        <time>2014-06-13T21:15:36Z</time>
      </trkpt>
      <trkpt lat="59.9742764" lon="17.732819">
        <ele>17.9218</ele>
        <time>2014-06-13T21:15:37Z</time>
      </trkpt>
      <trkpt lat="59.974275" lon="17.73287">
        <ele>17.9218</ele>
        <time>2014-06-13T21:15:38Z</time>
      </trkpt>
      <trkpt lat="59.9742766" lon="17.7329263">
        <ele>17.9218</ele>
        <time>2014-06-13T21:15:39Z</time>
      </trkpt>
      <trkpt lat="59.974272" lon="17.7329802">
        <ele>16.9604</ele>
        <time>2014-06-13T21:15:40Z</time>
      </trkpt>
      <trkpt lat="59.9742709" lon="17.7330344">
        <ele>16.4797</ele>
        <time>2014-06-13T21:15:41Z</time>
      </trkpt>
      <trkpt lat="59.9742703" lon="17.7330924">
        <ele>16.4797</ele>
        <time>2014-06-13T21:15:42Z</time>
      </trkpt>
      <trkpt lat="59.9742667" lon="17.7331465">
        <ele>15.999</ele>
        <time>2014-06-13T21:15:43Z</time>
      </trkpt>
      <trkpt lat="59.9742639" lon="17.733202">
        <ele>15.5184</ele>
        <time>2014-06-13T21:15:44Z</time>
      </trkpt>
      <trkpt lat="59.9742595" lon="17.7332579">
        <ele>15.0377</ele>
        <time>2014-06-13T21:15:45Z</time>
      </trkpt>
      <trkpt lat="59.9742585" lon="17.7333133">
        <ele>15.0377</ele>
        <time>2014-06-13T21:15:46Z</time>
      </trkpt>
      <trkpt lat="59.9742541" lon="17.7333701">
        <ele>15.0377</ele>
        <time>2014-06-13T21:15:47Z</time>
      </trkpt>
      <trkpt lat="59.9742503" lon="17.7334227">
        <ele>15.5184</ele>
        <time>2014-06-13T21:15:48Z</time>
      </trkpt>
      <trkpt lat="59.9742487" lon="17.7334783">
        <ele>15.5184</ele>
        <time>2014-06-13T21:15:49Z</time>
      </trkpt>
      <trkpt lat="59.974246" lon="17.733534">
        <ele>15.5184</ele>
        <time>2014-06-13T21:15:50Z</time>
      </trkpt>
      <trkpt lat="59.9742446" lon="17.7335853">
        <ele>15.5184</ele>
        <time>2014-06-13T21:15:51Z</time>
      </trkpt>
      <trkpt lat="59.9742444" lon="17.7336423">
        <ele>15.999</ele>
        <time>2014-06-13T21:15:52Z</time>
      </trkpt>
      <trkpt lat="59.9742407" lon="17.7336946">
        <ele>15.999</ele>
        <time>2014-06-13T21:15:53Z</time>
      </trkpt>
      <trkpt lat="59.9742428" lon="17.7337501">
        <ele>16.9604</ele>
        <time>2014-06-13T21:15:54Z</time>
      </trkpt>
      <trkpt lat="59.9742424" lon="17.7338136">
        <ele>16.9604</ele>
        <time>2014-06-13T21:15:55Z</time>
      </trkpt>
      <trkpt lat="59.9742432" lon="17.7338743">
        <ele>17.4412</ele>
        <time>2014-06-13T21:15:56Z</time>
      </trkpt>
      <trkpt lat="59.9742414" lon="17.7339328">
        <ele>17.9218</ele>
        <time>2014-06-13T21:15:57Z</time>
      </trkpt>
      <trkpt lat="59.9742365" lon="17.7339902">
        <ele>17.4412</ele>
        <time>2014-06-13T21:15:58Z</time>
      </trkpt>
      <trkpt lat="59.9742324" lon="17.7340433">
        <ele>16.9604</ele>
        <time>2014-06-13T21:15:59Z</time>
      </trkpt>
      <trkpt lat="59.9742347" lon="17.7341038">
        <ele>17.4412</ele>
        <time>2014-06-13T21:16:00Z</time>
      </trkpt>
      <trkpt lat="59.9742362" lon="17.7341622">
        <ele>17.9218</ele>
        <time>2014-06-13T21:16:01Z</time>
      </trkpt>
      <trkpt lat="59.9742341" lon="17.7342142">
        <ele>17.4412</ele>
        <time>2014-06-13T21:16:02Z</time>
      </trkpt>
      <trkpt lat="59.9742334" lon="17.7342696">
        <ele>17.4412</ele>
        <time>2014-06-13T21:16:03Z</time>
      </trkpt>
      <trkpt lat="59.9742313" lon="17.7343248">
        <ele>17.4412</ele>
        <time>2014-06-13T21:16:04Z</time>
      </trkpt>
      <trkpt lat="59.9742287" lon="17.7343829">
        <ele>17.4412</ele>
        <time>2014-06-13T21:16:05Z</time>
      </trkpt>
      <trkpt lat="59.9742231" lon="17.7344378">
        <ele>16.9604</ele>
        <time>2014-06-13T21:16:06Z</time>
      </trkpt>
      <trkpt lat="59.9742216" lon="17.7344936">
        <ele>16.9604</ele>
        <time>2014-06-13T21:16:07Z</time>
      </trkpt>
      <trkpt lat="59.9742201" lon="17.7345488">
        <ele>17.4412</ele>
        <time>2014-06-13T21:16:08Z</time>
      </trkpt>
      <trkpt lat="59.974214" lon="17.7345985">
        <ele>16.4797</ele>
        <time>2014-06-13T21:16:09Z</time>
      </trkpt>
      <trkpt lat="59.9742129" lon="17.7346539">
        <ele>15.999</ele>
        <time>2014-06-13T21:16:10Z</time>
      </trkpt>
      <trkpt lat="59.9742164" lon="17.7347125">
        <ele>15.999</ele>
        <time>2014-06-13T21:16:11Z</time>
      </trkpt>
      <trkpt lat="59.9742186" lon="17.7347684">
        <ele>15.999</ele>
        <time>2014-06-13T21:16:12Z</time>
      </trkpt>
      <trkpt lat="59.9742248" lon="17.7348231">
        <ele>16.4797</ele>
        <time>2014-06-13T21:16:13Z</time>
      </trkpt>
      <trkpt lat="59.9742285" lon="17.7348765">
        <ele>16.4797</ele>
        <time>2014-06-13T21:16:14Z</time>
      </trkpt>
      <trkpt lat="59.9742351" lon="17.7349339">
        <ele>16.9604</ele>
        <time>2014-06-13T21:16:15Z</time>
      </trkpt>
      <trkpt lat="59.9742403" lon="17.7349885">
        <ele>17.4412</ele>
        <time>2014-06-13T21:16:16Z</time>
      </trkpt>
      <trkpt lat="59.9742429" lon="17.7350425">
        <ele>17.4412</ele>
        <time>2014-06-13T21:16:17Z</time>
      </trkpt>
      <trkpt lat="59.9742442" lon="17.7350983">
        <ele>17.4412</ele>
        <time>2014-06-13T21:16:18Z</time>
      </trkpt>
      <trkpt lat="59.9742508" lon="17.7351534">
        <ele>17.4412</ele>
        <time>2014-06-13T21:16:19Z</time>
      </trkpt>
      <trkpt lat="59.9742568" lon="17.7352138">
        <ele>17.4412</ele>
        <time>2014-06-13T21:16:20Z</time>
      </trkpt>
      <trkpt lat="59.9742634" lon="17.7352739">
        <ele>17.4412</ele>
        <time>2014-06-13T21:16:21Z</time>
      </trkpt>
      <trkpt lat="59.9742702" lon="17.7353314">
        <ele>16.9604</ele>
        <time>2014-06-13T21:16:22Z</time>
      </trkpt>
      <trkpt lat="59.9742755" lon="17.7353865">
        <ele>16.4797</ele>
        <time>2014-06-13T21:16:23Z</time>
      </trkpt>
      <trkpt lat="59.9742848" lon="17.7354422">
        <ele>15.999</ele>
        <time>2014-06-13T21:16:24Z</time>
      </trkpt>
      <trkpt lat="59.9742906" lon="17.7354994">
        <ele>15.0377</ele>
        <time>2014-06-13T21:16:25Z</time>
      </trkpt>
      <trkpt lat="59.9743031" lon="17.7355563">
        <ele>15.0377</ele>
        <time>2014-06-13T21:16:26Z</time>
      </trkpt>
      <trkpt lat="59.9743144" lon="17.7356132">
        <ele>15.0377</ele>
        <time>2014-06-13T21:16:27Z</time>
      </trkpt>
      <trkpt lat="59.9743237" lon="17.7356696">
        <ele>15.0377</ele>
        <time>2014-06-13T21:16:28Z</time>
      </trkpt>
      <trkpt lat="59.9743324" lon="17.7357249">
        <ele>15.0377</ele>
        <time>2014-06-13T21:16:29Z</time>
      </trkpt>
      <trkpt lat="59.9743403" lon="17.7357815">
        <ele>15.0377</ele>
        <time>2014-06-13T21:16:30Z</time>
      </trkpt>
      <trkpt lat="59.9743511" lon="17.7358347">
        <ele>15.5184</ele>
        <time>2014-06-13T21:16:31Z</time>
      </trkpt>
      <trkpt lat="59.9743605" lon="17.7358862">
        <ele>15.5184</ele>
        <time>2014-06-13T21:16:32Z</time>
      </trkpt>
      <trkpt lat="59.9743672" lon="17.7359343">
        <ele>15.999</ele>
        <time>2014-06-13T21:16:33Z</time>
      </trkpt>
      <trkpt lat="59.9743764" lon="17.7359819">
        <ele>16.4797</ele>
        <time>2014-06-13T21:16:34Z</time>
      </trkpt>
      <trkpt lat="59.9743867" lon="17.7360308">
        <ele>15.999</ele>
        <time>2014-06-13T21:16:35Z</time>
      </trkpt>
      <trkpt lat="59.9744015" lon="17.7360784">
        <ele>17.4412</ele>
        <time>2014-06-13T21:16:36Z</time>
      </trkpt>
      <trkpt lat="59.9744114" lon="17.7361276">
        <ele>17.4412</ele>
        <time>2014-06-13T21:16:37Z</time>
      </trkpt>
      <trkpt lat="59.9744245" lon="17.7361785">
        <ele>18.4023</ele>
        <time>2014-06-13T21:16:38Z</time>
      </trkpt>
      <trkpt lat="59.9744426" lon="17.736228">
        <ele>19.3638</ele>
        <time>2014-06-13T21:16:39Z</time>
      </trkpt>
      <trkpt lat="59.974459" lon="17.7362785">
        <ele>20.325</ele>
        <time>2014-06-13T21:16:40Z</time>
      </trkpt>
      <trkpt lat="59.974477" lon="17.7363318">
        <ele>21.2864</ele>
        <time>2014-06-13T21:16:41Z</time>
      </trkpt>
      <trkpt lat="59.9744935" lon="17.7363885">
        <ele>22.7283</ele>
        <time>2014-06-13T21:16:42Z</time>
      </trkpt>
      <trkpt lat="59.9745088" lon="17.7364421">
        <ele>23.209</ele>
        <time>2014-06-13T21:16:43Z</time>
      </trkpt>
      <trkpt lat="59.9745273" lon="17.73649">
        <ele>24.1703</ele>
        <time>2014-06-13T21:16:44Z</time>
      </trkpt>
      <trkpt lat="59.9745466" lon="17.7365411">
        <ele>24.651</ele>
        <time>2014-06-13T21:16:45Z</time>
      </trkpt>
      <trkpt lat="59.9745662" lon="17.7365928">
        <ele>25.6123</ele>
        <time>2014-06-13T21:16:46Z</time>
      </trkpt>
      <trkpt lat="59.9745846" lon="17.7366435">
        <ele>26.0929</ele>
        <time>2014-06-13T21:16:47Z</time>
      </trkpt>
      <trkpt lat="59.9745966" lon="17.7366933">
        <ele>26.0929</ele>
        <time>2014-06-13T21:16:48Z</time>
      </trkpt>
      <trkpt lat="59.9746106" lon="17.736739">
        <ele>26.0929</ele>
        <time>2014-06-13T21:16:49Z</time>
      </trkpt>
      <trkpt lat="59.9746288" lon="17.7367871">
        <ele>26.5736</ele>
        <time>2014-06-13T21:16:50Z</time>
      </trkpt>
      <trkpt lat="59.9746452" lon="17.7368358">
        <ele>26.5736</ele>
        <time>2014-06-13T21:16:51Z</time>
      </trkpt>
      <trkpt lat="59.9746628" lon="17.7368856">
        <ele>27.0543</ele>
        <time>2014-06-13T21:16:52Z</time>
      </trkpt>
      <trkpt lat="59.9746791" lon="17.7369371">
        <ele>27.0543</ele>
        <time>2014-06-13T21:16:53Z</time>
      </trkpt>
      <trkpt lat="59.9746968" lon="17.7369825">
        <ele>28.0155</ele>
        <time>2014-06-13T21:16:54Z</time>
      </trkpt>
      <trkpt lat="59.9747132" lon="17.7370299">
        <ele>28.0155</ele>
        <time>2014-06-13T21:16:55Z</time>
      </trkpt>
      <trkpt lat="59.9747302" lon="17.7370767">
        <ele>28.0155</ele>
        <time>2014-06-13T21:16:56Z</time>
      </trkpt>
      <trkpt lat="59.9747494" lon="17.7371201">
        <ele>27.5349</ele>
        <time>2014-06-13T21:16:57Z</time>
      </trkpt>
      <trkpt lat="59.9747688" lon="17.7371646">
        <ele>28.0155</ele>
        <time>2014-06-13T21:16:58Z</time>
      </trkpt>
      <trkpt lat="59.9747847" lon="17.737205">
        <ele>28.0155</ele>
        <time>2014-06-13T21:16:59Z</time>
      </trkpt>
      <trkpt lat="59.9748006" lon="17.737247">
        <ele>28.4962</ele>
        <time>2014-06-13T21:17:00Z</time>
      </trkpt>
      <trkpt lat="59.9748149" lon="17.7372878">
        <ele>28.9769</ele>
        <time>2014-06-13T21:17:01Z</time>
      </trkpt>
      <trkpt lat="59.9748322" lon="17.7373292">
        <ele>28.9769</ele>
        <time>2014-06-13T21:17:02Z</time>
      </trkpt>
      <trkpt lat="59.9748521" lon="17.7373682">
        <ele>29.4575</ele>
        <time>2014-06-13T21:17:03Z</time>
      </trkpt>
      <trkpt lat="59.9748707" lon="17.737402">
        <ele>29.9381</ele>
        <time>2014-06-13T21:17:04Z</time>
      </trkpt>
      <trkpt lat="59.9748925" lon="17.7374428">
        <ele>30.4188</ele>
        <time>2014-06-13T21:17:05Z</time>
      </trkpt>
      <trkpt lat="59.9749104" lon="17.7374838">
        <ele>30.8995</ele>
        <time>2014-06-13T21:17:06Z</time>
      </trkpt>
      <trkpt lat="59.974928" lon="17.7375204">
        <ele>30.4188</ele>
        <time>2014-06-13T21:17:07Z</time>
      </trkpt>
      <trkpt lat="59.9749472" lon="17.737561">
        <ele>30.8995</ele>
        <time>2014-06-13T21:17:08Z</time>
      </trkpt>
      <trkpt lat="59.9749619" lon="17.7375981">
        <ele>30.4188</ele>
        <time>2014-06-13T21:17:09Z</time>
      </trkpt>
      <trkpt lat="59.97498" lon="17.7376348">
        <ele>29.9381</ele>
        <time>2014-06-13T21:17:10Z</time>
      </trkpt>
      <trkpt lat="59.9749965" lon="17.7376709">
        <ele>28.9769</ele>
        <time>2014-06-13T21:17:11Z</time>
      </trkpt>
      <trkpt lat="59.9750132" lon="17.7377051">
        <ele>28.4962</ele>
        <time>2014-06-13T21:17:12Z</time>
      </trkpt>
      <trkpt lat="59.9750304" lon="17.7377397">
        <ele>27.5349</ele>
        <time>2014-06-13T21:17:13Z</time>
      </trkpt>
      <trkpt lat="59.9750439" lon="17.7377695">
        <ele>26.0929</ele>
        <time>2014-06-13T21:17:14Z</time>
      </trkpt>
      <trkpt lat="59.9750598" lon="17.7377981">
        <ele>25.1317</ele>
        <time>2014-06-13T21:17:15Z</time>
      </trkpt>
      <trkpt lat="59.9750803" lon="17.7378296">
        <ele>24.651</ele>
        <time>2014-06-13T21:17:16Z</time>
      </trkpt>
      <trkpt lat="59.9750992" lon="17.7378574">
        <ele>24.1703</ele>
        <time>2014-06-13T21:17:17Z</time>
      </trkpt>
      <trkpt lat="59.9751198" lon="17.7378877">
        <ele>24.1703</ele>
        <time>2014-06-13T21:17:18Z</time>
      </trkpt>
      <trkpt lat="59.975142" lon="17.7379178">
        <ele>23.6896</ele>
        <time>2014-06-13T21:17:19Z</time>
      </trkpt>
      <trkpt lat="59.9751599" lon="17.7379464">
        <ele>23.209</ele>
        <time>2014-06-13T21:17:20Z</time>
      </trkpt>
      <trkpt lat="59.9751815" lon="17.7379816">
        <ele>23.209</ele>
        <time>2014-06-13T21:17:21Z</time>
      </trkpt>
      <trkpt lat="59.9751977" lon="17.7380127">
        <ele>22.2476</ele>
        <time>2014-06-13T21:17:22Z</time>
      </trkpt>
      <trkpt lat="59.9752168" lon="17.7380431">
        <ele>21.767</ele>
        <time>2014-06-13T21:17:23Z</time>
      </trkpt>
      <trkpt lat="59.9752326" lon="17.7380774">
        <ele>20.8057</ele>
        <time>2014-06-13T21:17:24Z</time>
      </trkpt>
      <trkpt lat="59.9752503" lon="17.7381119">
        <ele>20.8057</ele>
        <time>2014-06-13T21:17:25Z</time>
      </trkpt>
      <trkpt lat="59.9752704" lon="17.7381468">
        <ele>20.8057</ele>
        <time>2014-06-13T21:17:26Z</time>
      </trkpt>
      <trkpt lat="59.9752863" lon="17.73818">
        <ele>19.8444</ele>
        <time>2014-06-13T21:17:27Z</time>
      </trkpt>
      <trkpt lat="59.9753017" lon="17.7382096">
        <ele>19.3638</ele>
        <time>2014-06-13T21:17:28Z</time>
      </trkpt>
      <trkpt lat="59.9753171" lon="17.7382432">
        <ele>18.4023</ele>
        <time>2014-06-13T21:17:29Z</time>
      </trkpt>
      <trkpt lat="59.9753336" lon="17.7382754">
        <ele>18.4023</ele>
        <time>2014-06-13T21:17:30Z</time>
      </trkpt>
      <trkpt lat="59.975354" lon="17.7383065">
        <ele>18.4023</ele>
        <time>2014-06-13T21:17:31Z</time>
      </trkpt>
      <trkpt lat="59.9753769" lon="17.73834">
        <ele>18.8831</ele>
        <time>2014-06-13T21:17:32Z</time>
      </trkpt>
      <trkpt lat="59.9753948" lon="17.7383706">
        <ele>18.8831</ele>
        <time>2014-06-13T21:17:33Z</time>
      </trkpt>
      <trkpt lat="59.975413" lon="17.7383992">
        <ele>18.4023</ele>
        <time>2014-06-13T21:17:34Z</time>
      </trkpt>
      <trkpt lat="59.9754333" lon="17.7384305">
        <ele>17.9218</ele>
        <time>2014-06-13T21:17:35Z</time>
      </trkpt>
      <trkpt lat="59.9754503" lon="17.7384622">
        <ele>17.9218</ele>
        <time>2014-06-13T21:17:36Z</time>
      </trkpt>
      <trkpt lat="59.975468" lon="17.738496">
        <ele>17.4412</ele>
        <time>2014-06-13T21:17:37Z</time>
      </trkpt>
      <trkpt lat="59.9754877" lon="17.7385298">
        <ele>17.4412</ele>
        <time>2014-06-13T21:17:38Z</time>
      </trkpt>
      <trkpt lat="59.9755095" lon="17.7385641">
        <ele>17.9218</ele>
        <time>2014-06-13T21:17:39Z</time>
      </trkpt>
      <trkpt lat="59.975532" lon="17.7386017">
        <ele>17.9218</ele>
        <time>2014-06-13T21:17:40Z</time>
      </trkpt>
      <trkpt lat="59.9755534" lon="17.738638">
        <ele>18.4023</ele>
        <time>2014-06-13T21:17:41Z</time>
      </trkpt>
      <trkpt lat="59.9755736" lon="17.7386727">
        <ele>17.9218</ele>
        <time>2014-06-13T21:17:42Z</time>
      </trkpt>
      <trkpt lat="59.975594" lon="17.7387072">
        <ele>18.4023</ele>
        <time>2014-06-13T21:17:43Z</time>
      </trkpt>
      <trkpt lat="59.975612" lon="17.7387394">
        <ele>18.4023</ele>
        <time>2014-06-13T21:17:44Z</time>
      </trkpt>
      <trkpt lat="59.9756328" lon="17.7387741">
        <ele>19.3638</ele>
        <time>2014-06-13T21:17:45Z</time>
      </trkpt>
      <trkpt lat="59.9756564" lon="17.7388078">
        <ele>19.8444</ele>
        <time>2014-06-13T21:17:46Z</time>
      </trkpt>
      <trkpt lat="59.9756787" lon="17.7388389">
        <ele>19.8444</ele>
        <time>2014-06-13T21:17:47Z</time>
      </trkpt>
      <trkpt lat="59.9757025" lon="17.7388726">
        <ele>20.325</ele>
        <time>2014-06-13T21:17:48Z</time>
      </trkpt>
      <trkpt lat="59.9757228" lon="17.7389036">
        <ele>20.8057</ele>
        <time>2014-06-13T21:17:49Z</time>
      </trkpt>
      <trkpt lat="59.9757462" lon="17.7389368">
        <ele>21.2864</ele>
        <time>2014-06-13T21:17:50Z</time>
      </trkpt>
      <trkpt lat="59.97577" lon="17.7389718">
        <ele>22.2476</ele>
        <time>2014-06-13T21:17:51Z</time>
      </trkpt>
      <trkpt lat="59.9757876" lon="17.7390026">
        <ele>21.767</ele>
        <time>2014-06-13T21:17:52Z</time>
      </trkpt>
      <trkpt lat="59.9758107" lon="17.7390341">
        <ele>21.767</ele>
        <time>2014-06-13T21:17:53Z</time>
      </trkpt>
      <trkpt lat="59.9758338" lon="17.7390637">
        <ele>22.2476</ele>
        <time>2014-06-13T21:17:54Z</time>
      </trkpt>
      <trkpt lat="59.975856" lon="17.7390979">
        <ele>23.209</ele>
        <time>2014-06-13T21:17:55Z</time>
      </trkpt>
      <trkpt lat="59.9758964" lon="17.7391633">
        <ele>22.7283</ele>
        <time>2014-06-13T21:17:57Z</time>
      </trkpt>
      <trkpt lat="59.9759174" lon="17.7391967">
        <ele>23.209</ele>
        <time>2014-06-13T21:17:58Z</time>
      </trkpt>
      <trkpt lat="59.9759389" lon="17.7392282">
        <ele>23.209</ele>
        <time>2014-06-13T21:17:59Z</time>
      </trkpt>
      <trkpt lat="59.9759631" lon="17.73926">
        <ele>23.209</ele>
        <time>2014-06-13T21:18:00Z</time>
      </trkpt>
      <trkpt lat="59.9759846" lon="17.7392927">
        <ele>22.7283</ele>
        <time>2014-06-13T21:18:01Z</time>
      </trkpt>
      <trkpt lat="59.9760058" lon="17.7393248">
        <ele>22.7283</ele>
        <time>2014-06-13T21:18:02Z</time>
      </trkpt>
      <trkpt lat="59.9760219" lon="17.7393645">
        <ele>22.7283</ele>
        <time>2014-06-13T21:18:03Z</time>
      </trkpt>
      <trkpt lat="59.9760397" lon="17.7394025">
        <ele>22.7283</ele>
        <time>2014-06-13T21:18:04Z</time>
      </trkpt>
      <trkpt lat="59.9760584" lon="17.7394389">
        <ele>22.7283</ele>
        <time>2014-06-13T21:18:05Z</time>
      </trkpt>
      <trkpt lat="59.9760761" lon="17.739477">
        <ele>22.7283</ele>
        <time>2014-06-13T21:18:06Z</time>
      </trkpt>
      <trkpt lat="59.9760916" lon="17.7395148">
        <ele>22.2476</ele>
        <time>2014-06-13T21:18:07Z</time>
      </trkpt>
      <trkpt lat="59.9761063" lon="17.7395554">
        <ele>22.2476</ele>
        <time>2014-06-13T21:18:08Z</time>
      </trkpt>
      <trkpt lat="59.9761203" lon="17.7395921">
        <ele>21.767</ele>
        <time>2014-06-13T21:18:09Z</time>
      </trkpt>
      <trkpt lat="59.9761403" lon="17.7396279">
        <ele>21.767</ele>
        <time>2014-06-13T21:18:10Z</time>
      </trkpt>
      <trkpt lat="59.9761589" lon="17.7396597">
        <ele>21.2864</ele>
        <time>2014-06-13T21:18:11Z</time>
      </trkpt>
      <trkpt lat="59.9761793" lon="17.7396926">
        <ele>21.2864</ele>
        <time>2014-06-13T21:18:12Z</time>
      </trkpt>
      <trkpt lat="59.976202" lon="17.7397226">
        <ele>21.2864</ele>
        <time>2014-06-13T21:18:13Z</time>
      </trkpt>
      <trkpt lat="59.9762218" lon="17.7397412">
        <ele>21.2864</ele>
        <time>2014-06-13T21:18:14Z</time>
      </trkpt>
      <trkpt lat="59.9762454" lon="17.7397602">
        <ele>21.2864</ele>
        <time>2014-06-13T21:18:15Z</time>
      </trkpt>
      <trkpt lat="59.9762688" lon="17.7397749">
        <ele>21.2864</ele>
        <time>2014-06-13T21:18:16Z</time>
      </trkpt>
      <trkpt lat="59.9762963" lon="17.7397811">
        <ele>21.767</ele>
        <time>2014-06-13T21:18:17Z</time>
      </trkpt>
      <trkpt lat="59.9763201" lon="17.7397811">
        <ele>21.2864</ele>
        <time>2014-06-13T21:18:18Z</time>
      </trkpt>
      <trkpt lat="59.9763433" lon="17.7397723">
        <ele>21.2864</ele>
        <time>2014-06-13T21:18:19Z</time>
      </trkpt>
      <trkpt lat="59.9763671" lon="17.7397483">
        <ele>21.2864</ele>
        <time>2014-06-13T21:18:20Z</time>
      </trkpt>
      <trkpt lat="59.9763875" lon="17.7397157">
        <ele>21.767</ele>
        <time>2014-06-13T21:18:21Z</time>
      </trkpt>
      <trkpt lat="59.9764072" lon="17.7396786">
        <ele>21.767</ele>
        <time>2014-06-13T21:18:22Z</time>
      </trkpt>
      <trkpt lat="59.9764282" lon="17.7396359">
        <ele>22.2476</ele>
        <time>2014-06-13T21:18:23Z</time>
      </trkpt>
      <trkpt lat="59.976447" lon="17.7395962">
        <ele>21.767</ele>
        <time>2014-06-13T21:18:24Z</time>
      </trkpt>
      <trkpt lat="59.9764693" lon="17.7395663">
        <ele>22.2476</ele>
        <time>2014-06-13T21:18:25Z</time>
      </trkpt>
      <trkpt lat="59.9764916" lon="17.7395318">
        <ele>22.7283</ele>
        <time>2014-06-13T21:18:26Z</time>
      </trkpt>
      <trkpt lat="59.9765137" lon="17.7394971">
        <ele>22.7283</ele>
        <time>2014-06-13T21:18:27Z</time>
      </trkpt>
      <trkpt lat="59.9765387" lon="17.739475">
        <ele>23.209</ele>
        <time>2014-06-13T21:18:28Z</time>
      </trkpt>
      <trkpt lat="59.9765637" lon="17.7394588">
        <ele>23.6896</ele>
        <time>2014-06-13T21:18:29Z</time>
      </trkpt>
      <trkpt lat="59.9765877" lon="17.7394372">
        <ele>23.6896</ele>
        <time>2014-06-13T21:18:30Z</time>
      </trkpt>
      <trkpt lat="59.9766147" lon="17.7394194">
        <ele>24.1703</ele>
        <time>2014-06-13T21:18:31Z</time>
      </trkpt>
      <trkpt lat="59.9766448" lon="17.7394111">
        <ele>24.1703</ele>
        <time>2014-06-13T21:18:32Z</time>
      </trkpt>
      <trkpt lat="59.9766702" lon="17.7394029">
        <ele>24.1703</ele>
        <time>2014-06-13T21:18:33Z</time>
      </trkpt>
      <trkpt lat="59.9766934" lon="17.7393963">
        <ele>24.1703</ele>
        <time>2014-06-13T21:18:34Z</time>
      </trkpt>
      <trkpt lat="59.9767185" lon="17.7393879">
        <ele>25.1317</ele>
        <time>2014-06-13T21:18:35Z</time>
      </trkpt>
      <trkpt lat="59.9767444" lon="17.7393817">
        <ele>25.1317</ele>
        <time>2014-06-13T21:18:36Z</time>
      </trkpt>
      <trkpt lat="59.9767677" lon="17.7393704">
        <ele>25.6123</ele>
        <time>2014-06-13T21:18:37Z</time>
      </trkpt>
      <trkpt lat="59.9767908" lon="17.7393573">
        <ele>25.1317</ele>
        <time>2014-06-13T21:18:38Z</time>
      </trkpt>
      <trkpt lat="59.9768165" lon="17.7393496">
        <ele>25.6123</ele>
        <time>2014-06-13T21:18:39Z</time>
      </trkpt>
      <trkpt lat="59.976838" lon="17.7393445">
        <ele>25.6123</ele>
        <time>2014-06-13T21:18:40Z</time>
      </trkpt>
      <trkpt lat="59.9768628" lon="17.7393373">
        <ele>26.0929</ele>
        <time>2014-06-13T21:18:41Z</time>
      </trkpt>
      <trkpt lat="59.9768894" lon="17.7393341">
        <ele>26.5736</ele>
        <time>2014-06-13T21:18:42Z</time>
      </trkpt>
      <trkpt lat="59.9769141" lon="17.739331">
        <ele>26.5736</ele>
        <time>2014-06-13T21:18:43Z</time>
      </trkpt>
      <trkpt lat="59.9769391" lon="17.7393254">
        <ele>27.0543</ele>
        <time>2014-06-13T21:18:44Z</time>
      </trkpt>
      <trkpt lat="59.9769607" lon="17.7393179">
        <ele>27.0543</ele>
        <time>2014-06-13T21:18:45Z</time>
      </trkpt>
      <trkpt lat="59.9769822" lon="17.7393057">
        <ele>26.5736</ele>
        <time>2014-06-13T21:18:46Z</time>
      </trkpt>
      <trkpt lat="59.977005" lon="17.7392976">
        <ele>26.5736</ele>
        <time>2014-06-13T21:18:47Z</time>
      </trkpt>
      <trkpt lat="59.9770294" lon="17.7392946">
        <ele>27.0543</ele>
        <time>2014-06-13T21:18:48Z</time>
      </trkpt>
      <trkpt lat="59.9770537" lon="17.73929">
        <ele>27.0543</ele>
        <time>2014-06-13T21:18:49Z</time>
      </trkpt>
      <trkpt lat="59.9770806" lon="17.7392862">
        <ele>27.5349</ele>
        <time>2014-06-13T21:18:50Z</time>
      </trkpt>
      <trkpt lat="59.9771064" lon="17.7392809">
        <ele>27.5349</ele>
        <time>2014-06-13T21:18:51Z</time>
      </trkpt>
      <trkpt lat="59.9771324" lon="17.7392738">
        <ele>27.5349</ele>
        <time>2014-06-13T21:18:52Z</time>
      </trkpt>
      <trkpt lat="59.9771576" lon="17.7392699">
        <ele>27.5349</ele>
        <time>2014-06-13T21:18:53Z</time>
      </trkpt>
      <trkpt lat="59.9771812" lon="17.7392629">
        <ele>28.0155</ele>
        <time>2014-06-13T21:18:54Z</time>
      </trkpt>
      <trkpt lat="59.9772016" lon="17.7392543">
        <ele>28.4962</ele>
        <time>2014-06-13T21:18:55Z</time>
      </trkpt>
      <trkpt lat="59.9772272" lon="17.7392409">
        <ele>28.4962</ele>
        <time>2014-06-13T21:18:56Z</time>
      </trkpt>
      <trkpt lat="59.9772591" lon="17.7392298">
        <ele>29.4575</ele>
        <time>2014-06-13T21:18:57Z</time>
      </trkpt>
      <trkpt lat="59.9772881" lon="17.7392248">
        <ele>29.9381</ele>
        <time>2014-06-13T21:18:58Z</time>
      </trkpt>
      <trkpt lat="59.9773173" lon="17.7392171">
        <ele>30.8995</ele>
        <time>2014-06-13T21:18:59Z</time>
      </trkpt>
      <trkpt lat="59.9773422" lon="17.7392082">
        <ele>31.3801</ele>
        <time>2014-06-13T21:19:00Z</time>
      </trkpt>
      <trkpt lat="59.9773674" lon="17.7391994">
        <ele>31.8607</ele>
        <time>2014-06-13T21:19:01Z</time>
      </trkpt>
      <trkpt lat="59.977391" lon="17.7391865">
        <ele>32.3416</ele>
        <time>2014-06-13T21:19:02Z</time>
      </trkpt>
      <trkpt lat="59.9774143" lon="17.7391713">
        <ele>32.8223</ele>
        <time>2014-06-13T21:19:03Z</time>
      </trkpt>
      <trkpt lat="59.9774393" lon="17.739157">
        <ele>32.8223</ele>
        <time>2014-06-13T21:19:04Z</time>
      </trkpt>
      <trkpt lat="59.9774676" lon="17.7391396">
        <ele>33.7834</ele>
        <time>2014-06-13T21:19:05Z</time>
      </trkpt>
      <trkpt lat="59.9774951" lon="17.7391197">
        <ele>34.2642</ele>
        <time>2014-06-13T21:19:06Z</time>
      </trkpt>
      <trkpt lat="59.9775239" lon="17.7391037">
        <ele>34.7449</ele>
        <time>2014-06-13T21:19:07Z</time>
      </trkpt>
      <trkpt lat="59.977552" lon="17.739093">
        <ele>35.2255</ele>
        <time>2014-06-13T21:19:08Z</time>
      </trkpt>
      <trkpt lat="59.9775835" lon="17.7390899">
        <ele>36.1868</ele>
        <time>2014-06-13T21:19:09Z</time>
      </trkpt>
      <trkpt lat="59.9776096" lon="17.7390854">
        <ele>35.7061</ele>
        <time>2014-06-13T21:19:10Z</time>
      </trkpt>
      <trkpt lat="59.9776358" lon="17.7390763">
        <ele>36.1868</ele>
        <time>2014-06-13T21:19:11Z</time>
      </trkpt>
      <trkpt lat="59.977659" lon="17.7390668">
        <ele>36.6675</ele>
        <time>2014-06-13T21:19:12Z</time>
      </trkpt>
      <trkpt lat="59.9776787" lon="17.7390612">
        <ele>36.6675</ele>
        <time>2014-06-13T21:19:13Z</time>
      </trkpt>
      <trkpt lat="59.9777016" lon="17.7390517">
        <ele>36.6675</ele>
        <time>2014-06-13T21:19:14Z</time>
      </trkpt>
      <trkpt lat="59.9777271" lon="17.7390486">
        <ele>37.1481</ele>
        <time>2014-06-13T21:19:15Z</time>
      </trkpt>
      <trkpt lat="59.9777514" lon="17.7390543">
        <ele>37.1481</ele>
        <time>2014-06-13T21:19:16Z</time>
      </trkpt>
      <trkpt lat="59.9777787" lon="17.7390605">
        <ele>37.6287</ele>
        <time>2014-06-13T21:19:17Z</time>
      </trkpt>
      <trkpt lat="59.9778058" lon="17.7390663">
        <ele>37.6287</ele>
        <time>2014-06-13T21:19:18Z</time>
      </trkpt>
      <trkpt lat="59.977832" lon="17.7390768">
        <ele>38.1094</ele>
        <time>2014-06-13T21:19:19Z</time>
      </trkpt>
      <trkpt lat="59.9778581" lon="17.7390897">
        <ele>38.5901</ele>
        <time>2014-06-13T21:19:20Z</time>
      </trkpt>
      <trkpt lat="59.9778789" lon="17.7391067">
        <ele>38.5901</ele>
        <time>2014-06-13T21:19:21Z</time>
      </trkpt>
      <trkpt lat="59.9779015" lon="17.7391254">
        <ele>38.5901</ele>
        <time>2014-06-13T21:19:22Z</time>
      </trkpt>
      <trkpt lat="59.977924" lon="17.7391397">
        <ele>38.1094</ele>
        <time>2014-06-13T21:19:23Z</time>
      </trkpt>
      <trkpt lat="59.977946" lon="17.7391482">
        <ele>38.1094</ele>
        <time>2014-06-13T21:19:24Z</time>
      </trkpt>
      <trkpt lat="59.9779731" lon="17.7391616">
        <ele>39.0707</ele>
        <time>2014-06-13T21:19:25Z</time>
      </trkpt>
      <trkpt lat="59.9780006" lon="17.7391739">
        <ele>39.5513</ele>
        <time>2014-06-13T21:19:26Z</time>
      </trkpt>
      <trkpt lat="59.9780275" lon="17.7391845">
        <ele>39.5513</ele>
        <time>2014-06-13T21:19:27Z</time>
      </trkpt>
      <trkpt lat="59.9780535" lon="17.7391984">
        <ele>39.5513</ele>
        <time>2014-06-13T21:19:28Z</time>
      </trkpt>
      <trkpt lat="59.9780786" lon="17.7392122">
        <ele>39.5513</ele>
        <time>2014-06-13T21:19:29Z</time>
      </trkpt>
      <trkpt lat="59.9781051" lon="17.7392156">
        <ele>39.0707</ele>
        <time>2014-06-13T21:19:30Z</time>
      </trkpt>
      <trkpt lat="59.978132" lon="17.7392132">
        <ele>39.0707</ele>
        <time>2014-06-13T21:19:31Z</time>
      </trkpt>
      <trkpt lat="59.9781612" lon="17.7392189">
        <ele>40.0321</ele>
        <time>2014-06-13T21:19:32Z</time>
      </trkpt>
      <trkpt lat="59.9781869" lon="17.7392254">
        <ele>40.0321</ele>
        <time>2014-06-13T21:19:33Z</time>
      </trkpt>
      <trkpt lat="59.9782143" lon="17.7392341">
        <ele>40.0321</ele>
        <time>2014-06-13T21:19:34Z</time>
      </trkpt>
      <trkpt lat="59.9782417" lon="17.7392428">
        <ele>40.5128</ele>
        <time>2014-06-13T21:19:35Z</time>
      </trkpt>
      <trkpt lat="59.9782645" lon="17.7392511">
        <ele>40.5128</ele>
        <time>2014-06-13T21:19:36Z</time>
      </trkpt>
      <trkpt lat="59.978292" lon="17.7392606">
        <ele>40.9934</ele>
        <time>2014-06-13T21:19:37Z</time>
      </trkpt>
      <trkpt lat="59.9783191" lon="17.7392723">
        <ele>40.9934</ele>
        <time>2014-06-13T21:19:38Z</time>
      </trkpt>
      <trkpt lat="59.9783453" lon="17.7392805">
        <ele>40.9934</ele>
        <time>2014-06-13T21:19:39Z</time>
      </trkpt>
      <trkpt lat="59.9783721" lon="17.739286">
        <ele>40.9934</ele>
        <time>2014-06-13T21:19:40Z</time>
      </trkpt>
      <trkpt lat="59.9784005" lon="17.7392894">
        <ele>40.9934</ele>
        <time>2014-06-13T21:19:41Z</time>
      </trkpt>
      <trkpt lat="59.9784274" lon="17.7392994">
        <ele>41.474</ele>
        <time>2014-06-13T21:19:42Z</time>
      </trkpt>
      <trkpt lat="59.9784543" lon="17.7393067">
        <ele>41.474</ele>
        <time>2014-06-13T21:19:43Z</time>
      </trkpt>
      <trkpt lat="59.9784805" lon="17.7393082">
        <ele>41.474</ele>
        <time>2014-06-13T21:19:44Z</time>
      </trkpt>
      <trkpt lat="59.9785052" lon="17.7393189">
        <ele>41.474</ele>
        <time>2014-06-13T21:19:45Z</time>
      </trkpt>
      <trkpt lat="59.9785347" lon="17.7393282">
        <ele>41.9547</ele>
        <time>2014-06-13T21:19:46Z</time>
      </trkpt>
      <trkpt lat="59.9785662" lon="17.7393345">
        <ele>42.4354</ele>
        <time>2014-06-13T21:19:47Z</time>
      </trkpt>
      <trkpt lat="59.9786015" lon="17.7393424">
        <ele>42.916</ele>
        <time>2014-06-13T21:19:48Z</time>
      </trkpt>
      <trkpt lat="59.9786413" lon="17.7393471">
        <ele>43.3966</ele>
        <time>2014-06-13T21:19:49Z</time>
      </trkpt>
      <trkpt lat="59.9786802" lon="17.7393554">
        <ele>43.3966</ele>
        <time>2014-06-13T21:19:50Z</time>
      </trkpt>
      <trkpt lat="59.9787124" lon="17.7393678">
        <ele>42.916</ele>
        <time>2014-06-13T21:19:51Z</time>
      </trkpt>
      <trkpt lat="59.9787414" lon="17.7393756">
        <ele>42.4354</ele>
        <time>2014-06-13T21:19:52Z</time>
      </trkpt>
      <trkpt lat="59.978776" lon="17.7393831">
        <ele>42.916</ele>
        <time>2014-06-13T21:19:53Z</time>
      </trkpt>
      <trkpt lat="59.9788092" lon="17.7393812">
        <ele>42.4354</ele>
        <time>2014-06-13T21:19:54Z</time>
      </trkpt>
      <trkpt lat="59.9788439" lon="17.739379">
        <ele>42.4354</ele>
        <time>2014-06-13T21:19:55Z</time>
      </trkpt>
      <trkpt lat="59.978876" lon="17.7393798">
        <ele>42.4354</ele>
        <time>2014-06-13T21:19:56Z</time>
      </trkpt>
    </trkseg>
  </trk>
</gpx>